<?xml version="1.0" encoding="UTF-8" standalone="no" ?>
<gpx xmlns="http://www.topografix.com/GPX/1/1" xmlns:xsi="http://www.w3.org/2001/XMLSchema-instance" xsi:schemaLocation="http://www.topografix.com/GPX/1/1 http://www.topografix.com/GPX/1/1/gpx.xsd" version="1.1" creator="VisuGPX - https://www.visugpx.com">
  <metadata>
    <name>Randonnée OVS Hyet</name>
    <desc><![CDATA[Départ du village de Hyet. A faire par tous les temps. Peu de dénivelé. Balade essentiellement en forêt.]]></desc>
  </metadata>
  <trk>
    <name><![CDATA[Rando OVS Hyet]]></name>
    <trkseg>
      <trkpt lat="47.47267" lon="6.09225">
        <ele>286.79998779297</ele>
        <time>2014-11-11T08:18:57.000Z</time>
      </trkpt>
      <trkpt lat="47.47266" lon="6.09219">
        <ele>286.79998779297</ele>
        <time>2014-11-11T08:19:00.000Z</time>
      </trkpt>
      <trkpt lat="47.47262" lon="6.09198">
        <ele>286.60000610352</ele>
        <time>2014-11-11T08:19:11.000Z</time>
      </trkpt>
      <trkpt lat="47.47261" lon="6.09186">
        <ele>286.39999389648</ele>
        <time>2014-11-11T08:19:18.000Z</time>
      </trkpt>
      <trkpt lat="47.47258" lon="6.09171">
        <ele>286.20001220703</ele>
        <time>2014-11-11T08:19:26.000Z</time>
      </trkpt>
      <trkpt lat="47.47255" lon="6.09158">
        <ele>286.20001220703</ele>
        <time>2014-11-11T08:19:33.000Z</time>
      </trkpt>
      <trkpt lat="47.47251" lon="6.09141">
        <ele>286.20001220703</ele>
        <time>2014-11-11T08:19:42.000Z</time>
      </trkpt>
      <trkpt lat="47.47245" lon="6.09125">
        <ele>288</ele>
        <time>2014-11-11T08:19:51.000Z</time>
      </trkpt>
      <trkpt lat="47.47242" lon="6.09113">
        <ele>289.60000610352</ele>
        <time>2014-11-11T08:19:58.000Z</time>
      </trkpt>
      <trkpt lat="47.47239" lon="6.09101">
        <ele>291</ele>
        <time>2014-11-11T08:20:04.000Z</time>
      </trkpt>
      <trkpt lat="47.47235" lon="6.09086">
        <ele>292.79998779297</ele>
        <time>2014-11-11T08:20:12.000Z</time>
      </trkpt>
      <trkpt lat="47.47231" lon="6.09069">
        <ele>294.79998779297</ele>
        <time>2014-11-11T08:20:21.000Z</time>
      </trkpt>
      <trkpt lat="47.47229" lon="6.09056">
        <ele>296.20001220703</ele>
        <time>2014-11-11T08:20:28.000Z</time>
      </trkpt>
      <trkpt lat="47.47227" lon="6.09042">
        <ele>297.39999389648</ele>
        <time>2014-11-11T08:20:36.000Z</time>
      </trkpt>
      <trkpt lat="47.47224" lon="6.09025">
        <ele>299.60000610352</ele>
        <time>2014-11-11T08:20:45.000Z</time>
      </trkpt>
      <trkpt lat="47.47221" lon="6.09012">
        <ele>301.60000610352</ele>
        <time>2014-11-11T08:20:52.000Z</time>
      </trkpt>
      <trkpt lat="47.47219" lon="6.09007">
        <ele>302.79998779297</ele>
        <time>2014-11-11T08:20:55.000Z</time>
      </trkpt>
      <trkpt lat="47.47217" lon="6.08993">
        <ele>304.60000610352</ele>
        <time>2014-11-11T08:21:03.000Z</time>
      </trkpt>
      <trkpt lat="47.47216" lon="6.08976">
        <ele>306.79998779297</ele>
        <time>2014-11-11T08:21:12.000Z</time>
      </trkpt>
      <trkpt lat="47.47216" lon="6.08968">
        <ele>306.20001220703</ele>
        <time>2014-11-11T08:21:17.000Z</time>
      </trkpt>
      <trkpt lat="47.47216" lon="6.08961">
        <ele>306</ele>
        <time>2014-11-11T08:21:21.000Z</time>
      </trkpt>
      <trkpt lat="47.47215" lon="6.08945">
        <ele>305.39999389648</ele>
        <time>2014-11-11T08:21:30.000Z</time>
      </trkpt>
      <trkpt lat="47.47213" lon="6.08941">
        <ele>305.60000610352</ele>
        <time>2014-11-11T08:21:33.000Z</time>
      </trkpt>
      <trkpt lat="47.47211" lon="6.08932">
        <ele>306.39999389648</ele>
        <time>2014-11-11T08:21:38.000Z</time>
      </trkpt>
      <trkpt lat="47.47207" lon="6.08917">
        <ele>308</ele>
        <time>2014-11-11T08:21:47.000Z</time>
      </trkpt>
      <trkpt lat="47.47202" lon="6.08896">
        <ele>310.20001220703</ele>
        <time>2014-11-11T08:21:58.000Z</time>
      </trkpt>
      <trkpt lat="47.47201" lon="6.08891">
        <ele>310.60000610352</ele>
        <time>2014-11-11T08:22:01.000Z</time>
      </trkpt>
      <trkpt lat="47.47198" lon="6.08882">
        <ele>310.60000610352</ele>
        <time>2014-11-11T08:22:06.000Z</time>
      </trkpt>
      <trkpt lat="47.47195" lon="6.08864">
        <ele>310.60000610352</ele>
        <time>2014-11-11T08:22:16.000Z</time>
      </trkpt>
      <trkpt lat="47.47192" lon="6.08849">
        <ele>310.39999389648</ele>
        <time>2014-11-11T08:22:24.000Z</time>
      </trkpt>
      <trkpt lat="47.47191" lon="6.08834">
        <ele>310.20001220703</ele>
        <time>2014-11-11T08:22:32.000Z</time>
      </trkpt>
      <trkpt lat="47.47191" lon="6.08832">
        <ele>310.39999389648</ele>
        <time>2014-11-11T08:22:33.000Z</time>
      </trkpt>
      <trkpt lat="47.47191" lon="6.0882">
        <ele>311.20001220703</ele>
        <time>2014-11-11T08:22:40.000Z</time>
      </trkpt>
      <trkpt lat="47.47191" lon="6.08808">
        <ele>312.20001220703</ele>
        <time>2014-11-11T08:22:47.000Z</time>
      </trkpt>
      <trkpt lat="47.47191" lon="6.08806">
        <ele>312.39999389648</ele>
        <time>2014-11-11T08:22:48.000Z</time>
      </trkpt>
      <trkpt lat="47.47192" lon="6.08797">
        <ele>313</ele>
        <time>2014-11-11T08:22:53.000Z</time>
      </trkpt>
      <trkpt lat="47.47195" lon="6.08793">
        <ele>313.39999389648</ele>
        <time>2014-11-11T08:22:58.000Z</time>
      </trkpt>
      <trkpt lat="47.47195" lon="6.08792">
        <ele>313.60000610352</ele>
        <time>2014-11-11T08:22:59.000Z</time>
      </trkpt>
      <trkpt lat="47.47197" lon="6.08788">
        <ele>313.79998779297</ele>
        <time>2014-11-11T08:23:03.000Z</time>
      </trkpt>
      <trkpt lat="47.47199" lon="6.08781">
        <ele>314.39999389648</ele>
        <time>2014-11-11T08:23:09.000Z</time>
      </trkpt>
      <trkpt lat="47.472" lon="6.08777">
        <ele>314.79998779297</ele>
        <time>2014-11-11T08:23:11.000Z</time>
      </trkpt>
      <trkpt lat="47.472" lon="6.08774">
        <ele>315</ele>
        <time>2014-11-11T08:23:13.000Z</time>
      </trkpt>
      <trkpt lat="47.47202" lon="6.08764">
        <ele>315.79998779297</ele>
        <time>2014-11-11T08:23:20.000Z</time>
      </trkpt>
      <trkpt lat="47.47203" lon="6.08762">
        <ele>316</ele>
        <time>2014-11-11T08:23:22.000Z</time>
      </trkpt>
      <trkpt lat="47.47204" lon="6.08759">
        <ele>316.20001220703</ele>
        <time>2014-11-11T08:23:24.000Z</time>
      </trkpt>
      <trkpt lat="47.47204" lon="6.08751">
        <ele>316.60000610352</ele>
        <time>2014-11-11T08:23:28.000Z</time>
      </trkpt>
      <trkpt lat="47.47204" lon="6.08746">
        <ele>317</ele>
        <time>2014-11-11T08:23:31.000Z</time>
      </trkpt>
      <trkpt lat="47.47203" lon="6.08741">
        <ele>317.20001220703</ele>
        <time>2014-11-11T08:23:34.000Z</time>
      </trkpt>
      <trkpt lat="47.47203" lon="6.08736">
        <ele>317.60000610352</ele>
        <time>2014-11-11T08:23:39.000Z</time>
      </trkpt>
      <trkpt lat="47.47205" lon="6.08731">
        <ele>317.79998779297</ele>
        <time>2014-11-11T08:23:43.000Z</time>
      </trkpt>
      <trkpt lat="47.47205" lon="6.08728">
        <ele>318</ele>
        <time>2014-11-11T08:23:45.000Z</time>
      </trkpt>
      <trkpt lat="47.47207" lon="6.0872">
        <ele>318.79998779297</ele>
        <time>2014-11-11T08:23:50.000Z</time>
      </trkpt>
      <trkpt lat="47.47207" lon="6.08719">
        <ele>319</ele>
        <time>2014-11-11T08:23:51.000Z</time>
      </trkpt>
      <trkpt lat="47.47209" lon="6.08713">
        <ele>319.79998779297</ele>
        <time>2014-11-11T08:23:56.000Z</time>
      </trkpt>
      <trkpt lat="47.47208" lon="6.0871">
        <ele>320.20001220703</ele>
        <time>2014-11-11T08:23:58.000Z</time>
      </trkpt>
      <trkpt lat="47.47209" lon="6.08698">
        <ele>321.79998779297</ele>
        <time>2014-11-11T08:24:04.000Z</time>
      </trkpt>
      <trkpt lat="47.4721" lon="6.08695">
        <ele>322.20001220703</ele>
        <time>2014-11-11T08:24:06.000Z</time>
      </trkpt>
      <trkpt lat="47.4721" lon="6.08695">
        <ele>322.20001220703</ele>
        <time>2014-11-11T08:24:07.000Z</time>
      </trkpt>
      <trkpt lat="47.4721" lon="6.08688">
        <ele>323</ele>
        <time>2014-11-11T08:24:10.000Z</time>
      </trkpt>
      <trkpt lat="47.47212" lon="6.0868">
        <ele>322.79998779297</ele>
        <time>2014-11-11T08:24:15.000Z</time>
      </trkpt>
      <trkpt lat="47.47214" lon="6.08678">
        <ele>322.60000610352</ele>
        <time>2014-11-11T08:24:17.000Z</time>
      </trkpt>
      <trkpt lat="47.47215" lon="6.08675">
        <ele>322.39999389648</ele>
        <time>2014-11-11T08:24:19.000Z</time>
      </trkpt>
      <trkpt lat="47.47218" lon="6.08666">
        <ele>322</ele>
        <time>2014-11-11T08:24:25.000Z</time>
      </trkpt>
      <trkpt lat="47.47218" lon="6.08664">
        <ele>321.79998779297</ele>
        <time>2014-11-11T08:24:26.000Z</time>
      </trkpt>
      <trkpt lat="47.47221" lon="6.08658">
        <ele>321.39999389648</ele>
        <time>2014-11-11T08:24:30.000Z</time>
      </trkpt>
      <trkpt lat="47.47221" lon="6.08656">
        <ele>321.39999389648</ele>
        <time>2014-11-11T08:24:31.000Z</time>
      </trkpt>
      <trkpt lat="47.47222" lon="6.08655">
        <ele>321.39999389648</ele>
        <time>2014-11-11T08:24:32.000Z</time>
      </trkpt>
      <trkpt lat="47.47224" lon="6.08641">
        <ele>321.20001220703</ele>
        <time>2014-11-11T08:24:38.000Z</time>
      </trkpt>
      <trkpt lat="47.47226" lon="6.08632">
        <ele>322</ele>
        <time>2014-11-11T08:24:42.000Z</time>
      </trkpt>
      <trkpt lat="47.47228" lon="6.0862">
        <ele>322.79998779297</ele>
        <time>2014-11-11T08:24:47.000Z</time>
      </trkpt>
      <trkpt lat="47.47231" lon="6.08609">
        <ele>322.79998779297</ele>
        <time>2014-11-11T08:24:52.000Z</time>
      </trkpt>
      <trkpt lat="47.47233" lon="6.08602">
        <ele>322.79998779297</ele>
        <time>2014-11-11T08:24:55.000Z</time>
      </trkpt>
      <trkpt lat="47.47238" lon="6.08592">
        <ele>322.60000610352</ele>
        <time>2014-11-11T08:25:02.000Z</time>
      </trkpt>
      <trkpt lat="47.47242" lon="6.08579">
        <ele>322.39999389648</ele>
        <time>2014-11-11T08:25:10.000Z</time>
      </trkpt>
      <trkpt lat="47.47244" lon="6.08571">
        <ele>322.60000610352</ele>
        <time>2014-11-11T08:25:15.000Z</time>
      </trkpt>
      <trkpt lat="47.47248" lon="6.08561">
        <ele>322.39999389648</ele>
        <time>2014-11-11T08:25:22.000Z</time>
      </trkpt>
      <trkpt lat="47.47248" lon="6.08559">
        <ele>322.20001220703</ele>
        <time>2014-11-11T08:25:23.000Z</time>
      </trkpt>
      <trkpt lat="47.47253" lon="6.0855">
        <ele>322.79998779297</ele>
        <time>2014-11-11T08:25:30.000Z</time>
      </trkpt>
      <trkpt lat="47.47259" lon="6.08541">
        <ele>323.39999389648</ele>
        <time>2014-11-11T08:25:36.000Z</time>
      </trkpt>
      <trkpt lat="47.47261" lon="6.08536">
        <ele>323.79998779297</ele>
        <time>2014-11-11T08:25:39.000Z</time>
      </trkpt>
      <trkpt lat="47.47265" lon="6.08526">
        <ele>324.60000610352</ele>
        <time>2014-11-11T08:25:45.000Z</time>
      </trkpt>
      <trkpt lat="47.47268" lon="6.08522">
        <ele>324.79998779297</ele>
        <time>2014-11-11T08:25:48.000Z</time>
      </trkpt>
      <trkpt lat="47.47269" lon="6.08519">
        <ele>325.20001220703</ele>
        <time>2014-11-11T08:25:50.000Z</time>
      </trkpt>
      <trkpt lat="47.47273" lon="6.08513">
        <ele>325.60000610352</ele>
        <time>2014-11-11T08:25:55.000Z</time>
      </trkpt>
      <trkpt lat="47.47274" lon="6.08509">
        <ele>326</ele>
        <time>2014-11-11T08:25:58.000Z</time>
      </trkpt>
      <trkpt lat="47.47275" lon="6.08504">
        <ele>326.20001220703</ele>
        <time>2014-11-11T08:26:01.000Z</time>
      </trkpt>
      <trkpt lat="47.47278" lon="6.08498">
        <ele>326.20001220703</ele>
        <time>2014-11-11T08:26:05.000Z</time>
      </trkpt>
      <trkpt lat="47.47279" lon="6.08488">
        <ele>326.20001220703</ele>
        <time>2014-11-11T08:26:10.000Z</time>
      </trkpt>
      <trkpt lat="47.47282" lon="6.08473">
        <ele>326.20001220703</ele>
        <time>2014-11-11T08:26:17.000Z</time>
      </trkpt>
      <trkpt lat="47.47283" lon="6.08469">
        <ele>326.20001220703</ele>
        <time>2014-11-11T08:26:19.000Z</time>
      </trkpt>
      <trkpt lat="47.47285" lon="6.08454">
        <ele>326.79998779297</ele>
        <time>2014-11-11T08:26:25.000Z</time>
      </trkpt>
      <trkpt lat="47.47286" lon="6.0844">
        <ele>327.39999389648</ele>
        <time>2014-11-11T08:26:32.000Z</time>
      </trkpt>
      <trkpt lat="47.47288" lon="6.08429">
        <ele>327.60000610352</ele>
        <time>2014-11-11T08:26:38.000Z</time>
      </trkpt>
      <trkpt lat="47.4729" lon="6.0841">
        <ele>327.79998779297</ele>
        <time>2014-11-11T08:26:47.000Z</time>
      </trkpt>
      <trkpt lat="47.47291" lon="6.08409">
        <ele>327.79998779297</ele>
        <time>2014-11-11T08:26:48.000Z</time>
      </trkpt>
      <trkpt lat="47.47293" lon="6.08389">
        <ele>328</ele>
        <time>2014-11-11T08:26:57.000Z</time>
      </trkpt>
      <trkpt lat="47.47292" lon="6.0837">
        <ele>328.60000610352</ele>
        <time>2014-11-11T08:27:07.000Z</time>
      </trkpt>
      <trkpt lat="47.47288" lon="6.08353">
        <ele>329</ele>
        <time>2014-11-11T08:27:16.000Z</time>
      </trkpt>
      <trkpt lat="47.47284" lon="6.08338">
        <ele>329.39999389648</ele>
        <time>2014-11-11T08:27:24.000Z</time>
      </trkpt>
      <trkpt lat="47.4728" lon="6.08323">
        <ele>329.60000610352</ele>
        <time>2014-11-11T08:27:32.000Z</time>
      </trkpt>
      <trkpt lat="47.47276" lon="6.08306">
        <ele>329.60000610352</ele>
        <time>2014-11-11T08:27:41.000Z</time>
      </trkpt>
      <trkpt lat="47.47271" lon="6.08293">
        <ele>329.60000610352</ele>
        <time>2014-11-11T08:27:49.000Z</time>
      </trkpt>
      <trkpt lat="47.47264" lon="6.08279">
        <ele>329.60000610352</ele>
        <time>2014-11-11T08:27:58.000Z</time>
      </trkpt>
      <trkpt lat="47.47258" lon="6.08267">
        <ele>329.60000610352</ele>
        <time>2014-11-11T08:28:06.000Z</time>
      </trkpt>
      <trkpt lat="47.47249" lon="6.08253">
        <ele>329.60000610352</ele>
        <time>2014-11-11T08:28:16.000Z</time>
      </trkpt>
      <trkpt lat="47.47247" lon="6.08252">
        <ele>329.60000610352</ele>
        <time>2014-11-11T08:28:22.000Z</time>
      </trkpt>
      <trkpt lat="47.47248" lon="6.08249">
        <ele>329.60000610352</ele>
        <time>2014-11-11T08:28:27.000Z</time>
      </trkpt>
      <trkpt lat="47.47249" lon="6.08247">
        <ele>329.60000610352</ele>
        <time>2014-11-11T08:28:34.000Z</time>
      </trkpt>
      <trkpt lat="47.4725" lon="6.08246">
        <ele>329.39999389648</ele>
        <time>2014-11-11T08:28:39.000Z</time>
      </trkpt>
      <trkpt lat="47.47251" lon="6.08245">
        <ele>329.39999389648</ele>
        <time>2014-11-11T08:29:22.000Z</time>
      </trkpt>
      <trkpt lat="47.47246" lon="6.08242">
        <ele>329.39999389648</ele>
        <time>2014-11-11T08:29:27.000Z</time>
      </trkpt>
      <trkpt lat="47.47245" lon="6.08241">
        <ele>329.39999389648</ele>
        <time>2014-11-11T08:29:28.000Z</time>
      </trkpt>
      <trkpt lat="47.47238" lon="6.08232">
        <ele>329.39999389648</ele>
        <time>2014-11-11T08:29:35.000Z</time>
      </trkpt>
      <trkpt lat="47.4723" lon="6.08222">
        <ele>329.20001220703</ele>
        <time>2014-11-11T08:29:45.000Z</time>
      </trkpt>
      <trkpt lat="47.47225" lon="6.08215">
        <ele>329</ele>
        <time>2014-11-11T08:29:51.000Z</time>
      </trkpt>
      <trkpt lat="47.47216" lon="6.08203">
        <ele>328.60000610352</ele>
        <time>2014-11-11T08:29:59.000Z</time>
      </trkpt>
      <trkpt lat="47.47208" lon="6.08192">
        <ele>328.39999389648</ele>
        <time>2014-11-11T08:30:07.000Z</time>
      </trkpt>
      <trkpt lat="47.47201" lon="6.08183">
        <ele>328.20001220703</ele>
        <time>2014-11-11T08:30:14.000Z</time>
      </trkpt>
      <trkpt lat="47.47193" lon="6.08174">
        <ele>327.79998779297</ele>
        <time>2014-11-11T08:30:22.000Z</time>
      </trkpt>
      <trkpt lat="47.47187" lon="6.08167">
        <ele>327.60000610352</ele>
        <time>2014-11-11T08:30:28.000Z</time>
      </trkpt>
      <trkpt lat="47.47179" lon="6.08157">
        <ele>327.39999389648</ele>
        <time>2014-11-11T08:30:36.000Z</time>
      </trkpt>
      <trkpt lat="47.47171" lon="6.08147">
        <ele>327.20001220703</ele>
        <time>2014-11-11T08:30:44.000Z</time>
      </trkpt>
      <trkpt lat="47.47163" lon="6.08139">
        <ele>326.79998779297</ele>
        <time>2014-11-11T08:30:51.000Z</time>
      </trkpt>
      <trkpt lat="47.47143" lon="6.08118">
        <ele>326</ele>
        <time>2014-11-11T08:31:09.000Z</time>
      </trkpt>
      <trkpt lat="47.47132" lon="6.08106">
        <ele>325.39999389648</ele>
        <time>2014-11-11T08:31:19.000Z</time>
      </trkpt>
      <trkpt lat="47.4713" lon="6.08105">
        <ele>325.20001220703</ele>
        <time>2014-11-11T08:31:20.000Z</time>
      </trkpt>
      <trkpt lat="47.47126" lon="6.08101">
        <ele>325</ele>
        <time>2014-11-11T08:31:24.000Z</time>
      </trkpt>
      <trkpt lat="47.4711" lon="6.08087">
        <ele>324.39999389648</ele>
        <time>2014-11-11T08:31:37.000Z</time>
      </trkpt>
      <trkpt lat="47.47096" lon="6.08073">
        <ele>323.60000610352</ele>
        <time>2014-11-11T08:31:49.000Z</time>
      </trkpt>
      <trkpt lat="47.47095" lon="6.08072">
        <ele>323.60000610352</ele>
        <time>2014-11-11T08:31:50.000Z</time>
      </trkpt>
      <trkpt lat="47.47088" lon="6.08065">
        <ele>323.20001220703</ele>
        <time>2014-11-11T08:31:56.000Z</time>
      </trkpt>
      <trkpt lat="47.47077" lon="6.08052">
        <ele>322.79998779297</ele>
        <time>2014-11-11T08:32:06.000Z</time>
      </trkpt>
      <trkpt lat="47.47067" lon="6.0804">
        <ele>322.60000610352</ele>
        <time>2014-11-11T08:32:15.000Z</time>
      </trkpt>
      <trkpt lat="47.47057" lon="6.08028">
        <ele>322.39999389648</ele>
        <time>2014-11-11T08:32:24.000Z</time>
      </trkpt>
      <trkpt lat="47.47047" lon="6.08017">
        <ele>322</ele>
        <time>2014-11-11T08:32:33.000Z</time>
      </trkpt>
      <trkpt lat="47.47036" lon="6.08003">
        <ele>321.79998779297</ele>
        <time>2014-11-11T08:32:43.000Z</time>
      </trkpt>
      <trkpt lat="47.47024" lon="6.07988">
        <ele>321.39999389648</ele>
        <time>2014-11-11T08:32:55.000Z</time>
      </trkpt>
      <trkpt lat="47.47011" lon="6.07973">
        <ele>321</ele>
        <time>2014-11-11T08:33:06.000Z</time>
      </trkpt>
      <trkpt lat="47.47007" lon="6.07966">
        <ele>320.79998779297</ele>
        <time>2014-11-11T08:33:12.000Z</time>
      </trkpt>
      <trkpt lat="47.46997" lon="6.07953">
        <ele>320.39999389648</ele>
        <time>2014-11-11T08:33:22.000Z</time>
      </trkpt>
      <trkpt lat="47.46988" lon="6.0794">
        <ele>320.20001220703</ele>
        <time>2014-11-11T08:33:31.000Z</time>
      </trkpt>
      <trkpt lat="47.46978" lon="6.07927">
        <ele>319.79998779297</ele>
        <time>2014-11-11T08:33:40.000Z</time>
      </trkpt>
      <trkpt lat="47.46968" lon="6.07911">
        <ele>319.39999389648</ele>
        <time>2014-11-11T08:33:50.000Z</time>
      </trkpt>
      <trkpt lat="47.46959" lon="6.07897">
        <ele>319.20001220703</ele>
        <time>2014-11-11T08:33:59.000Z</time>
      </trkpt>
      <trkpt lat="47.46949" lon="6.07885">
        <ele>318.60000610352</ele>
        <time>2014-11-11T08:34:08.000Z</time>
      </trkpt>
      <trkpt lat="47.46939" lon="6.07869">
        <ele>318.20001220703</ele>
        <time>2014-11-11T08:34:18.000Z</time>
      </trkpt>
      <trkpt lat="47.46929" lon="6.07853">
        <ele>317.60000610352</ele>
        <time>2014-11-11T08:34:29.000Z</time>
      </trkpt>
      <trkpt lat="47.46919" lon="6.07838">
        <ele>317</ele>
        <time>2014-11-11T08:34:39.000Z</time>
      </trkpt>
      <trkpt lat="47.4691" lon="6.07825">
        <ele>316.60000610352</ele>
        <time>2014-11-11T08:34:48.000Z</time>
      </trkpt>
      <trkpt lat="47.46901" lon="6.07812">
        <ele>316.39999389648</ele>
        <time>2014-11-11T08:34:57.000Z</time>
      </trkpt>
      <trkpt lat="47.46892" lon="6.07798">
        <ele>316.39999389648</ele>
        <time>2014-11-11T08:35:06.000Z</time>
      </trkpt>
      <trkpt lat="47.46882" lon="6.07783">
        <ele>316.60000610352</ele>
        <time>2014-11-11T08:35:17.000Z</time>
      </trkpt>
      <trkpt lat="47.46875" lon="6.07772">
        <ele>316.60000610352</ele>
        <time>2014-11-11T08:35:25.000Z</time>
      </trkpt>
      <trkpt lat="47.46863" lon="6.07757">
        <ele>316.60000610352</ele>
        <time>2014-11-11T08:35:36.000Z</time>
      </trkpt>
      <trkpt lat="47.46853" lon="6.07745">
        <ele>316.60000610352</ele>
        <time>2014-11-11T08:35:47.000Z</time>
      </trkpt>
      <trkpt lat="47.46849" lon="6.0774">
        <ele>316.79998779297</ele>
        <time>2014-11-11T08:35:52.000Z</time>
      </trkpt>
      <trkpt lat="47.4684" lon="6.07731">
        <ele>316.79998779297</ele>
        <time>2014-11-11T08:36:00.000Z</time>
      </trkpt>
      <trkpt lat="47.46832" lon="6.07725">
        <ele>317</ele>
        <time>2014-11-11T08:36:07.000Z</time>
      </trkpt>
      <trkpt lat="47.46822" lon="6.07715">
        <ele>317.39999389648</ele>
        <time>2014-11-11T08:36:15.000Z</time>
      </trkpt>
      <trkpt lat="47.4681" lon="6.07704">
        <ele>318</ele>
        <time>2014-11-11T08:36:25.000Z</time>
      </trkpt>
      <trkpt lat="47.46799" lon="6.07695">
        <ele>318.39999389648</ele>
        <time>2014-11-11T08:36:34.000Z</time>
      </trkpt>
      <trkpt lat="47.46786" lon="6.07682">
        <ele>319</ele>
        <time>2014-11-11T08:36:45.000Z</time>
      </trkpt>
      <trkpt lat="47.46773" lon="6.07669">
        <ele>319.60000610352</ele>
        <time>2014-11-11T08:36:56.000Z</time>
      </trkpt>
      <trkpt lat="47.46761" lon="6.07657">
        <ele>319.79998779297</ele>
        <time>2014-11-11T08:37:06.000Z</time>
      </trkpt>
      <trkpt lat="47.46753" lon="6.07646">
        <ele>320</ele>
        <time>2014-11-11T08:37:14.000Z</time>
      </trkpt>
      <trkpt lat="47.46745" lon="6.07634">
        <ele>320</ele>
        <time>2014-11-11T08:37:22.000Z</time>
      </trkpt>
      <trkpt lat="47.46737" lon="6.07623">
        <ele>319.79998779297</ele>
        <time>2014-11-11T08:37:30.000Z</time>
      </trkpt>
      <trkpt lat="47.46729" lon="6.07609">
        <ele>319.79998779297</ele>
        <time>2014-11-11T08:37:39.000Z</time>
      </trkpt>
      <trkpt lat="47.46724" lon="6.07599">
        <ele>319.79998779297</ele>
        <time>2014-11-11T08:37:46.000Z</time>
      </trkpt>
      <trkpt lat="47.46717" lon="6.07587">
        <ele>319.60000610352</ele>
        <time>2014-11-11T08:37:54.000Z</time>
      </trkpt>
      <trkpt lat="47.4671" lon="6.07575">
        <ele>319.60000610352</ele>
        <time>2014-11-11T08:38:02.000Z</time>
      </trkpt>
      <trkpt lat="47.46702" lon="6.07562">
        <ele>319.60000610352</ele>
        <time>2014-11-11T08:38:11.000Z</time>
      </trkpt>
      <trkpt lat="47.46697" lon="6.07553">
        <ele>319</ele>
        <time>2014-11-11T08:38:18.000Z</time>
      </trkpt>
      <trkpt lat="47.46692" lon="6.07543">
        <ele>318.39999389648</ele>
        <time>2014-11-11T08:38:25.000Z</time>
      </trkpt>
      <trkpt lat="47.46692" lon="6.07542">
        <ele>318.20001220703</ele>
        <time>2014-11-11T08:38:26.000Z</time>
      </trkpt>
      <trkpt lat="47.4669" lon="6.07537">
        <ele>317.79998779297</ele>
        <time>2014-11-11T08:38:30.000Z</time>
      </trkpt>
      <trkpt lat="47.46687" lon="6.07531">
        <ele>317.39999389648</ele>
        <time>2014-11-11T08:38:34.000Z</time>
      </trkpt>
      <trkpt lat="47.46681" lon="6.0752">
        <ele>316.60000610352</ele>
        <time>2014-11-11T08:38:41.000Z</time>
      </trkpt>
      <trkpt lat="47.46679" lon="6.07515">
        <ele>316.20001220703</ele>
        <time>2014-11-11T08:38:45.000Z</time>
      </trkpt>
      <trkpt lat="47.46675" lon="6.07507">
        <ele>315.60000610352</ele>
        <time>2014-11-11T08:38:50.000Z</time>
      </trkpt>
      <trkpt lat="47.46669" lon="6.07495">
        <ele>314.79998779297</ele>
        <time>2014-11-11T08:38:58.000Z</time>
      </trkpt>
      <trkpt lat="47.46667" lon="6.0749">
        <ele>314.39999389648</ele>
        <time>2014-11-11T08:39:01.000Z</time>
      </trkpt>
      <trkpt lat="47.46664" lon="6.07486">
        <ele>314.20001220703</ele>
        <time>2014-11-11T08:39:04.000Z</time>
      </trkpt>
      <trkpt lat="47.46658" lon="6.07476">
        <ele>313.79998779297</ele>
        <time>2014-11-11T08:39:11.000Z</time>
      </trkpt>
      <trkpt lat="47.46657" lon="6.07474">
        <ele>313.79998779297</ele>
        <time>2014-11-11T08:39:12.000Z</time>
      </trkpt>
      <trkpt lat="47.46652" lon="6.07465">
        <ele>314</ele>
        <time>2014-11-11T08:39:18.000Z</time>
      </trkpt>
      <trkpt lat="47.46651" lon="6.07464">
        <ele>314</ele>
        <time>2014-11-11T08:39:19.000Z</time>
      </trkpt>
      <trkpt lat="47.46645" lon="6.07453">
        <ele>314.39999389648</ele>
        <time>2014-11-11T08:39:26.000Z</time>
      </trkpt>
      <trkpt lat="47.46642" lon="6.07449">
        <ele>314.60000610352</ele>
        <time>2014-11-11T08:39:29.000Z</time>
      </trkpt>
      <trkpt lat="47.46638" lon="6.07442">
        <ele>314.79998779297</ele>
        <time>2014-11-11T08:39:35.000Z</time>
      </trkpt>
      <trkpt lat="47.46637" lon="6.0744">
        <ele>315</ele>
        <time>2014-11-11T08:39:36.000Z</time>
      </trkpt>
      <trkpt lat="47.46634" lon="6.07435">
        <ele>315.20001220703</ele>
        <time>2014-11-11T08:39:40.000Z</time>
      </trkpt>
      <trkpt lat="47.46629" lon="6.07426">
        <ele>315.60000610352</ele>
        <time>2014-11-11T08:39:46.000Z</time>
      </trkpt>
      <trkpt lat="47.46625" lon="6.07416">
        <ele>316</ele>
        <time>2014-11-11T08:39:53.000Z</time>
      </trkpt>
      <trkpt lat="47.46624" lon="6.07415">
        <ele>316</ele>
        <time>2014-11-11T08:39:54.000Z</time>
      </trkpt>
      <trkpt lat="47.4662" lon="6.07405">
        <ele>316.39999389648</ele>
        <time>2014-11-11T08:40:00.000Z</time>
      </trkpt>
      <trkpt lat="47.46615" lon="6.07397">
        <ele>316.79998779297</ele>
        <time>2014-11-11T08:40:05.000Z</time>
      </trkpt>
      <trkpt lat="47.46611" lon="6.07386">
        <ele>316.60000610352</ele>
        <time>2014-11-11T08:40:11.000Z</time>
      </trkpt>
      <trkpt lat="47.4661" lon="6.07385">
        <ele>316.60000610352</ele>
        <time>2014-11-11T08:40:12.000Z</time>
      </trkpt>
      <trkpt lat="47.46607" lon="6.07377">
        <ele>316.20001220703</ele>
        <time>2014-11-11T08:40:16.000Z</time>
      </trkpt>
      <trkpt lat="47.46603" lon="6.07368">
        <ele>315.79998779297</ele>
        <time>2014-11-11T08:40:21.000Z</time>
      </trkpt>
      <trkpt lat="47.46596" lon="6.07352">
        <ele>315</ele>
        <time>2014-11-11T08:40:28.000Z</time>
      </trkpt>
      <trkpt lat="47.46591" lon="6.07341">
        <ele>314.60000610352</ele>
        <time>2014-11-11T08:40:33.000Z</time>
      </trkpt>
      <trkpt lat="47.46584" lon="6.07319">
        <ele>313.60000610352</ele>
        <time>2014-11-11T08:40:43.000Z</time>
      </trkpt>
      <trkpt lat="47.46581" lon="6.07309">
        <ele>313</ele>
        <time>2014-11-11T08:40:48.000Z</time>
      </trkpt>
      <trkpt lat="47.46577" lon="6.073">
        <ele>312.39999389648</ele>
        <time>2014-11-11T08:40:54.000Z</time>
      </trkpt>
      <trkpt lat="47.46572" lon="6.07289">
        <ele>311.60000610352</ele>
        <time>2014-11-11T08:41:00.000Z</time>
      </trkpt>
      <trkpt lat="47.46569" lon="6.0728">
        <ele>311</ele>
        <time>2014-11-11T08:41:05.000Z</time>
      </trkpt>
      <trkpt lat="47.46568" lon="6.07278">
        <ele>311</ele>
        <time>2014-11-11T08:41:06.000Z</time>
      </trkpt>
      <trkpt lat="47.46564" lon="6.07268">
        <ele>310.39999389648</ele>
        <time>2014-11-11T08:41:11.000Z</time>
      </trkpt>
      <trkpt lat="47.46559" lon="6.07255">
        <ele>309.60000610352</ele>
        <time>2014-11-11T08:41:18.000Z</time>
      </trkpt>
      <trkpt lat="47.46553" lon="6.07238">
        <ele>308.60000610352</ele>
        <time>2014-11-11T08:41:26.000Z</time>
      </trkpt>
      <trkpt lat="47.46549" lon="6.07223">
        <ele>307.39999389648</ele>
        <time>2014-11-11T08:41:33.000Z</time>
      </trkpt>
      <trkpt lat="47.46543" lon="6.07206">
        <ele>305.60000610352</ele>
        <time>2014-11-11T08:41:41.000Z</time>
      </trkpt>
      <trkpt lat="47.46539" lon="6.07193">
        <ele>304.20001220703</ele>
        <time>2014-11-11T08:41:47.000Z</time>
      </trkpt>
      <trkpt lat="47.46532" lon="6.07175">
        <ele>302.20001220703</ele>
        <time>2014-11-11T08:41:56.000Z</time>
      </trkpt>
      <trkpt lat="47.46527" lon="6.0716">
        <ele>301.20001220703</ele>
        <time>2014-11-11T08:42:04.000Z</time>
      </trkpt>
      <trkpt lat="47.46519" lon="6.07146">
        <ele>299.79998779297</ele>
        <time>2014-11-11T08:42:13.000Z</time>
      </trkpt>
      <trkpt lat="47.4651" lon="6.07142">
        <ele>298.79998779297</ele>
        <time>2014-11-11T08:42:20.000Z</time>
      </trkpt>
      <trkpt lat="47.465" lon="6.07143">
        <ele>298</ele>
        <time>2014-11-11T08:42:28.000Z</time>
      </trkpt>
      <trkpt lat="47.46488" lon="6.07148">
        <ele>298.60000610352</ele>
        <time>2014-11-11T08:42:37.000Z</time>
      </trkpt>
      <trkpt lat="47.46486" lon="6.07149">
        <ele>298.79998779297</ele>
        <time>2014-11-11T08:42:39.000Z</time>
      </trkpt>
      <trkpt lat="47.46474" lon="6.07152">
        <ele>299.20001220703</ele>
        <time>2014-11-11T08:42:48.000Z</time>
      </trkpt>
      <trkpt lat="47.46464" lon="6.07155">
        <ele>299.60000610352</ele>
        <time>2014-11-11T08:42:56.000Z</time>
      </trkpt>
      <trkpt lat="47.46454" lon="6.07157">
        <ele>299.79998779297</ele>
        <time>2014-11-11T08:43:04.000Z</time>
      </trkpt>
      <trkpt lat="47.46447" lon="6.07158">
        <ele>300</ele>
        <time>2014-11-11T08:43:10.000Z</time>
      </trkpt>
      <trkpt lat="47.4644" lon="6.0716">
        <ele>300.39999389648</ele>
        <time>2014-11-11T08:43:18.000Z</time>
      </trkpt>
      <trkpt lat="47.46436" lon="6.07161">
        <ele>300.39999389648</ele>
        <time>2014-11-11T08:43:21.000Z</time>
      </trkpt>
      <trkpt lat="47.46428" lon="6.07164">
        <ele>301.39999389648</ele>
        <time>2014-11-11T08:43:27.000Z</time>
      </trkpt>
      <trkpt lat="47.46423" lon="6.07168">
        <ele>302.39999389648</ele>
        <time>2014-11-11T08:43:33.000Z</time>
      </trkpt>
      <trkpt lat="47.46421" lon="6.07168">
        <ele>302.60000610352</ele>
        <time>2014-11-11T08:43:34.000Z</time>
      </trkpt>
      <trkpt lat="47.46416" lon="6.07168">
        <ele>303</ele>
        <time>2014-11-11T08:43:38.000Z</time>
      </trkpt>
      <trkpt lat="47.4641" lon="6.07169">
        <ele>302.79998779297</ele>
        <time>2014-11-11T08:43:42.000Z</time>
      </trkpt>
      <trkpt lat="47.46409" lon="6.07169">
        <ele>302.79998779297</ele>
        <time>2014-11-11T08:43:43.000Z</time>
      </trkpt>
      <trkpt lat="47.46397" lon="6.07171">
        <ele>302.60000610352</ele>
        <time>2014-11-11T08:43:50.000Z</time>
      </trkpt>
      <trkpt lat="47.46391" lon="6.07172">
        <ele>302.60000610352</ele>
        <time>2014-11-11T08:43:55.000Z</time>
      </trkpt>
      <trkpt lat="47.4638" lon="6.07174">
        <ele>302.60000610352</ele>
        <time>2014-11-11T08:44:03.000Z</time>
      </trkpt>
      <trkpt lat="47.46378" lon="6.07175">
        <ele>302.60000610352</ele>
        <time>2014-11-11T08:44:04.000Z</time>
      </trkpt>
      <trkpt lat="47.4637" lon="6.07178">
        <ele>302.79998779297</ele>
        <time>2014-11-11T08:44:10.000Z</time>
      </trkpt>
      <trkpt lat="47.46362" lon="6.07181">
        <ele>303.20001220703</ele>
        <time>2014-11-11T08:44:17.000Z</time>
      </trkpt>
      <trkpt lat="47.46355" lon="6.07185">
        <ele>303.60000610352</ele>
        <time>2014-11-11T08:44:22.000Z</time>
      </trkpt>
      <trkpt lat="47.46349" lon="6.07189">
        <ele>304.20001220703</ele>
        <time>2014-11-11T08:44:27.000Z</time>
      </trkpt>
      <trkpt lat="47.46346" lon="6.07193">
        <ele>304.60000610352</ele>
        <time>2014-11-11T08:44:31.000Z</time>
      </trkpt>
      <trkpt lat="47.46338" lon="6.07196">
        <ele>305.20001220703</ele>
        <time>2014-11-11T08:44:37.000Z</time>
      </trkpt>
      <trkpt lat="47.46335" lon="6.07197">
        <ele>305.20001220703</ele>
        <time>2014-11-11T08:44:39.000Z</time>
      </trkpt>
      <trkpt lat="47.4633" lon="6.07201">
        <ele>305.79998779297</ele>
        <time>2014-11-11T08:44:43.000Z</time>
      </trkpt>
      <trkpt lat="47.4632" lon="6.07204">
        <ele>306.39999389648</ele>
        <time>2014-11-11T08:44:50.000Z</time>
      </trkpt>
      <trkpt lat="47.46319" lon="6.07205">
        <ele>306.60000610352</ele>
        <time>2014-11-11T08:44:51.000Z</time>
      </trkpt>
      <trkpt lat="47.46317" lon="6.07207">
        <ele>306.79998779297</ele>
        <time>2014-11-11T08:44:53.000Z</time>
      </trkpt>
      <trkpt lat="47.46309" lon="6.07211">
        <ele>307</ele>
        <time>2014-11-11T08:44:59.000Z</time>
      </trkpt>
      <trkpt lat="47.46309" lon="6.07211">
        <ele>307</ele>
        <time>2014-11-11T08:45:00.000Z</time>
      </trkpt>
      <trkpt lat="47.46301" lon="6.07215">
        <ele>307</ele>
        <time>2014-11-11T08:45:06.000Z</time>
      </trkpt>
      <trkpt lat="47.463" lon="6.07215">
        <ele>307</ele>
        <time>2014-11-11T08:45:07.000Z</time>
      </trkpt>
      <trkpt lat="47.46298" lon="6.07216">
        <ele>307</ele>
        <time>2014-11-11T08:45:08.000Z</time>
      </trkpt>
      <trkpt lat="47.46296" lon="6.07217">
        <ele>307.20001220703</ele>
        <time>2014-11-11T08:45:10.000Z</time>
      </trkpt>
      <trkpt lat="47.46283" lon="6.07222">
        <ele>307</ele>
        <time>2014-11-11T08:45:19.000Z</time>
      </trkpt>
      <trkpt lat="47.46278" lon="6.07224">
        <ele>307</ele>
        <time>2014-11-11T08:45:23.000Z</time>
      </trkpt>
      <trkpt lat="47.46272" lon="6.07224">
        <ele>306.79998779297</ele>
        <time>2014-11-11T08:45:27.000Z</time>
      </trkpt>
      <trkpt lat="47.4626" lon="6.07221">
        <ele>305.79998779297</ele>
        <time>2014-11-11T08:45:35.000Z</time>
      </trkpt>
      <trkpt lat="47.46248" lon="6.07214">
        <ele>304.39999389648</ele>
        <time>2014-11-11T08:45:43.000Z</time>
      </trkpt>
      <trkpt lat="47.46237" lon="6.07208">
        <ele>303.79998779297</ele>
        <time>2014-11-11T08:45:51.000Z</time>
      </trkpt>
      <trkpt lat="47.46224" lon="6.07201">
        <ele>303</ele>
        <time>2014-11-11T08:46:00.000Z</time>
      </trkpt>
      <trkpt lat="47.4621" lon="6.07195">
        <ele>301.79998779297</ele>
        <time>2014-11-11T08:46:10.000Z</time>
      </trkpt>
      <trkpt lat="47.46199" lon="6.07195">
        <ele>301</ele>
        <time>2014-11-11T08:46:18.000Z</time>
      </trkpt>
      <trkpt lat="47.46187" lon="6.07192">
        <ele>300.20001220703</ele>
        <time>2014-11-11T08:46:27.000Z</time>
      </trkpt>
      <trkpt lat="47.46173" lon="6.07189">
        <ele>299.20001220703</ele>
        <time>2014-11-11T08:46:37.000Z</time>
      </trkpt>
      <trkpt lat="47.46165" lon="6.07188">
        <ele>298.60000610352</ele>
        <time>2014-11-11T08:46:42.000Z</time>
      </trkpt>
      <trkpt lat="47.46154" lon="6.07186">
        <ele>298</ele>
        <time>2014-11-11T08:46:50.000Z</time>
      </trkpt>
      <trkpt lat="47.4614" lon="6.07183">
        <ele>297.20001220703</ele>
        <time>2014-11-11T08:47:00.000Z</time>
      </trkpt>
      <trkpt lat="47.46128" lon="6.07181">
        <ele>296.39999389648</ele>
        <time>2014-11-11T08:47:09.000Z</time>
      </trkpt>
      <trkpt lat="47.46117" lon="6.07179">
        <ele>295.79998779297</ele>
        <time>2014-11-11T08:47:17.000Z</time>
      </trkpt>
      <trkpt lat="47.46106" lon="6.07177">
        <ele>295.60000610352</ele>
        <time>2014-11-11T08:47:25.000Z</time>
      </trkpt>
      <trkpt lat="47.46094" lon="6.07175">
        <ele>295.39999389648</ele>
        <time>2014-11-11T08:47:33.000Z</time>
      </trkpt>
      <trkpt lat="47.46087" lon="6.07174">
        <ele>295.39999389648</ele>
        <time>2014-11-11T08:47:38.000Z</time>
      </trkpt>
      <trkpt lat="47.4608" lon="6.07173">
        <ele>295.20001220703</ele>
        <time>2014-11-11T08:47:44.000Z</time>
      </trkpt>
      <trkpt lat="47.4607" lon="6.07172">
        <ele>295.20001220703</ele>
        <time>2014-11-11T08:47:51.000Z</time>
      </trkpt>
      <trkpt lat="47.46061" lon="6.07172">
        <ele>295</ele>
        <time>2014-11-11T08:47:57.000Z</time>
      </trkpt>
      <trkpt lat="47.46052" lon="6.0717">
        <ele>295</ele>
        <time>2014-11-11T08:48:04.000Z</time>
      </trkpt>
      <trkpt lat="47.46041" lon="6.07169">
        <ele>294.79998779297</ele>
        <time>2014-11-11T08:48:12.000Z</time>
      </trkpt>
      <trkpt lat="47.4603" lon="6.07167">
        <ele>294.60000610352</ele>
        <time>2014-11-11T08:48:20.000Z</time>
      </trkpt>
      <trkpt lat="47.46017" lon="6.07167">
        <ele>294.60000610352</ele>
        <time>2014-11-11T08:48:29.000Z</time>
      </trkpt>
      <trkpt lat="47.46003" lon="6.07166">
        <ele>294.20001220703</ele>
        <time>2014-11-11T08:48:39.000Z</time>
      </trkpt>
      <trkpt lat="47.45991" lon="6.07166">
        <ele>294.20001220703</ele>
        <time>2014-11-11T08:48:48.000Z</time>
      </trkpt>
      <trkpt lat="47.45981" lon="6.07164">
        <ele>294</ele>
        <time>2014-11-11T08:48:55.000Z</time>
      </trkpt>
      <trkpt lat="47.45968" lon="6.07164">
        <ele>294</ele>
        <time>2014-11-11T08:49:05.000Z</time>
      </trkpt>
      <trkpt lat="47.45957" lon="6.07163">
        <ele>293.79998779297</ele>
        <time>2014-11-11T08:49:13.000Z</time>
      </trkpt>
      <trkpt lat="47.45945" lon="6.07161">
        <ele>293.79998779297</ele>
        <time>2014-11-11T08:49:22.000Z</time>
      </trkpt>
      <trkpt lat="47.45933" lon="6.0716">
        <ele>293.60000610352</ele>
        <time>2014-11-11T08:49:31.000Z</time>
      </trkpt>
      <trkpt lat="47.45921" lon="6.07158">
        <ele>292.39999389648</ele>
        <time>2014-11-11T08:49:40.000Z</time>
      </trkpt>
      <trkpt lat="47.45906" lon="6.07152">
        <ele>291.60000610352</ele>
        <time>2014-11-11T08:49:51.000Z</time>
      </trkpt>
      <trkpt lat="47.45894" lon="6.07142">
        <ele>291</ele>
        <time>2014-11-11T08:50:01.000Z</time>
      </trkpt>
      <trkpt lat="47.45885" lon="6.07134">
        <ele>290.79998779297</ele>
        <time>2014-11-11T08:50:08.000Z</time>
      </trkpt>
      <trkpt lat="47.45875" lon="6.07121">
        <ele>290.60000610352</ele>
        <time>2014-11-11T08:50:18.000Z</time>
      </trkpt>
      <trkpt lat="47.45864" lon="6.07107">
        <ele>290.39999389648</ele>
        <time>2014-11-11T08:50:29.000Z</time>
      </trkpt>
      <trkpt lat="47.45853" lon="6.07094">
        <ele>290.20001220703</ele>
        <time>2014-11-11T08:50:39.000Z</time>
      </trkpt>
      <trkpt lat="47.45845" lon="6.07084">
        <ele>290</ele>
        <time>2014-11-11T08:50:47.000Z</time>
      </trkpt>
      <trkpt lat="47.45837" lon="6.07077">
        <ele>289.79998779297</ele>
        <time>2014-11-11T08:50:54.000Z</time>
      </trkpt>
      <trkpt lat="47.45825" lon="6.07073">
        <ele>289.79998779297</ele>
        <time>2014-11-11T08:51:03.000Z</time>
      </trkpt>
      <trkpt lat="47.45814" lon="6.07072">
        <ele>290.20001220703</ele>
        <time>2014-11-11T08:51:11.000Z</time>
      </trkpt>
      <trkpt lat="47.45802" lon="6.0707">
        <ele>290.39999389648</ele>
        <time>2014-11-11T08:51:20.000Z</time>
      </trkpt>
      <trkpt lat="47.4579" lon="6.0707">
        <ele>290.79998779297</ele>
        <time>2014-11-11T08:51:29.000Z</time>
      </trkpt>
      <trkpt lat="47.4578" lon="6.07068">
        <ele>291</ele>
        <time>2014-11-11T08:51:37.000Z</time>
      </trkpt>
      <trkpt lat="47.45767" lon="6.07067">
        <ele>291.39999389648</ele>
        <time>2014-11-11T08:51:46.000Z</time>
      </trkpt>
      <trkpt lat="47.45757" lon="6.07066">
        <ele>291.60000610352</ele>
        <time>2014-11-11T08:51:54.000Z</time>
      </trkpt>
      <trkpt lat="47.45733" lon="6.07069">
        <ele>293.20001220703</ele>
        <time>2014-11-11T08:52:12.000Z</time>
      </trkpt>
      <trkpt lat="47.45722" lon="6.07072">
        <ele>294</ele>
        <time>2014-11-11T08:52:20.000Z</time>
      </trkpt>
      <trkpt lat="47.45715" lon="6.07073">
        <ele>294.39999389648</ele>
        <time>2014-11-11T08:52:26.000Z</time>
      </trkpt>
      <trkpt lat="47.45714" lon="6.07073">
        <ele>294.60000610352</ele>
        <time>2014-11-11T08:52:27.000Z</time>
      </trkpt>
      <trkpt lat="47.45704" lon="6.07076">
        <ele>295.20001220703</ele>
        <time>2014-11-11T08:52:35.000Z</time>
      </trkpt>
      <trkpt lat="47.45696" lon="6.07079">
        <ele>295.79998779297</ele>
        <time>2014-11-11T08:52:42.000Z</time>
      </trkpt>
      <trkpt lat="47.45688" lon="6.07084">
        <ele>296.39999389648</ele>
        <time>2014-11-11T08:52:49.000Z</time>
      </trkpt>
      <trkpt lat="47.4568" lon="6.07091">
        <ele>297.20001220703</ele>
        <time>2014-11-11T08:52:57.000Z</time>
      </trkpt>
      <trkpt lat="47.45677" lon="6.07096">
        <ele>297.60000610352</ele>
        <time>2014-11-11T08:53:00.000Z</time>
      </trkpt>
      <trkpt lat="47.4567" lon="6.07104">
        <ele>298.20001220703</ele>
        <time>2014-11-11T08:53:07.000Z</time>
      </trkpt>
      <trkpt lat="47.45669" lon="6.07106">
        <ele>298.39999389648</ele>
        <time>2014-11-11T08:53:08.000Z</time>
      </trkpt>
      <trkpt lat="47.4566" lon="6.07119">
        <ele>298.79998779297</ele>
        <time>2014-11-11T08:53:17.000Z</time>
      </trkpt>
      <trkpt lat="47.45652" lon="6.0713">
        <ele>299.20001220703</ele>
        <time>2014-11-11T08:53:25.000Z</time>
      </trkpt>
      <trkpt lat="47.45644" lon="6.07142">
        <ele>299</ele>
        <time>2014-11-11T08:53:33.000Z</time>
      </trkpt>
      <trkpt lat="47.45639" lon="6.07152">
        <ele>298.39999389648</ele>
        <time>2014-11-11T08:53:39.000Z</time>
      </trkpt>
      <trkpt lat="47.45637" lon="6.07157">
        <ele>298</ele>
        <time>2014-11-11T08:53:42.000Z</time>
      </trkpt>
      <trkpt lat="47.4563" lon="6.07172">
        <ele>297</ele>
        <time>2014-11-11T08:53:51.000Z</time>
      </trkpt>
      <trkpt lat="47.45621" lon="6.07187">
        <ele>296</ele>
        <time>2014-11-11T08:54:00.000Z</time>
      </trkpt>
      <trkpt lat="47.45613" lon="6.07198">
        <ele>296.20001220703</ele>
        <time>2014-11-11T08:54:08.000Z</time>
      </trkpt>
      <trkpt lat="47.45608" lon="6.07205">
        <ele>296.20001220703</ele>
        <time>2014-11-11T08:54:13.000Z</time>
      </trkpt>
      <trkpt lat="47.45601" lon="6.07212">
        <ele>296.39999389648</ele>
        <time>2014-11-11T08:54:19.000Z</time>
      </trkpt>
      <trkpt lat="47.45592" lon="6.07219">
        <ele>296.60000610352</ele>
        <time>2014-11-11T08:54:26.000Z</time>
      </trkpt>
      <trkpt lat="47.45591" lon="6.0722">
        <ele>296.79998779297</ele>
        <time>2014-11-11T08:54:27.000Z</time>
      </trkpt>
      <trkpt lat="47.45584" lon="6.07226">
        <ele>297</ele>
        <time>2014-11-11T08:54:33.000Z</time>
      </trkpt>
      <trkpt lat="47.45574" lon="6.07231">
        <ele>296.60000610352</ele>
        <time>2014-11-11T08:54:40.000Z</time>
      </trkpt>
      <trkpt lat="47.45567" lon="6.07237">
        <ele>296</ele>
        <time>2014-11-11T08:54:46.000Z</time>
      </trkpt>
      <trkpt lat="47.4556" lon="6.07243">
        <ele>295.39999389648</ele>
        <time>2014-11-11T08:54:52.000Z</time>
      </trkpt>
      <trkpt lat="47.4555" lon="6.07249">
        <ele>294.79998779297</ele>
        <time>2014-11-11T08:55:00.000Z</time>
      </trkpt>
      <trkpt lat="47.45539" lon="6.07257">
        <ele>294.20001220703</ele>
        <time>2014-11-11T08:55:09.000Z</time>
      </trkpt>
      <trkpt lat="47.45526" lon="6.07264">
        <ele>293.79998779297</ele>
        <time>2014-11-11T08:55:18.000Z</time>
      </trkpt>
      <trkpt lat="47.45517" lon="6.07272">
        <ele>293.60000610352</ele>
        <time>2014-11-11T08:55:26.000Z</time>
      </trkpt>
      <trkpt lat="47.45507" lon="6.07282">
        <ele>293.60000610352</ele>
        <time>2014-11-11T08:55:34.000Z</time>
      </trkpt>
      <trkpt lat="47.455" lon="6.07291">
        <ele>293.39999389648</ele>
        <time>2014-11-11T08:55:41.000Z</time>
      </trkpt>
      <trkpt lat="47.4549" lon="6.07292">
        <ele>293</ele>
        <time>2014-11-11T08:55:48.000Z</time>
      </trkpt>
      <trkpt lat="47.45481" lon="6.07281">
        <ele>293</ele>
        <time>2014-11-11T08:55:56.000Z</time>
      </trkpt>
      <trkpt lat="47.45477" lon="6.07271">
        <ele>293.20001220703</ele>
        <time>2014-11-11T08:56:02.000Z</time>
      </trkpt>
      <trkpt lat="47.45473" lon="6.07258">
        <ele>293.20001220703</ele>
        <time>2014-11-11T08:56:09.000Z</time>
      </trkpt>
      <trkpt lat="47.4547" lon="6.07255">
        <ele>293.20001220703</ele>
        <time>2014-11-11T08:56:13.000Z</time>
      </trkpt>
      <trkpt lat="47.4547" lon="6.07244">
        <ele>293.60000610352</ele>
        <time>2014-11-11T08:56:20.000Z</time>
      </trkpt>
      <trkpt lat="47.4547" lon="6.07242">
        <ele>293.60000610352</ele>
        <time>2014-11-11T08:56:21.000Z</time>
      </trkpt>
      <trkpt lat="47.4547" lon="6.07224">
        <ele>294</ele>
        <time>2014-11-11T08:56:30.000Z</time>
      </trkpt>
      <trkpt lat="47.45469" lon="6.0721">
        <ele>293.79998779297</ele>
        <time>2014-11-11T08:56:37.000Z</time>
      </trkpt>
      <trkpt lat="47.45469" lon="6.07191">
        <ele>293.39999389648</ele>
        <time>2014-11-11T08:56:46.000Z</time>
      </trkpt>
      <trkpt lat="47.4547" lon="6.07172">
        <ele>293.39999389648</ele>
        <time>2014-11-11T08:56:55.000Z</time>
      </trkpt>
      <trkpt lat="47.45472" lon="6.07158">
        <ele>293.20001220703</ele>
        <time>2014-11-11T08:57:01.000Z</time>
      </trkpt>
      <trkpt lat="47.45474" lon="6.07145">
        <ele>293</ele>
        <time>2014-11-11T08:57:08.000Z</time>
      </trkpt>
      <trkpt lat="47.45475" lon="6.07124">
        <ele>292.79998779297</ele>
        <time>2014-11-11T08:57:18.000Z</time>
      </trkpt>
      <trkpt lat="47.45475" lon="6.07106">
        <ele>292.79998779297</ele>
        <time>2014-11-11T08:57:26.000Z</time>
      </trkpt>
      <trkpt lat="47.45475" lon="6.07094">
        <ele>292.79998779297</ele>
        <time>2014-11-11T08:57:32.000Z</time>
      </trkpt>
      <trkpt lat="47.45477" lon="6.0708">
        <ele>293</ele>
        <time>2014-11-11T08:57:39.000Z</time>
      </trkpt>
      <trkpt lat="47.45479" lon="6.07063">
        <ele>293</ele>
        <time>2014-11-11T08:57:47.000Z</time>
      </trkpt>
      <trkpt lat="47.45482" lon="6.07033">
        <ele>293.20001220703</ele>
        <time>2014-11-11T08:58:02.000Z</time>
      </trkpt>
      <trkpt lat="47.45484" lon="6.07015">
        <ele>293</ele>
        <time>2014-11-11T08:58:11.000Z</time>
      </trkpt>
      <trkpt lat="47.45486" lon="6.06994">
        <ele>292.79998779297</ele>
        <time>2014-11-11T08:58:21.000Z</time>
      </trkpt>
      <trkpt lat="47.45488" lon="6.06976">
        <ele>292.79998779297</ele>
        <time>2014-11-11T08:58:30.000Z</time>
      </trkpt>
      <trkpt lat="47.45488" lon="6.06965">
        <ele>292.60000610352</ele>
        <time>2014-11-11T08:58:37.000Z</time>
      </trkpt>
      <trkpt lat="47.4549" lon="6.06948">
        <ele>292.39999389648</ele>
        <time>2014-11-11T08:58:45.000Z</time>
      </trkpt>
      <trkpt lat="47.45493" lon="6.06932">
        <ele>292.39999389648</ele>
        <time>2014-11-11T08:58:53.000Z</time>
      </trkpt>
      <trkpt lat="47.45494" lon="6.06918">
        <ele>292.20001220703</ele>
        <time>2014-11-11T08:59:00.000Z</time>
      </trkpt>
      <trkpt lat="47.45496" lon="6.06902">
        <ele>292</ele>
        <time>2014-11-11T08:59:08.000Z</time>
      </trkpt>
      <trkpt lat="47.45498" lon="6.06888">
        <ele>292</ele>
        <time>2014-11-11T08:59:15.000Z</time>
      </trkpt>
      <trkpt lat="47.45502" lon="6.0687">
        <ele>291.79998779297</ele>
        <time>2014-11-11T08:59:25.000Z</time>
      </trkpt>
      <trkpt lat="47.45504" lon="6.06855">
        <ele>291.60000610352</ele>
        <time>2014-11-11T08:59:33.000Z</time>
      </trkpt>
      <trkpt lat="47.45506" lon="6.06843">
        <ele>291.60000610352</ele>
        <time>2014-11-11T08:59:39.000Z</time>
      </trkpt>
      <trkpt lat="47.45509" lon="6.06827">
        <ele>291.39999389648</ele>
        <time>2014-11-11T08:59:48.000Z</time>
      </trkpt>
      <trkpt lat="47.45515" lon="6.06796">
        <ele>291.60000610352</ele>
        <time>2014-11-11T09:00:05.000Z</time>
      </trkpt>
      <trkpt lat="47.45518" lon="6.06776">
        <ele>291.60000610352</ele>
        <time>2014-11-11T09:00:16.000Z</time>
      </trkpt>
      <trkpt lat="47.4552" lon="6.06761">
        <ele>291.79998779297</ele>
        <time>2014-11-11T09:00:24.000Z</time>
      </trkpt>
      <trkpt lat="47.45522" lon="6.06746">
        <ele>291.79998779297</ele>
        <time>2014-11-11T09:00:32.000Z</time>
      </trkpt>
      <trkpt lat="47.45525" lon="6.06729">
        <ele>292.39999389648</ele>
        <time>2014-11-11T09:00:41.000Z</time>
      </trkpt>
      <trkpt lat="47.45526" lon="6.06714">
        <ele>293</ele>
        <time>2014-11-11T09:00:49.000Z</time>
      </trkpt>
      <trkpt lat="47.45527" lon="6.06701">
        <ele>293.60000610352</ele>
        <time>2014-11-11T09:00:56.000Z</time>
      </trkpt>
      <trkpt lat="47.45529" lon="6.06688">
        <ele>294.20001220703</ele>
        <time>2014-11-11T09:01:03.000Z</time>
      </trkpt>
      <trkpt lat="47.4553" lon="6.0667">
        <ele>295</ele>
        <time>2014-11-11T09:01:13.000Z</time>
      </trkpt>
      <trkpt lat="47.45532" lon="6.06655">
        <ele>295.79998779297</ele>
        <time>2014-11-11T09:01:21.000Z</time>
      </trkpt>
      <trkpt lat="47.45533" lon="6.0664">
        <ele>296.60000610352</ele>
        <time>2014-11-11T09:01:30.000Z</time>
      </trkpt>
      <trkpt lat="47.45535" lon="6.06623">
        <ele>297.79998779297</ele>
        <time>2014-11-11T09:01:40.000Z</time>
      </trkpt>
      <trkpt lat="47.45535" lon="6.06614">
        <ele>298.39999389648</ele>
        <time>2014-11-11T09:01:58.000Z</time>
      </trkpt>
      <trkpt lat="47.45537" lon="6.06589">
        <ele>299.60000610352</ele>
        <time>2014-11-11T09:02:11.000Z</time>
      </trkpt>
      <trkpt lat="47.45538" lon="6.06575">
        <ele>299.79998779297</ele>
        <time>2014-11-11T09:02:19.000Z</time>
      </trkpt>
      <trkpt lat="47.4554" lon="6.06558">
        <ele>300</ele>
        <time>2014-11-11T09:02:28.000Z</time>
      </trkpt>
      <trkpt lat="47.45542" lon="6.06541">
        <ele>300.60000610352</ele>
        <time>2014-11-11T09:02:37.000Z</time>
      </trkpt>
      <trkpt lat="47.45545" lon="6.06526">
        <ele>301.39999389648</ele>
        <time>2014-11-11T09:02:46.000Z</time>
      </trkpt>
      <trkpt lat="47.45546" lon="6.06511">
        <ele>301.60000610352</ele>
        <time>2014-11-11T09:02:55.000Z</time>
      </trkpt>
      <trkpt lat="47.45549" lon="6.06496">
        <ele>301.79998779297</ele>
        <time>2014-11-11T09:03:04.000Z</time>
      </trkpt>
      <trkpt lat="47.45551" lon="6.06481">
        <ele>302</ele>
        <time>2014-11-11T09:03:12.000Z</time>
      </trkpt>
      <trkpt lat="47.45553" lon="6.06467">
        <ele>302.20001220703</ele>
        <time>2014-11-11T09:03:20.000Z</time>
      </trkpt>
      <trkpt lat="47.45555" lon="6.06451">
        <ele>302.39999389648</ele>
        <time>2014-11-11T09:03:29.000Z</time>
      </trkpt>
      <trkpt lat="47.45558" lon="6.06435">
        <ele>302.60000610352</ele>
        <time>2014-11-11T09:03:38.000Z</time>
      </trkpt>
      <trkpt lat="47.4556" lon="6.06416">
        <ele>303.20001220703</ele>
        <time>2014-11-11T09:03:48.000Z</time>
      </trkpt>
      <trkpt lat="47.45562" lon="6.06398">
        <ele>303.60000610352</ele>
        <time>2014-11-11T09:03:57.000Z</time>
      </trkpt>
      <trkpt lat="47.45564" lon="6.06381">
        <ele>303.60000610352</ele>
        <time>2014-11-11T09:04:06.000Z</time>
      </trkpt>
      <trkpt lat="47.45566" lon="6.06368">
        <ele>303.39999389648</ele>
        <time>2014-11-11T09:04:13.000Z</time>
      </trkpt>
      <trkpt lat="47.45568" lon="6.0635">
        <ele>303.20001220703</ele>
        <time>2014-11-11T09:04:23.000Z</time>
      </trkpt>
      <trkpt lat="47.45571" lon="6.06328">
        <ele>303</ele>
        <time>2014-11-11T09:04:34.000Z</time>
      </trkpt>
      <trkpt lat="47.45572" lon="6.06313">
        <ele>302.79998779297</ele>
        <time>2014-11-11T09:04:42.000Z</time>
      </trkpt>
      <trkpt lat="47.45575" lon="6.06294">
        <ele>302.60000610352</ele>
        <time>2014-11-11T09:04:52.000Z</time>
      </trkpt>
      <trkpt lat="47.45577" lon="6.06277">
        <ele>302.39999389648</ele>
        <time>2014-11-11T09:05:01.000Z</time>
      </trkpt>
      <trkpt lat="47.45579" lon="6.06264">
        <ele>302.39999389648</ele>
        <time>2014-11-11T09:05:08.000Z</time>
      </trkpt>
      <trkpt lat="47.45579" lon="6.06262">
        <ele>302.39999389648</ele>
        <time>2014-11-11T09:05:09.000Z</time>
      </trkpt>
      <trkpt lat="47.45581" lon="6.06249">
        <ele>302.20001220703</ele>
        <time>2014-11-11T09:05:16.000Z</time>
      </trkpt>
      <trkpt lat="47.45581" lon="6.06241">
        <ele>302.20001220703</ele>
        <time>2014-11-11T09:05:21.000Z</time>
      </trkpt>
      <trkpt lat="47.45581" lon="6.06232">
        <ele>302</ele>
        <time>2014-11-11T09:05:26.000Z</time>
      </trkpt>
      <trkpt lat="47.45584" lon="6.06212">
        <ele>302.20001220703</ele>
        <time>2014-11-11T09:05:37.000Z</time>
      </trkpt>
      <trkpt lat="47.45586" lon="6.06194">
        <ele>302.60000610352</ele>
        <time>2014-11-11T09:05:47.000Z</time>
      </trkpt>
      <trkpt lat="47.45589" lon="6.06175">
        <ele>303</ele>
        <time>2014-11-11T09:05:57.000Z</time>
      </trkpt>
      <trkpt lat="47.45594" lon="6.06136">
        <ele>303.20001220703</ele>
        <time>2014-11-11T09:06:17.000Z</time>
      </trkpt>
      <trkpt lat="47.45596" lon="6.06115">
        <ele>302.79998779297</ele>
        <time>2014-11-11T09:06:28.000Z</time>
      </trkpt>
      <trkpt lat="47.45599" lon="6.06089">
        <ele>302.39999389648</ele>
        <time>2014-11-11T09:06:41.000Z</time>
      </trkpt>
      <trkpt lat="47.456" lon="6.06067">
        <ele>302.39999389648</ele>
        <time>2014-11-11T09:06:52.000Z</time>
      </trkpt>
      <trkpt lat="47.45602" lon="6.06045">
        <ele>302.79998779297</ele>
        <time>2014-11-11T09:07:04.000Z</time>
      </trkpt>
      <trkpt lat="47.45604" lon="6.06021">
        <ele>303</ele>
        <time>2014-11-11T09:07:16.000Z</time>
      </trkpt>
      <trkpt lat="47.45605" lon="6.06004">
        <ele>303.20001220703</ele>
        <time>2014-11-11T09:07:25.000Z</time>
      </trkpt>
      <trkpt lat="47.45607" lon="6.05991">
        <ele>303.39999389648</ele>
        <time>2014-11-11T09:07:32.000Z</time>
      </trkpt>
      <trkpt lat="47.45608" lon="6.05979">
        <ele>303.60000610352</ele>
        <time>2014-11-11T09:07:39.000Z</time>
      </trkpt>
      <trkpt lat="47.45611" lon="6.05965">
        <ele>304.39999389648</ele>
        <time>2014-11-11T09:07:47.000Z</time>
      </trkpt>
      <trkpt lat="47.45612" lon="6.05956">
        <ele>304.79998779297</ele>
        <time>2014-11-11T09:07:52.000Z</time>
      </trkpt>
      <trkpt lat="47.45615" lon="6.05943">
        <ele>305.60000610352</ele>
        <time>2014-11-11T09:08:01.000Z</time>
      </trkpt>
      <trkpt lat="47.45616" lon="6.0594">
        <ele>305.79998779297</ele>
        <time>2014-11-11T09:08:03.000Z</time>
      </trkpt>
      <trkpt lat="47.45616" lon="6.05937">
        <ele>306</ele>
        <time>2014-11-11T09:08:06.000Z</time>
      </trkpt>
      <trkpt lat="47.45616" lon="6.05926">
        <ele>306.60000610352</ele>
        <time>2014-11-11T09:08:11.000Z</time>
      </trkpt>
      <trkpt lat="47.45617" lon="6.05918">
        <ele>307.39999389648</ele>
        <time>2014-11-11T09:08:17.000Z</time>
      </trkpt>
      <trkpt lat="47.45618" lon="6.0591">
        <ele>308.20001220703</ele>
        <time>2014-11-11T09:08:21.000Z</time>
      </trkpt>
      <trkpt lat="47.45617" lon="6.05906">
        <ele>308.60000610352</ele>
        <time>2014-11-11T09:08:23.000Z</time>
      </trkpt>
      <trkpt lat="47.45618" lon="6.05899">
        <ele>309.20001220703</ele>
        <time>2014-11-11T09:08:28.000Z</time>
      </trkpt>
      <trkpt lat="47.45618" lon="6.05891">
        <ele>310</ele>
        <time>2014-11-11T09:08:33.000Z</time>
      </trkpt>
      <trkpt lat="47.45618" lon="6.05888">
        <ele>310</ele>
        <time>2014-11-11T09:08:35.000Z</time>
      </trkpt>
      <trkpt lat="47.45619" lon="6.05884">
        <ele>310.20001220703</ele>
        <time>2014-11-11T09:08:38.000Z</time>
      </trkpt>
      <trkpt lat="47.4562" lon="6.05875">
        <ele>310.60000610352</ele>
        <time>2014-11-11T09:08:43.000Z</time>
      </trkpt>
      <trkpt lat="47.45621" lon="6.05865">
        <ele>311</ele>
        <time>2014-11-11T09:08:50.000Z</time>
      </trkpt>
      <trkpt lat="47.45622" lon="6.05858">
        <ele>311.20001220703</ele>
        <time>2014-11-11T09:08:54.000Z</time>
      </trkpt>
      <trkpt lat="47.45623" lon="6.05857">
        <ele>311.20001220703</ele>
        <time>2014-11-11T09:08:56.000Z</time>
      </trkpt>
      <trkpt lat="47.45627" lon="6.05846">
        <ele>312.39999389648</ele>
        <time>2014-11-11T09:09:03.000Z</time>
      </trkpt>
      <trkpt lat="47.45627" lon="6.0584">
        <ele>313</ele>
        <time>2014-11-11T09:09:07.000Z</time>
      </trkpt>
      <trkpt lat="47.45628" lon="6.0583">
        <ele>314.20001220703</ele>
        <time>2014-11-11T09:09:13.000Z</time>
      </trkpt>
      <trkpt lat="47.45628" lon="6.05829">
        <ele>314.39999389648</ele>
        <time>2014-11-11T09:09:14.000Z</time>
      </trkpt>
      <trkpt lat="47.45628" lon="6.05827">
        <ele>314.39999389648</ele>
        <time>2014-11-11T09:09:15.000Z</time>
      </trkpt>
      <trkpt lat="47.45628" lon="6.0582">
        <ele>315.20001220703</ele>
        <time>2014-11-11T09:09:19.000Z</time>
      </trkpt>
      <trkpt lat="47.45627" lon="6.05811">
        <ele>316.20001220703</ele>
        <time>2014-11-11T09:09:24.000Z</time>
      </trkpt>
      <trkpt lat="47.45627" lon="6.05804">
        <ele>316.79998779297</ele>
        <time>2014-11-11T09:09:28.000Z</time>
      </trkpt>
      <trkpt lat="47.45628" lon="6.05796">
        <ele>318</ele>
        <time>2014-11-11T09:09:33.000Z</time>
      </trkpt>
      <trkpt lat="47.45628" lon="6.05793">
        <ele>318.39999389648</ele>
        <time>2014-11-11T09:09:37.000Z</time>
      </trkpt>
      <trkpt lat="47.45627" lon="6.05783">
        <ele>319.39999389648</ele>
        <time>2014-11-11T09:09:40.000Z</time>
      </trkpt>
      <trkpt lat="47.45628" lon="6.05781">
        <ele>319.79998779297</ele>
        <time>2014-11-11T09:09:42.000Z</time>
      </trkpt>
      <trkpt lat="47.45629" lon="6.05778">
        <ele>320.20001220703</ele>
        <time>2014-11-11T09:09:45.000Z</time>
      </trkpt>
      <trkpt lat="47.4563" lon="6.05769">
        <ele>321.39999389648</ele>
        <time>2014-11-11T09:09:51.000Z</time>
      </trkpt>
      <trkpt lat="47.4563" lon="6.05759">
        <ele>322.20001220703</ele>
        <time>2014-11-11T09:09:56.000Z</time>
      </trkpt>
      <trkpt lat="47.45631" lon="6.05755">
        <ele>322.60000610352</ele>
        <time>2014-11-11T09:09:58.000Z</time>
      </trkpt>
      <trkpt lat="47.45632" lon="6.05748">
        <ele>323.39999389648</ele>
        <time>2014-11-11T09:10:02.000Z</time>
      </trkpt>
      <trkpt lat="47.45631" lon="6.05739">
        <ele>324.20001220703</ele>
        <time>2014-11-11T09:10:06.000Z</time>
      </trkpt>
      <trkpt lat="47.45632" lon="6.0573">
        <ele>325.20001220703</ele>
        <time>2014-11-11T09:10:11.000Z</time>
      </trkpt>
      <trkpt lat="47.45633" lon="6.05725">
        <ele>325.60000610352</ele>
        <time>2014-11-11T09:10:14.000Z</time>
      </trkpt>
      <trkpt lat="47.45633" lon="6.05722">
        <ele>325.79998779297</ele>
        <time>2014-11-11T09:10:18.000Z</time>
      </trkpt>
      <trkpt lat="47.45632" lon="6.0571">
        <ele>326.20001220703</ele>
        <time>2014-11-11T09:10:23.000Z</time>
      </trkpt>
      <trkpt lat="47.45635" lon="6.057">
        <ele>326.79998779297</ele>
        <time>2014-11-11T09:10:30.000Z</time>
      </trkpt>
      <trkpt lat="47.45635" lon="6.05692">
        <ele>327</ele>
        <time>2014-11-11T09:10:33.000Z</time>
      </trkpt>
      <trkpt lat="47.45636" lon="6.05682">
        <ele>328</ele>
        <time>2014-11-11T09:10:39.000Z</time>
      </trkpt>
      <trkpt lat="47.45638" lon="6.05674">
        <ele>328.60000610352</ele>
        <time>2014-11-11T09:10:45.000Z</time>
      </trkpt>
      <trkpt lat="47.45638" lon="6.05664">
        <ele>329.39999389648</ele>
        <time>2014-11-11T09:10:51.000Z</time>
      </trkpt>
      <trkpt lat="47.45638" lon="6.05662">
        <ele>329.60000610352</ele>
        <time>2014-11-11T09:10:53.000Z</time>
      </trkpt>
      <trkpt lat="47.45639" lon="6.05659">
        <ele>329.79998779297</ele>
        <time>2014-11-11T09:10:56.000Z</time>
      </trkpt>
      <trkpt lat="47.45639" lon="6.05646">
        <ele>330.79998779297</ele>
        <time>2014-11-11T09:11:02.000Z</time>
      </trkpt>
      <trkpt lat="47.45639" lon="6.05642">
        <ele>331.20001220703</ele>
        <time>2014-11-11T09:11:04.000Z</time>
      </trkpt>
      <trkpt lat="47.45639" lon="6.05637">
        <ele>331.20001220703</ele>
        <time>2014-11-11T09:11:07.000Z</time>
      </trkpt>
      <trkpt lat="47.4564" lon="6.05623">
        <ele>331.20001220703</ele>
        <time>2014-11-11T09:11:14.000Z</time>
      </trkpt>
      <trkpt lat="47.4564" lon="6.05617">
        <ele>331.20001220703</ele>
        <time>2014-11-11T09:11:16.000Z</time>
      </trkpt>
      <trkpt lat="47.4564" lon="6.05614">
        <ele>331.20001220703</ele>
        <time>2014-11-11T09:11:18.000Z</time>
      </trkpt>
      <trkpt lat="47.45641" lon="6.05606">
        <ele>331.39999389648</ele>
        <time>2014-11-11T09:11:23.000Z</time>
      </trkpt>
      <trkpt lat="47.45641" lon="6.05604">
        <ele>331.60000610352</ele>
        <time>2014-11-11T09:11:24.000Z</time>
      </trkpt>
      <trkpt lat="47.45642" lon="6.05601">
        <ele>331.60000610352</ele>
        <time>2014-11-11T09:11:26.000Z</time>
      </trkpt>
      <trkpt lat="47.45645" lon="6.05593">
        <ele>332</ele>
        <time>2014-11-11T09:11:33.000Z</time>
      </trkpt>
      <trkpt lat="47.45646" lon="6.05585">
        <ele>332.39999389648</ele>
        <time>2014-11-11T09:11:39.000Z</time>
      </trkpt>
      <trkpt lat="47.45647" lon="6.05583">
        <ele>332.39999389648</ele>
        <time>2014-11-11T09:11:40.000Z</time>
      </trkpt>
      <trkpt lat="47.45647" lon="6.05583">
        <ele>332.39999389648</ele>
        <time>2014-11-11T09:11:41.000Z</time>
      </trkpt>
      <trkpt lat="47.4565" lon="6.05577">
        <ele>332.79998779297</ele>
        <time>2014-11-11T09:11:46.000Z</time>
      </trkpt>
      <trkpt lat="47.45651" lon="6.05569">
        <ele>333.20001220703</ele>
        <time>2014-11-11T09:11:51.000Z</time>
      </trkpt>
      <trkpt lat="47.45657" lon="6.05549">
        <ele>334.60000610352</ele>
        <time>2014-11-11T09:12:06.000Z</time>
      </trkpt>
      <trkpt lat="47.45659" lon="6.05543">
        <ele>334.79998779297</ele>
        <time>2014-11-11T09:12:11.000Z</time>
      </trkpt>
      <trkpt lat="47.45659" lon="6.05542">
        <ele>334.79998779297</ele>
        <time>2014-11-11T09:12:12.000Z</time>
      </trkpt>
      <trkpt lat="47.45661" lon="6.05534">
        <ele>335</ele>
        <time>2014-11-11T09:12:18.000Z</time>
      </trkpt>
      <trkpt lat="47.45665" lon="6.05526">
        <ele>335.39999389648</ele>
        <time>2014-11-11T09:12:25.000Z</time>
      </trkpt>
      <trkpt lat="47.45668" lon="6.05514">
        <ele>335.60000610352</ele>
        <time>2014-11-11T09:12:32.000Z</time>
      </trkpt>
      <trkpt lat="47.45668" lon="6.05513">
        <ele>335.60000610352</ele>
        <time>2014-11-11T09:12:33.000Z</time>
      </trkpt>
      <trkpt lat="47.45672" lon="6.05498">
        <ele>335.79998779297</ele>
        <time>2014-11-11T09:12:41.000Z</time>
      </trkpt>
      <trkpt lat="47.45674" lon="6.05486">
        <ele>336</ele>
        <time>2014-11-11T09:12:48.000Z</time>
      </trkpt>
      <trkpt lat="47.45678" lon="6.05471">
        <ele>336.60000610352</ele>
        <time>2014-11-11T09:12:57.000Z</time>
      </trkpt>
      <trkpt lat="47.45682" lon="6.05455">
        <ele>337</ele>
        <time>2014-11-11T09:13:05.000Z</time>
      </trkpt>
      <trkpt lat="47.45684" lon="6.05443">
        <ele>337.39999389648</ele>
        <time>2014-11-11T09:13:12.000Z</time>
      </trkpt>
      <trkpt lat="47.45687" lon="6.05433">
        <ele>337.79998779297</ele>
        <time>2014-11-11T09:13:19.000Z</time>
      </trkpt>
      <trkpt lat="47.45691" lon="6.05417">
        <ele>338.39999389648</ele>
        <time>2014-11-11T09:13:29.000Z</time>
      </trkpt>
      <trkpt lat="47.45694" lon="6.05406">
        <ele>338.79998779297</ele>
        <time>2014-11-11T09:13:36.000Z</time>
      </trkpt>
      <trkpt lat="47.45699" lon="6.05393">
        <ele>339.20001220703</ele>
        <time>2014-11-11T09:13:43.000Z</time>
      </trkpt>
      <trkpt lat="47.45704" lon="6.05378">
        <ele>339.79998779297</ele>
        <time>2014-11-11T09:13:53.000Z</time>
      </trkpt>
      <trkpt lat="47.45709" lon="6.05362">
        <ele>340.60000610352</ele>
        <time>2014-11-11T09:14:02.000Z</time>
      </trkpt>
      <trkpt lat="47.45715" lon="6.05349">
        <ele>341.39999389648</ele>
        <time>2014-11-11T09:14:12.000Z</time>
      </trkpt>
      <trkpt lat="47.45722" lon="6.05333">
        <ele>342.20001220703</ele>
        <time>2014-11-11T09:14:22.000Z</time>
      </trkpt>
      <trkpt lat="47.45726" lon="6.05324">
        <ele>342.60000610352</ele>
        <time>2014-11-11T09:14:28.000Z</time>
      </trkpt>
      <trkpt lat="47.45733" lon="6.05307">
        <ele>343.39999389648</ele>
        <time>2014-11-11T09:14:37.000Z</time>
      </trkpt>
      <trkpt lat="47.45739" lon="6.05292">
        <ele>344</ele>
        <time>2014-11-11T09:14:46.000Z</time>
      </trkpt>
      <trkpt lat="47.45745" lon="6.05281">
        <ele>344.20001220703</ele>
        <time>2014-11-11T09:14:55.000Z</time>
      </trkpt>
      <trkpt lat="47.45751" lon="6.05268">
        <ele>344.60000610352</ele>
        <time>2014-11-11T09:15:02.000Z</time>
      </trkpt>
      <trkpt lat="47.45755" lon="6.05259">
        <ele>344.79998779297</ele>
        <time>2014-11-11T09:15:08.000Z</time>
      </trkpt>
      <trkpt lat="47.45761" lon="6.05247">
        <ele>345.20001220703</ele>
        <time>2014-11-11T09:15:17.000Z</time>
      </trkpt>
      <trkpt lat="47.45767" lon="6.05231">
        <ele>346.20001220703</ele>
        <time>2014-11-11T09:15:26.000Z</time>
      </trkpt>
      <trkpt lat="47.45773" lon="6.05219">
        <ele>347.20001220703</ele>
        <time>2014-11-11T09:15:35.000Z</time>
      </trkpt>
      <trkpt lat="47.45779" lon="6.05205">
        <ele>348</ele>
        <time>2014-11-11T09:15:43.000Z</time>
      </trkpt>
      <trkpt lat="47.45785" lon="6.05195">
        <ele>348.79998779297</ele>
        <time>2014-11-11T09:15:52.000Z</time>
      </trkpt>
      <trkpt lat="47.45785" lon="6.05194">
        <ele>348.79998779297</ele>
        <time>2014-11-11T09:15:53.000Z</time>
      </trkpt>
      <trkpt lat="47.45792" lon="6.05184">
        <ele>349.60000610352</ele>
        <time>2014-11-11T09:16:02.000Z</time>
      </trkpt>
      <trkpt lat="47.45793" lon="6.05183">
        <ele>349.79998779297</ele>
        <time>2014-11-11T09:16:03.000Z</time>
      </trkpt>
      <trkpt lat="47.45798" lon="6.05179">
        <ele>350.60000610352</ele>
        <time>2014-11-11T09:16:08.000Z</time>
      </trkpt>
      <trkpt lat="47.458" lon="6.05175">
        <ele>351</ele>
        <time>2014-11-11T09:16:12.000Z</time>
      </trkpt>
      <trkpt lat="47.45804" lon="6.0517">
        <ele>351.79998779297</ele>
        <time>2014-11-11T09:16:23.000Z</time>
      </trkpt>
      <trkpt lat="47.45804" lon="6.05165">
        <ele>352.20001220703</ele>
        <time>2014-11-11T09:16:28.000Z</time>
      </trkpt>
      <trkpt lat="47.45807" lon="6.05161">
        <ele>352.79998779297</ele>
        <time>2014-11-11T09:16:34.000Z</time>
      </trkpt>
      <trkpt lat="47.4581" lon="6.05157">
        <ele>353.39999389648</ele>
        <time>2014-11-11T09:16:40.000Z</time>
      </trkpt>
      <trkpt lat="47.45812" lon="6.05151">
        <ele>354</ele>
        <time>2014-11-11T09:16:45.000Z</time>
      </trkpt>
      <trkpt lat="47.45813" lon="6.0515">
        <ele>354.20001220703</ele>
        <time>2014-11-11T09:16:46.000Z</time>
      </trkpt>
      <trkpt lat="47.45814" lon="6.05146">
        <ele>354.60000610352</ele>
        <time>2014-11-11T09:16:50.000Z</time>
      </trkpt>
      <trkpt lat="47.45819" lon="6.05142">
        <ele>355.39999389648</ele>
        <time>2014-11-11T09:16:58.000Z</time>
      </trkpt>
      <trkpt lat="47.45822" lon="6.05139">
        <ele>355.79998779297</ele>
        <time>2014-11-11T09:17:01.000Z</time>
      </trkpt>
      <trkpt lat="47.45824" lon="6.05132">
        <ele>356.39999389648</ele>
        <time>2014-11-11T09:17:06.000Z</time>
      </trkpt>
      <trkpt lat="47.45829" lon="6.05126">
        <ele>356.60000610352</ele>
        <time>2014-11-11T09:17:13.000Z</time>
      </trkpt>
      <trkpt lat="47.45832" lon="6.05121">
        <ele>356.79998779297</ele>
        <time>2014-11-11T09:17:18.000Z</time>
      </trkpt>
      <trkpt lat="47.45834" lon="6.05116">
        <ele>356.79998779297</ele>
        <time>2014-11-11T09:17:21.000Z</time>
      </trkpt>
      <trkpt lat="47.45835" lon="6.05114">
        <ele>356.79998779297</ele>
        <time>2014-11-11T09:17:23.000Z</time>
      </trkpt>
      <trkpt lat="47.45836" lon="6.05111">
        <ele>356.79998779297</ele>
        <time>2014-11-11T09:17:26.000Z</time>
      </trkpt>
      <trkpt lat="47.4584" lon="6.05102">
        <ele>356.79998779297</ele>
        <time>2014-11-11T09:17:32.000Z</time>
      </trkpt>
      <trkpt lat="47.45843" lon="6.051">
        <ele>357</ele>
        <time>2014-11-11T09:17:35.000Z</time>
      </trkpt>
      <trkpt lat="47.45846" lon="6.0509">
        <ele>357</ele>
        <time>2014-11-11T09:17:41.000Z</time>
      </trkpt>
      <trkpt lat="47.45854" lon="6.05083">
        <ele>357.39999389648</ele>
        <time>2014-11-11T09:17:48.000Z</time>
      </trkpt>
      <trkpt lat="47.45856" lon="6.05082">
        <ele>357.39999389648</ele>
        <time>2014-11-11T09:17:50.000Z</time>
      </trkpt>
      <trkpt lat="47.45864" lon="6.05075">
        <ele>357.79998779297</ele>
        <time>2014-11-11T09:17:58.000Z</time>
      </trkpt>
      <trkpt lat="47.45875" lon="6.05062">
        <ele>358.60000610352</ele>
        <time>2014-11-11T09:18:08.000Z</time>
      </trkpt>
      <trkpt lat="47.45877" lon="6.0506">
        <ele>358.60000610352</ele>
        <time>2014-11-11T09:18:11.000Z</time>
      </trkpt>
      <trkpt lat="47.45883" lon="6.05054">
        <ele>358.79998779297</ele>
        <time>2014-11-11T09:18:18.000Z</time>
      </trkpt>
      <trkpt lat="47.4589" lon="6.05049">
        <ele>359</ele>
        <time>2014-11-11T09:18:28.000Z</time>
      </trkpt>
      <trkpt lat="47.45892" lon="6.05047">
        <ele>359</ele>
        <time>2014-11-11T09:18:32.000Z</time>
      </trkpt>
      <trkpt lat="47.45897" lon="6.05044">
        <ele>359.20001220703</ele>
        <time>2014-11-11T09:18:40.000Z</time>
      </trkpt>
      <trkpt lat="47.45899" lon="6.0504">
        <ele>359.20001220703</ele>
        <time>2014-11-11T09:18:48.000Z</time>
      </trkpt>
      <trkpt lat="47.45904" lon="6.05037">
        <ele>359.39999389648</ele>
        <time>2014-11-11T09:18:54.000Z</time>
      </trkpt>
      <trkpt lat="47.45913" lon="6.05029">
        <ele>359.79998779297</ele>
        <time>2014-11-11T09:19:03.000Z</time>
      </trkpt>
      <trkpt lat="47.45917" lon="6.05026">
        <ele>359.79998779297</ele>
        <time>2014-11-11T09:19:08.000Z</time>
      </trkpt>
      <trkpt lat="47.45928" lon="6.05017">
        <ele>360.20001220703</ele>
        <time>2014-11-11T09:19:20.000Z</time>
      </trkpt>
      <trkpt lat="47.45937" lon="6.0501">
        <ele>360.60000610352</ele>
        <time>2014-11-11T09:19:27.000Z</time>
      </trkpt>
      <trkpt lat="47.45945" lon="6.05006">
        <ele>360.79998779297</ele>
        <time>2014-11-11T09:19:34.000Z</time>
      </trkpt>
      <trkpt lat="47.45953" lon="6.05">
        <ele>361.20001220703</ele>
        <time>2014-11-11T09:19:41.000Z</time>
      </trkpt>
      <trkpt lat="47.45961" lon="6.04994">
        <ele>361.60000610352</ele>
        <time>2014-11-11T09:19:48.000Z</time>
      </trkpt>
      <trkpt lat="47.45968" lon="6.04988">
        <ele>362</ele>
        <time>2014-11-11T09:19:55.000Z</time>
      </trkpt>
      <trkpt lat="47.45977" lon="6.04981">
        <ele>362.60000610352</ele>
        <time>2014-11-11T09:20:03.000Z</time>
      </trkpt>
      <trkpt lat="47.45987" lon="6.04972">
        <ele>363</ele>
        <time>2014-11-11T09:20:11.000Z</time>
      </trkpt>
      <trkpt lat="47.45996" lon="6.04964">
        <ele>363.20001220703</ele>
        <time>2014-11-11T09:20:19.000Z</time>
      </trkpt>
      <trkpt lat="47.46005" lon="6.04958">
        <ele>363.20001220703</ele>
        <time>2014-11-11T09:20:28.000Z</time>
      </trkpt>
      <trkpt lat="47.4601" lon="6.04956">
        <ele>363.39999389648</ele>
        <time>2014-11-11T09:20:32.000Z</time>
      </trkpt>
      <trkpt lat="47.46014" lon="6.04952">
        <ele>363.39999389648</ele>
        <time>2014-11-11T09:20:37.000Z</time>
      </trkpt>
      <trkpt lat="47.46024" lon="6.04945">
        <ele>363.60000610352</ele>
        <time>2014-11-11T09:20:45.000Z</time>
      </trkpt>
      <trkpt lat="47.46033" lon="6.04937">
        <ele>363.60000610352</ele>
        <time>2014-11-11T09:20:53.000Z</time>
      </trkpt>
      <trkpt lat="47.46042" lon="6.0493">
        <ele>363.79998779297</ele>
        <time>2014-11-11T09:21:01.000Z</time>
      </trkpt>
      <trkpt lat="47.46051" lon="6.04923">
        <ele>363.60000610352</ele>
        <time>2014-11-11T09:21:09.000Z</time>
      </trkpt>
      <trkpt lat="47.46061" lon="6.04918">
        <ele>363.79998779297</ele>
        <time>2014-11-11T09:21:17.000Z</time>
      </trkpt>
      <trkpt lat="47.46071" lon="6.04915">
        <ele>364</ele>
        <time>2014-11-11T09:21:25.000Z</time>
      </trkpt>
      <trkpt lat="47.4608" lon="6.04917">
        <ele>364.60000610352</ele>
        <time>2014-11-11T09:21:33.000Z</time>
      </trkpt>
      <trkpt lat="47.46089" lon="6.04923">
        <ele>365.39999389648</ele>
        <time>2014-11-11T09:21:41.000Z</time>
      </trkpt>
      <trkpt lat="47.46094" lon="6.04931">
        <ele>366.20001220703</ele>
        <time>2014-11-11T09:21:48.000Z</time>
      </trkpt>
      <trkpt lat="47.46103" lon="6.04942">
        <ele>367.20001220703</ele>
        <time>2014-11-11T09:21:57.000Z</time>
      </trkpt>
      <trkpt lat="47.46112" lon="6.04952">
        <ele>368.39999389648</ele>
        <time>2014-11-11T09:22:06.000Z</time>
      </trkpt>
      <trkpt lat="47.46122" lon="6.04963">
        <ele>369.60000610352</ele>
        <time>2014-11-11T09:22:15.000Z</time>
      </trkpt>
      <trkpt lat="47.4613" lon="6.04973">
        <ele>370.39999389648</ele>
        <time>2014-11-11T09:22:23.000Z</time>
      </trkpt>
      <trkpt lat="47.46138" lon="6.04983">
        <ele>371</ele>
        <time>2014-11-11T09:22:31.000Z</time>
      </trkpt>
      <trkpt lat="47.46147" lon="6.04993">
        <ele>371.39999389648</ele>
        <time>2014-11-11T09:22:40.000Z</time>
      </trkpt>
      <trkpt lat="47.46154" lon="6.05002">
        <ele>371.60000610352</ele>
        <time>2014-11-11T09:22:47.000Z</time>
      </trkpt>
      <trkpt lat="47.46164" lon="6.05014">
        <ele>372</ele>
        <time>2014-11-11T09:22:57.000Z</time>
      </trkpt>
      <trkpt lat="47.46175" lon="6.05028">
        <ele>372.39999389648</ele>
        <time>2014-11-11T09:23:09.000Z</time>
      </trkpt>
      <trkpt lat="47.46184" lon="6.05039">
        <ele>372.60000610352</ele>
        <time>2014-11-11T09:23:18.000Z</time>
      </trkpt>
      <trkpt lat="47.46193" lon="6.0505">
        <ele>373</ele>
        <time>2014-11-11T09:23:27.000Z</time>
      </trkpt>
      <trkpt lat="47.46203" lon="6.05063">
        <ele>373.20001220703</ele>
        <time>2014-11-11T09:23:38.000Z</time>
      </trkpt>
      <trkpt lat="47.46213" lon="6.05076">
        <ele>373.39999389648</ele>
        <time>2014-11-11T09:23:48.000Z</time>
      </trkpt>
      <trkpt lat="47.46222" lon="6.05087">
        <ele>373.60000610352</ele>
        <time>2014-11-11T09:23:57.000Z</time>
      </trkpt>
      <trkpt lat="47.46231" lon="6.05099">
        <ele>373.79998779297</ele>
        <time>2014-11-11T09:24:07.000Z</time>
      </trkpt>
      <trkpt lat="47.46239" lon="6.0511">
        <ele>374</ele>
        <time>2014-11-11T09:24:17.000Z</time>
      </trkpt>
      <trkpt lat="47.46249" lon="6.05122">
        <ele>374.20001220703</ele>
        <time>2014-11-11T09:24:26.000Z</time>
      </trkpt>
      <trkpt lat="47.46257" lon="6.05131">
        <ele>374.60000610352</ele>
        <time>2014-11-11T09:24:34.000Z</time>
      </trkpt>
      <trkpt lat="47.46267" lon="6.05138">
        <ele>375.39999389648</ele>
        <time>2014-11-11T09:24:43.000Z</time>
      </trkpt>
      <trkpt lat="47.46277" lon="6.05141">
        <ele>376</ele>
        <time>2014-11-11T09:24:52.000Z</time>
      </trkpt>
      <trkpt lat="47.46288" lon="6.05144">
        <ele>376.79998779297</ele>
        <time>2014-11-11T09:25:01.000Z</time>
      </trkpt>
      <trkpt lat="47.46299" lon="6.05146">
        <ele>377.39999389648</ele>
        <time>2014-11-11T09:25:11.000Z</time>
      </trkpt>
      <trkpt lat="47.46312" lon="6.05148">
        <ele>378.39999389648</ele>
        <time>2014-11-11T09:25:22.000Z</time>
      </trkpt>
      <trkpt lat="47.4632" lon="6.0515">
        <ele>378.79998779297</ele>
        <time>2014-11-11T09:25:28.000Z</time>
      </trkpt>
      <trkpt lat="47.4633" lon="6.05152">
        <ele>379.39999389648</ele>
        <time>2014-11-11T09:25:38.000Z</time>
      </trkpt>
      <trkpt lat="47.46339" lon="6.05154">
        <ele>379.79998779297</ele>
        <time>2014-11-11T09:25:46.000Z</time>
      </trkpt>
      <trkpt lat="47.46348" lon="6.05156">
        <ele>380.20001220703</ele>
        <time>2014-11-11T09:25:53.000Z</time>
      </trkpt>
      <trkpt lat="47.46358" lon="6.05158">
        <ele>380.60000610352</ele>
        <time>2014-11-11T09:26:01.000Z</time>
      </trkpt>
      <trkpt lat="47.46365" lon="6.0516">
        <ele>380.79998779297</ele>
        <time>2014-11-11T09:26:07.000Z</time>
      </trkpt>
      <trkpt lat="47.46371" lon="6.05161">
        <ele>381</ele>
        <time>2014-11-11T09:26:12.000Z</time>
      </trkpt>
      <trkpt lat="47.46379" lon="6.05164">
        <ele>381.20001220703</ele>
        <time>2014-11-11T09:26:19.000Z</time>
      </trkpt>
      <trkpt lat="47.46387" lon="6.05166">
        <ele>381.39999389648</ele>
        <time>2014-11-11T09:26:27.000Z</time>
      </trkpt>
      <trkpt lat="47.46397" lon="6.05166">
        <ele>381.79998779297</ele>
        <time>2014-11-11T09:26:36.000Z</time>
      </trkpt>
      <trkpt lat="47.46402" lon="6.05166">
        <ele>382</ele>
        <time>2014-11-11T09:26:39.000Z</time>
      </trkpt>
      <trkpt lat="47.46412" lon="6.05165">
        <ele>382.39999389648</ele>
        <time>2014-11-11T09:26:48.000Z</time>
      </trkpt>
      <trkpt lat="47.46421" lon="6.05161">
        <ele>383</ele>
        <time>2014-11-11T09:26:56.000Z</time>
      </trkpt>
      <trkpt lat="47.46423" lon="6.05159">
        <ele>383.20001220703</ele>
        <time>2014-11-11T09:26:58.000Z</time>
      </trkpt>
      <trkpt lat="47.46428" lon="6.05151">
        <ele>383.79998779297</ele>
        <time>2014-11-11T09:27:03.000Z</time>
      </trkpt>
      <trkpt lat="47.46433" lon="6.05143">
        <ele>384</ele>
        <time>2014-11-11T09:27:08.000Z</time>
      </trkpt>
      <trkpt lat="47.46434" lon="6.0514">
        <ele>384</ele>
        <time>2014-11-11T09:27:11.000Z</time>
      </trkpt>
      <trkpt lat="47.46438" lon="6.0513">
        <ele>384.39999389648</ele>
        <time>2014-11-11T09:27:17.000Z</time>
      </trkpt>
      <trkpt lat="47.46441" lon="6.05123">
        <ele>384.79998779297</ele>
        <time>2014-11-11T09:27:21.000Z</time>
      </trkpt>
      <trkpt lat="47.46442" lon="6.05122">
        <ele>384.79998779297</ele>
        <time>2014-11-11T09:27:23.000Z</time>
      </trkpt>
      <trkpt lat="47.46443" lon="6.0512">
        <ele>385</ele>
        <time>2014-11-11T09:27:25.000Z</time>
      </trkpt>
      <trkpt lat="47.46449" lon="6.05105">
        <ele>385.39999389648</ele>
        <time>2014-11-11T09:27:33.000Z</time>
      </trkpt>
      <trkpt lat="47.4645" lon="6.05102">
        <ele>385.60000610352</ele>
        <time>2014-11-11T09:27:36.000Z</time>
      </trkpt>
      <trkpt lat="47.46454" lon="6.05087">
        <ele>385.79998779297</ele>
        <time>2014-11-11T09:27:43.000Z</time>
      </trkpt>
      <trkpt lat="47.46459" lon="6.05077">
        <ele>385.79998779297</ele>
        <time>2014-11-11T09:27:50.000Z</time>
      </trkpt>
      <trkpt lat="47.46459" lon="6.05075">
        <ele>385.79998779297</ele>
        <time>2014-11-11T09:27:51.000Z</time>
      </trkpt>
      <trkpt lat="47.4647" lon="6.05054">
        <ele>385.79998779297</ele>
        <time>2014-11-11T09:28:05.000Z</time>
      </trkpt>
      <trkpt lat="47.46475" lon="6.05045">
        <ele>386</ele>
        <time>2014-11-11T09:28:11.000Z</time>
      </trkpt>
      <trkpt lat="47.46481" lon="6.05033">
        <ele>386</ele>
        <time>2014-11-11T09:28:18.000Z</time>
      </trkpt>
      <trkpt lat="47.46483" lon="6.05028">
        <ele>385.79998779297</ele>
        <time>2014-11-11T09:28:21.000Z</time>
      </trkpt>
      <trkpt lat="47.46487" lon="6.05021">
        <ele>385.79998779297</ele>
        <time>2014-11-11T09:28:26.000Z</time>
      </trkpt>
      <trkpt lat="47.46489" lon="6.05018">
        <ele>385.79998779297</ele>
        <time>2014-11-11T09:28:28.000Z</time>
      </trkpt>
      <trkpt lat="47.46494" lon="6.05013">
        <ele>385.79998779297</ele>
        <time>2014-11-11T09:28:33.000Z</time>
      </trkpt>
      <trkpt lat="47.46499" lon="6.05003">
        <ele>385.60000610352</ele>
        <time>2014-11-11T09:28:41.000Z</time>
      </trkpt>
      <trkpt lat="47.46503" lon="6.04995">
        <ele>385.60000610352</ele>
        <time>2014-11-11T09:28:45.000Z</time>
      </trkpt>
      <trkpt lat="47.46507" lon="6.0499">
        <ele>385.79998779297</ele>
        <time>2014-11-11T09:28:50.000Z</time>
      </trkpt>
      <trkpt lat="47.46516" lon="6.04977">
        <ele>385.79998779297</ele>
        <time>2014-11-11T09:28:58.000Z</time>
      </trkpt>
      <trkpt lat="47.46524" lon="6.04965">
        <ele>386.20001220703</ele>
        <time>2014-11-11T09:29:07.000Z</time>
      </trkpt>
      <trkpt lat="47.46529" lon="6.04956">
        <ele>386.39999389648</ele>
        <time>2014-11-11T09:29:13.000Z</time>
      </trkpt>
      <trkpt lat="47.46534" lon="6.04945">
        <ele>386.60000610352</ele>
        <time>2014-11-11T09:29:20.000Z</time>
      </trkpt>
      <trkpt lat="47.46541" lon="6.04935">
        <ele>387</ele>
        <time>2014-11-11T09:29:26.000Z</time>
      </trkpt>
      <trkpt lat="47.46547" lon="6.04927">
        <ele>386.60000610352</ele>
        <time>2014-11-11T09:29:32.000Z</time>
      </trkpt>
      <trkpt lat="47.46554" lon="6.04919">
        <ele>386.20001220703</ele>
        <time>2014-11-11T09:29:40.000Z</time>
      </trkpt>
      <trkpt lat="47.4656" lon="6.04912">
        <ele>386</ele>
        <time>2014-11-11T09:29:47.000Z</time>
      </trkpt>
      <trkpt lat="47.46566" lon="6.04905">
        <ele>385.60000610352</ele>
        <time>2014-11-11T09:29:53.000Z</time>
      </trkpt>
      <trkpt lat="47.46567" lon="6.04904">
        <ele>385.60000610352</ele>
        <time>2014-11-11T09:29:55.000Z</time>
      </trkpt>
      <trkpt lat="47.46569" lon="6.04902">
        <ele>385.39999389648</ele>
        <time>2014-11-11T09:29:57.000Z</time>
      </trkpt>
      <trkpt lat="47.46576" lon="6.04896">
        <ele>385.20001220703</ele>
        <time>2014-11-11T09:30:13.000Z</time>
      </trkpt>
      <trkpt lat="47.46583" lon="6.04887">
        <ele>384.79998779297</ele>
        <time>2014-11-11T09:30:21.000Z</time>
      </trkpt>
      <trkpt lat="47.46586" lon="6.04883">
        <ele>384.79998779297</ele>
        <time>2014-11-11T09:30:25.000Z</time>
      </trkpt>
      <trkpt lat="47.4659" lon="6.04875">
        <ele>384.79998779297</ele>
        <time>2014-11-11T09:30:33.000Z</time>
      </trkpt>
      <trkpt lat="47.46591" lon="6.04873">
        <ele>384.79998779297</ele>
        <time>2014-11-11T09:30:36.000Z</time>
      </trkpt>
      <trkpt lat="47.46594" lon="6.0487">
        <ele>384.79998779297</ele>
        <time>2014-11-11T09:30:40.000Z</time>
      </trkpt>
      <trkpt lat="47.46596" lon="6.04863">
        <ele>384.79998779297</ele>
        <time>2014-11-11T09:30:45.000Z</time>
      </trkpt>
      <trkpt lat="47.46602" lon="6.04856">
        <ele>384.79998779297</ele>
        <time>2014-11-11T09:30:53.000Z</time>
      </trkpt>
      <trkpt lat="47.46611" lon="6.04848">
        <ele>385.20001220703</ele>
        <time>2014-11-11T09:31:03.000Z</time>
      </trkpt>
      <trkpt lat="47.46617" lon="6.04848">
        <ele>385.79998779297</ele>
        <time>2014-11-11T09:31:12.000Z</time>
      </trkpt>
      <trkpt lat="47.46621" lon="6.04847">
        <ele>386</ele>
        <time>2014-11-11T09:31:17.000Z</time>
      </trkpt>
      <trkpt lat="47.46623" lon="6.04845">
        <ele>386.20001220703</ele>
        <time>2014-11-11T09:31:21.000Z</time>
      </trkpt>
      <trkpt lat="47.46627" lon="6.04843">
        <ele>386.39999389648</ele>
        <time>2014-11-11T09:31:26.000Z</time>
      </trkpt>
      <trkpt lat="47.46632" lon="6.0484">
        <ele>386.79998779297</ele>
        <time>2014-11-11T09:31:33.000Z</time>
      </trkpt>
      <trkpt lat="47.46634" lon="6.04839">
        <ele>387</ele>
        <time>2014-11-11T09:31:36.000Z</time>
      </trkpt>
      <trkpt lat="47.46636" lon="6.04838">
        <ele>387.20001220703</ele>
        <time>2014-11-11T09:31:42.000Z</time>
      </trkpt>
      <trkpt lat="47.46632" lon="6.04839">
        <ele>386.79998779297</ele>
        <time>2014-11-11T09:31:47.000Z</time>
      </trkpt>
      <trkpt lat="47.46626" lon="6.04844">
        <ele>386.39999389648</ele>
        <time>2014-11-11T09:31:53.000Z</time>
      </trkpt>
      <trkpt lat="47.46618" lon="6.04844">
        <ele>385.60000610352</ele>
        <time>2014-11-11T09:32:48.000Z</time>
      </trkpt>
      <trkpt lat="47.46613" lon="6.04842">
        <ele>385.20001220703</ele>
        <time>2014-11-11T09:32:53.000Z</time>
      </trkpt>
      <trkpt lat="47.46611" lon="6.04843">
        <ele>385</ele>
        <time>2014-11-11T09:32:56.000Z</time>
      </trkpt>
      <trkpt lat="47.46606" lon="6.0485">
        <ele>385</ele>
        <time>2014-11-11T09:33:03.000Z</time>
      </trkpt>
      <trkpt lat="47.46602" lon="6.04859">
        <ele>385</ele>
        <time>2014-11-11T09:33:12.000Z</time>
      </trkpt>
      <trkpt lat="47.46598" lon="6.04867">
        <ele>385</ele>
        <time>2014-11-11T09:33:18.000Z</time>
      </trkpt>
      <trkpt lat="47.46598" lon="6.04868">
        <ele>385</ele>
        <time>2014-11-11T09:33:20.000Z</time>
      </trkpt>
      <trkpt lat="47.46594" lon="6.04878">
        <ele>385.20001220703</ele>
        <time>2014-11-11T09:33:26.000Z</time>
      </trkpt>
      <trkpt lat="47.46593" lon="6.04879">
        <ele>385.20001220703</ele>
        <time>2014-11-11T09:33:27.000Z</time>
      </trkpt>
      <trkpt lat="47.46589" lon="6.04888">
        <ele>385.39999389648</ele>
        <time>2014-11-11T09:33:33.000Z</time>
      </trkpt>
      <trkpt lat="47.46584" lon="6.04901">
        <ele>385.39999389648</ele>
        <time>2014-11-11T09:33:41.000Z</time>
      </trkpt>
      <trkpt lat="47.46579" lon="6.04911">
        <ele>385.79998779297</ele>
        <time>2014-11-11T09:33:47.000Z</time>
      </trkpt>
      <trkpt lat="47.46577" lon="6.04914">
        <ele>386</ele>
        <time>2014-11-11T09:33:53.000Z</time>
      </trkpt>
      <trkpt lat="47.46572" lon="6.04921">
        <ele>386.39999389648</ele>
        <time>2014-11-11T09:34:16.000Z</time>
      </trkpt>
      <trkpt lat="47.46572" lon="6.04923">
        <ele>386.39999389648</ele>
        <time>2014-11-11T09:34:23.000Z</time>
      </trkpt>
      <trkpt lat="47.46572" lon="6.04922">
        <ele>386.39999389648</ele>
        <time>2014-11-11T09:34:32.000Z</time>
      </trkpt>
      <trkpt lat="47.46573" lon="6.04915">
        <ele>386</ele>
        <time>2014-11-11T09:35:09.000Z</time>
      </trkpt>
      <trkpt lat="47.46574" lon="6.04919">
        <ele>386.20001220703</ele>
        <time>2014-11-11T09:37:31.000Z</time>
      </trkpt>
      <trkpt lat="47.46579" lon="6.04918">
        <ele>386.20001220703</ele>
        <time>2014-11-11T09:38:13.000Z</time>
      </trkpt>
      <trkpt lat="47.46583" lon="6.0492">
        <ele>386.39999389648</ele>
        <time>2014-11-11T09:38:43.000Z</time>
      </trkpt>
      <trkpt lat="47.46586" lon="6.04924">
        <ele>386.79998779297</ele>
        <time>2014-11-11T09:38:48.000Z</time>
      </trkpt>
      <trkpt lat="47.46595" lon="6.04937">
        <ele>387.79998779297</ele>
        <time>2014-11-11T09:39:03.000Z</time>
      </trkpt>
      <trkpt lat="47.46597" lon="6.04942">
        <ele>388.20001220703</ele>
        <time>2014-11-11T09:39:10.000Z</time>
      </trkpt>
      <trkpt lat="47.46597" lon="6.04943">
        <ele>388.20001220703</ele>
        <time>2014-11-11T09:39:11.000Z</time>
      </trkpt>
      <trkpt lat="47.466" lon="6.04949">
        <ele>388.79998779297</ele>
        <time>2014-11-11T09:39:17.000Z</time>
      </trkpt>
      <trkpt lat="47.46603" lon="6.04953">
        <ele>389.20001220703</ele>
        <time>2014-11-11T09:39:21.000Z</time>
      </trkpt>
      <trkpt lat="47.46606" lon="6.04958">
        <ele>389.60000610352</ele>
        <time>2014-11-11T09:39:28.000Z</time>
      </trkpt>
      <trkpt lat="47.46609" lon="6.04961">
        <ele>389.79998779297</ele>
        <time>2014-11-11T09:39:32.000Z</time>
      </trkpt>
      <trkpt lat="47.4661" lon="6.04963">
        <ele>390</ele>
        <time>2014-11-11T09:39:33.000Z</time>
      </trkpt>
      <trkpt lat="47.46613" lon="6.04966">
        <ele>390.39999389648</ele>
        <time>2014-11-11T09:39:37.000Z</time>
      </trkpt>
      <trkpt lat="47.46618" lon="6.04973">
        <ele>391</ele>
        <time>2014-11-11T09:39:43.000Z</time>
      </trkpt>
      <trkpt lat="47.46618" lon="6.04975">
        <ele>391</ele>
        <time>2014-11-11T09:39:45.000Z</time>
      </trkpt>
      <trkpt lat="47.46621" lon="6.04982">
        <ele>391.39999389648</ele>
        <time>2014-11-11T09:39:51.000Z</time>
      </trkpt>
      <trkpt lat="47.46626" lon="6.04988">
        <ele>391.79998779297</ele>
        <time>2014-11-11T09:39:57.000Z</time>
      </trkpt>
      <trkpt lat="47.46627" lon="6.0499">
        <ele>392</ele>
        <time>2014-11-11T09:39:58.000Z</time>
      </trkpt>
      <trkpt lat="47.46629" lon="6.04993">
        <ele>392.20001220703</ele>
        <time>2014-11-11T09:40:00.000Z</time>
      </trkpt>
      <trkpt lat="47.46635" lon="6.05">
        <ele>392.79998779297</ele>
        <time>2014-11-11T09:40:07.000Z</time>
      </trkpt>
      <trkpt lat="47.46637" lon="6.05002">
        <ele>392.79998779297</ele>
        <time>2014-11-11T09:40:09.000Z</time>
      </trkpt>
      <trkpt lat="47.46643" lon="6.05011">
        <ele>393.39999389648</ele>
        <time>2014-11-11T09:40:17.000Z</time>
      </trkpt>
      <trkpt lat="47.46644" lon="6.05012">
        <ele>393.60000610352</ele>
        <time>2014-11-11T09:40:18.000Z</time>
      </trkpt>
      <trkpt lat="47.46644" lon="6.05013">
        <ele>393.60000610352</ele>
        <time>2014-11-11T09:40:19.000Z</time>
      </trkpt>
      <trkpt lat="47.46648" lon="6.05019">
        <ele>394</ele>
        <time>2014-11-11T09:40:24.000Z</time>
      </trkpt>
      <trkpt lat="47.46649" lon="6.0502">
        <ele>394</ele>
        <time>2014-11-11T09:40:25.000Z</time>
      </trkpt>
      <trkpt lat="47.46654" lon="6.05027">
        <ele>394.39999389648</ele>
        <time>2014-11-11T09:40:31.000Z</time>
      </trkpt>
      <trkpt lat="47.46659" lon="6.05034">
        <ele>395</ele>
        <time>2014-11-11T09:40:37.000Z</time>
      </trkpt>
      <trkpt lat="47.4666" lon="6.05035">
        <ele>395</ele>
        <time>2014-11-11T09:40:38.000Z</time>
      </trkpt>
      <trkpt lat="47.46664" lon="6.05039">
        <ele>395.39999389648</ele>
        <time>2014-11-11T09:40:43.000Z</time>
      </trkpt>
      <trkpt lat="47.46668" lon="6.05043">
        <ele>395.79998779297</ele>
        <time>2014-11-11T09:40:47.000Z</time>
      </trkpt>
      <trkpt lat="47.46674" lon="6.0505">
        <ele>396.20001220703</ele>
        <time>2014-11-11T09:40:53.000Z</time>
      </trkpt>
      <trkpt lat="47.46678" lon="6.05056">
        <ele>396.39999389648</ele>
        <time>2014-11-11T09:40:57.000Z</time>
      </trkpt>
      <trkpt lat="47.46678" lon="6.05057">
        <ele>396.60000610352</ele>
        <time>2014-11-11T09:40:59.000Z</time>
      </trkpt>
      <trkpt lat="47.46685" lon="6.05065">
        <ele>397</ele>
        <time>2014-11-11T09:41:05.000Z</time>
      </trkpt>
      <trkpt lat="47.46693" lon="6.05073">
        <ele>397.60000610352</ele>
        <time>2014-11-11T09:41:13.000Z</time>
      </trkpt>
      <trkpt lat="47.46693" lon="6.05074">
        <ele>397.60000610352</ele>
        <time>2014-11-11T09:41:14.000Z</time>
      </trkpt>
      <trkpt lat="47.46698" lon="6.0508">
        <ele>398</ele>
        <time>2014-11-11T09:41:19.000Z</time>
      </trkpt>
      <trkpt lat="47.46703" lon="6.05087">
        <ele>398.39999389648</ele>
        <time>2014-11-11T09:41:25.000Z</time>
      </trkpt>
      <trkpt lat="47.46709" lon="6.05094">
        <ele>398.79998779297</ele>
        <time>2014-11-11T09:41:31.000Z</time>
      </trkpt>
      <trkpt lat="47.46714" lon="6.05099">
        <ele>399.20001220703</ele>
        <time>2014-11-11T09:41:36.000Z</time>
      </trkpt>
      <trkpt lat="47.46716" lon="6.05101">
        <ele>399.39999389648</ele>
        <time>2014-11-11T09:41:37.000Z</time>
      </trkpt>
      <trkpt lat="47.46718" lon="6.05101">
        <ele>399.39999389648</ele>
        <time>2014-11-11T09:41:39.000Z</time>
      </trkpt>
      <trkpt lat="47.46723" lon="6.05104">
        <ele>399.79998779297</ele>
        <time>2014-11-11T09:41:43.000Z</time>
      </trkpt>
      <trkpt lat="47.46728" lon="6.05108">
        <ele>400.20001220703</ele>
        <time>2014-11-11T09:41:47.000Z</time>
      </trkpt>
      <trkpt lat="47.46729" lon="6.0511">
        <ele>400.20001220703</ele>
        <time>2014-11-11T09:41:48.000Z</time>
      </trkpt>
      <trkpt lat="47.4673" lon="6.05112">
        <ele>400.39999389648</ele>
        <time>2014-11-11T09:41:50.000Z</time>
      </trkpt>
      <trkpt lat="47.46734" lon="6.05118">
        <ele>400.60000610352</ele>
        <time>2014-11-11T09:41:56.000Z</time>
      </trkpt>
      <trkpt lat="47.46736" lon="6.0512">
        <ele>400.79998779297</ele>
        <time>2014-11-11T09:41:57.000Z</time>
      </trkpt>
      <trkpt lat="47.46736" lon="6.05121">
        <ele>400.79998779297</ele>
        <time>2014-11-11T09:41:58.000Z</time>
      </trkpt>
      <trkpt lat="47.46742" lon="6.05127">
        <ele>401.20001220703</ele>
        <time>2014-11-11T09:42:03.000Z</time>
      </trkpt>
      <trkpt lat="47.46746" lon="6.05134">
        <ele>401.60000610352</ele>
        <time>2014-11-11T09:42:09.000Z</time>
      </trkpt>
      <trkpt lat="47.46751" lon="6.05142">
        <ele>402</ele>
        <time>2014-11-11T09:42:15.000Z</time>
      </trkpt>
      <trkpt lat="47.46754" lon="6.05145">
        <ele>402.20001220703</ele>
        <time>2014-11-11T09:42:17.000Z</time>
      </trkpt>
      <trkpt lat="47.46755" lon="6.05148">
        <ele>402.20001220703</ele>
        <time>2014-11-11T09:42:19.000Z</time>
      </trkpt>
      <trkpt lat="47.46758" lon="6.05151">
        <ele>402.20001220703</ele>
        <time>2014-11-11T09:42:22.000Z</time>
      </trkpt>
      <trkpt lat="47.46762" lon="6.05159">
        <ele>402.39999389648</ele>
        <time>2014-11-11T09:42:30.000Z</time>
      </trkpt>
      <trkpt lat="47.46765" lon="6.05165">
        <ele>402.39999389648</ele>
        <time>2014-11-11T09:42:34.000Z</time>
      </trkpt>
      <trkpt lat="47.46765" lon="6.05167">
        <ele>402.39999389648</ele>
        <time>2014-11-11T09:42:36.000Z</time>
      </trkpt>
      <trkpt lat="47.46766" lon="6.0517">
        <ele>402.39999389648</ele>
        <time>2014-11-11T09:42:38.000Z</time>
      </trkpt>
      <trkpt lat="47.46773" lon="6.05179">
        <ele>402.60000610352</ele>
        <time>2014-11-11T09:42:45.000Z</time>
      </trkpt>
      <trkpt lat="47.46776" lon="6.05185">
        <ele>402.60000610352</ele>
        <time>2014-11-11T09:42:49.000Z</time>
      </trkpt>
      <trkpt lat="47.46781" lon="6.05193">
        <ele>402.79998779297</ele>
        <time>2014-11-11T09:42:55.000Z</time>
      </trkpt>
      <trkpt lat="47.46786" lon="6.05196">
        <ele>402.79998779297</ele>
        <time>2014-11-11T09:42:58.000Z</time>
      </trkpt>
      <trkpt lat="47.4679" lon="6.05202">
        <ele>403</ele>
        <time>2014-11-11T09:43:03.000Z</time>
      </trkpt>
      <trkpt lat="47.46798" lon="6.05211">
        <ele>403.20001220703</ele>
        <time>2014-11-11T09:43:11.000Z</time>
      </trkpt>
      <trkpt lat="47.46798" lon="6.05212">
        <ele>403.20001220703</ele>
        <time>2014-11-11T09:43:12.000Z</time>
      </trkpt>
      <trkpt lat="47.46801" lon="6.05216">
        <ele>403.20001220703</ele>
        <time>2014-11-11T09:43:16.000Z</time>
      </trkpt>
      <trkpt lat="47.46804" lon="6.05218">
        <ele>403.39999389648</ele>
        <time>2014-11-11T09:43:20.000Z</time>
      </trkpt>
      <trkpt lat="47.46806" lon="6.0522">
        <ele>403.39999389648</ele>
        <time>2014-11-11T09:43:23.000Z</time>
      </trkpt>
      <trkpt lat="47.46814" lon="6.05214">
        <ele>403.60000610352</ele>
        <time>2014-11-11T09:43:30.000Z</time>
      </trkpt>
      <trkpt lat="47.46819" lon="6.05208">
        <ele>403.60000610352</ele>
        <time>2014-11-11T09:43:36.000Z</time>
      </trkpt>
      <trkpt lat="47.4682" lon="6.05207">
        <ele>403.60000610352</ele>
        <time>2014-11-11T09:43:37.000Z</time>
      </trkpt>
      <trkpt lat="47.46821" lon="6.05205">
        <ele>403.79998779297</ele>
        <time>2014-11-11T09:43:38.000Z</time>
      </trkpt>
      <trkpt lat="47.46825" lon="6.05198">
        <ele>403.79998779297</ele>
        <time>2014-11-11T09:43:46.000Z</time>
      </trkpt>
      <trkpt lat="47.46829" lon="6.05193">
        <ele>404</ele>
        <time>2014-11-11T09:43:51.000Z</time>
      </trkpt>
      <trkpt lat="47.46839" lon="6.05177">
        <ele>404</ele>
        <time>2014-11-11T09:44:03.000Z</time>
      </trkpt>
      <trkpt lat="47.46839" lon="6.05175">
        <ele>404</ele>
        <time>2014-11-11T09:44:05.000Z</time>
      </trkpt>
      <trkpt lat="47.46844" lon="6.05168">
        <ele>404.20001220703</ele>
        <time>2014-11-11T09:44:10.000Z</time>
      </trkpt>
      <trkpt lat="47.46845" lon="6.05163">
        <ele>404.20001220703</ele>
        <time>2014-11-11T09:44:13.000Z</time>
      </trkpt>
      <trkpt lat="47.46848" lon="6.0516">
        <ele>404.20001220703</ele>
        <time>2014-11-11T09:44:15.000Z</time>
      </trkpt>
      <trkpt lat="47.46853" lon="6.05151">
        <ele>404.60000610352</ele>
        <time>2014-11-11T09:44:21.000Z</time>
      </trkpt>
      <trkpt lat="47.46856" lon="6.05147">
        <ele>404.79998779297</ele>
        <time>2014-11-11T09:44:24.000Z</time>
      </trkpt>
      <trkpt lat="47.46859" lon="6.05143">
        <ele>405</ele>
        <time>2014-11-11T09:44:29.000Z</time>
      </trkpt>
      <trkpt lat="47.46863" lon="6.05138">
        <ele>405</ele>
        <time>2014-11-11T09:44:33.000Z</time>
      </trkpt>
      <trkpt lat="47.46868" lon="6.05131">
        <ele>405.20001220703</ele>
        <time>2014-11-11T09:44:37.000Z</time>
      </trkpt>
      <trkpt lat="47.46869" lon="6.05129">
        <ele>405.20001220703</ele>
        <time>2014-11-11T09:44:38.000Z</time>
      </trkpt>
      <trkpt lat="47.46873" lon="6.05121">
        <ele>405.39999389648</ele>
        <time>2014-11-11T09:44:44.000Z</time>
      </trkpt>
      <trkpt lat="47.46878" lon="6.05114">
        <ele>405.60000610352</ele>
        <time>2014-11-11T09:44:49.000Z</time>
      </trkpt>
      <trkpt lat="47.46883" lon="6.05105">
        <ele>405.79998779297</ele>
        <time>2014-11-11T09:44:54.000Z</time>
      </trkpt>
      <trkpt lat="47.46884" lon="6.05103">
        <ele>405.79998779297</ele>
        <time>2014-11-11T09:44:56.000Z</time>
      </trkpt>
      <trkpt lat="47.46889" lon="6.05095">
        <ele>406</ele>
        <time>2014-11-11T09:45:01.000Z</time>
      </trkpt>
      <trkpt lat="47.46891" lon="6.05093">
        <ele>406</ele>
        <time>2014-11-11T09:45:02.000Z</time>
      </trkpt>
      <trkpt lat="47.46895" lon="6.05085">
        <ele>406.20001220703</ele>
        <time>2014-11-11T09:45:08.000Z</time>
      </trkpt>
      <trkpt lat="47.46897" lon="6.05083">
        <ele>406.39999389648</ele>
        <time>2014-11-11T09:45:10.000Z</time>
      </trkpt>
      <trkpt lat="47.46899" lon="6.05082">
        <ele>406.39999389648</ele>
        <time>2014-11-11T09:45:12.000Z</time>
      </trkpt>
      <trkpt lat="47.46901" lon="6.05076">
        <ele>406.39999389648</ele>
        <time>2014-11-11T09:45:16.000Z</time>
      </trkpt>
      <trkpt lat="47.46902" lon="6.05074">
        <ele>406.39999389648</ele>
        <time>2014-11-11T09:45:17.000Z</time>
      </trkpt>
      <trkpt lat="47.46905" lon="6.0507">
        <ele>406.60000610352</ele>
        <time>2014-11-11T09:45:21.000Z</time>
      </trkpt>
      <trkpt lat="47.46907" lon="6.05068">
        <ele>406.60000610352</ele>
        <time>2014-11-11T09:45:23.000Z</time>
      </trkpt>
      <trkpt lat="47.46909" lon="6.05064">
        <ele>406.79998779297</ele>
        <time>2014-11-11T09:45:26.000Z</time>
      </trkpt>
      <trkpt lat="47.46914" lon="6.05054">
        <ele>407</ele>
        <time>2014-11-11T09:45:33.000Z</time>
      </trkpt>
      <trkpt lat="47.46918" lon="6.0505">
        <ele>407</ele>
        <time>2014-11-11T09:45:37.000Z</time>
      </trkpt>
      <trkpt lat="47.46923" lon="6.05044">
        <ele>407</ele>
        <time>2014-11-11T09:45:43.000Z</time>
      </trkpt>
      <trkpt lat="47.46924" lon="6.05043">
        <ele>407</ele>
        <time>2014-11-11T09:45:44.000Z</time>
      </trkpt>
      <trkpt lat="47.46925" lon="6.05042">
        <ele>406.79998779297</ele>
        <time>2014-11-11T09:45:45.000Z</time>
      </trkpt>
      <trkpt lat="47.46931" lon="6.05035">
        <ele>406.79998779297</ele>
        <time>2014-11-11T09:45:52.000Z</time>
      </trkpt>
      <trkpt lat="47.46932" lon="6.05032">
        <ele>406.79998779297</ele>
        <time>2014-11-11T09:45:54.000Z</time>
      </trkpt>
      <trkpt lat="47.46936" lon="6.05027">
        <ele>406.79998779297</ele>
        <time>2014-11-11T09:45:58.000Z</time>
      </trkpt>
      <trkpt lat="47.46941" lon="6.05018">
        <ele>406.79998779297</ele>
        <time>2014-11-11T09:46:04.000Z</time>
      </trkpt>
      <trkpt lat="47.46942" lon="6.05016">
        <ele>406.60000610352</ele>
        <time>2014-11-11T09:46:05.000Z</time>
      </trkpt>
      <trkpt lat="47.46943" lon="6.05015">
        <ele>406.60000610352</ele>
        <time>2014-11-11T09:46:07.000Z</time>
      </trkpt>
      <trkpt lat="47.46945" lon="6.05012">
        <ele>406.60000610352</ele>
        <time>2014-11-11T09:46:09.000Z</time>
      </trkpt>
      <trkpt lat="47.4695" lon="6.05007">
        <ele>406.60000610352</ele>
        <time>2014-11-11T09:46:14.000Z</time>
      </trkpt>
      <trkpt lat="47.46956" lon="6.04997">
        <ele>406.60000610352</ele>
        <time>2014-11-11T09:46:22.000Z</time>
      </trkpt>
      <trkpt lat="47.46958" lon="6.04995">
        <ele>406.39999389648</ele>
        <time>2014-11-11T09:46:24.000Z</time>
      </trkpt>
      <trkpt lat="47.46964" lon="6.04988">
        <ele>406.39999389648</ele>
        <time>2014-11-11T09:46:30.000Z</time>
      </trkpt>
      <trkpt lat="47.46968" lon="6.04981">
        <ele>406.39999389648</ele>
        <time>2014-11-11T09:46:36.000Z</time>
      </trkpt>
      <trkpt lat="47.46969" lon="6.04977">
        <ele>406.39999389648</ele>
        <time>2014-11-11T09:46:37.000Z</time>
      </trkpt>
      <trkpt lat="47.46969" lon="6.04973">
        <ele>406.39999389648</ele>
        <time>2014-11-11T09:46:40.000Z</time>
      </trkpt>
      <trkpt lat="47.46972" lon="6.04965">
        <ele>406.39999389648</ele>
        <time>2014-11-11T09:46:45.000Z</time>
      </trkpt>
      <trkpt lat="47.46975" lon="6.0496">
        <ele>406.39999389648</ele>
        <time>2014-11-11T09:46:48.000Z</time>
      </trkpt>
      <trkpt lat="47.46978" lon="6.04955">
        <ele>406.60000610352</ele>
        <time>2014-11-11T09:46:51.000Z</time>
      </trkpt>
      <trkpt lat="47.46982" lon="6.04943">
        <ele>406.60000610352</ele>
        <time>2014-11-11T09:46:58.000Z</time>
      </trkpt>
      <trkpt lat="47.46985" lon="6.04935">
        <ele>406.60000610352</ele>
        <time>2014-11-11T09:47:02.000Z</time>
      </trkpt>
      <trkpt lat="47.46987" lon="6.04931">
        <ele>406.60000610352</ele>
        <time>2014-11-11T09:47:05.000Z</time>
      </trkpt>
      <trkpt lat="47.46988" lon="6.04928">
        <ele>406.79998779297</ele>
        <time>2014-11-11T09:47:06.000Z</time>
      </trkpt>
      <trkpt lat="47.46994" lon="6.04915">
        <ele>406.79998779297</ele>
        <time>2014-11-11T09:47:13.000Z</time>
      </trkpt>
      <trkpt lat="47.46996" lon="6.04911">
        <ele>406.79998779297</ele>
        <time>2014-11-11T09:47:15.000Z</time>
      </trkpt>
      <trkpt lat="47.46998" lon="6.04907">
        <ele>406.79998779297</ele>
        <time>2014-11-11T09:47:18.000Z</time>
      </trkpt>
      <trkpt lat="47.47" lon="6.04899">
        <ele>406.79998779297</ele>
        <time>2014-11-11T09:47:23.000Z</time>
      </trkpt>
      <trkpt lat="47.47002" lon="6.04895">
        <ele>406.79998779297</ele>
        <time>2014-11-11T09:47:26.000Z</time>
      </trkpt>
      <trkpt lat="47.47007" lon="6.04885">
        <ele>406.20001220703</ele>
        <time>2014-11-11T09:47:32.000Z</time>
      </trkpt>
      <trkpt lat="47.47012" lon="6.04877">
        <ele>405.39999389648</ele>
        <time>2014-11-11T09:47:37.000Z</time>
      </trkpt>
      <trkpt lat="47.47013" lon="6.04877">
        <ele>405.39999389648</ele>
        <time>2014-11-11T09:47:38.000Z</time>
      </trkpt>
      <trkpt lat="47.47013" lon="6.04875">
        <ele>405.39999389648</ele>
        <time>2014-11-11T09:47:39.000Z</time>
      </trkpt>
      <trkpt lat="47.47016" lon="6.0487">
        <ele>405</ele>
        <time>2014-11-11T09:47:43.000Z</time>
      </trkpt>
      <trkpt lat="47.4702" lon="6.04864">
        <ele>404.39999389648</ele>
        <time>2014-11-11T09:47:48.000Z</time>
      </trkpt>
      <trkpt lat="47.47021" lon="6.04862">
        <ele>404.20001220703</ele>
        <time>2014-11-11T09:47:50.000Z</time>
      </trkpt>
      <trkpt lat="47.47025" lon="6.04855">
        <ele>403.79998779297</ele>
        <time>2014-11-11T09:47:55.000Z</time>
      </trkpt>
      <trkpt lat="47.47028" lon="6.04848">
        <ele>403.39999389648</ele>
        <time>2014-11-11T09:47:59.000Z</time>
      </trkpt>
      <trkpt lat="47.47029" lon="6.04847">
        <ele>403.20001220703</ele>
        <time>2014-11-11T09:48:01.000Z</time>
      </trkpt>
      <trkpt lat="47.47032" lon="6.04842">
        <ele>402.79998779297</ele>
        <time>2014-11-11T09:48:05.000Z</time>
      </trkpt>
      <trkpt lat="47.47035" lon="6.04837">
        <ele>402.39999389648</ele>
        <time>2014-11-11T09:48:07.000Z</time>
      </trkpt>
      <trkpt lat="47.47039" lon="6.04832">
        <ele>401.60000610352</ele>
        <time>2014-11-11T09:48:11.000Z</time>
      </trkpt>
      <trkpt lat="47.47042" lon="6.04828">
        <ele>401.20001220703</ele>
        <time>2014-11-11T09:48:14.000Z</time>
      </trkpt>
      <trkpt lat="47.47046" lon="6.04821">
        <ele>400.39999389648</ele>
        <time>2014-11-11T09:48:20.000Z</time>
      </trkpt>
      <trkpt lat="47.47046" lon="6.0482">
        <ele>400.20001220703</ele>
        <time>2014-11-11T09:48:21.000Z</time>
      </trkpt>
      <trkpt lat="47.47052" lon="6.04813">
        <ele>399.20001220703</ele>
        <time>2014-11-11T09:48:27.000Z</time>
      </trkpt>
      <trkpt lat="47.47054" lon="6.04809">
        <ele>398.79998779297</ele>
        <time>2014-11-11T09:48:30.000Z</time>
      </trkpt>
      <trkpt lat="47.47059" lon="6.04799">
        <ele>397.60000610352</ele>
        <time>2014-11-11T09:48:36.000Z</time>
      </trkpt>
      <trkpt lat="47.47064" lon="6.04793">
        <ele>396.79998779297</ele>
        <time>2014-11-11T09:48:42.000Z</time>
      </trkpt>
      <trkpt lat="47.47065" lon="6.04792">
        <ele>396.60000610352</ele>
        <time>2014-11-11T09:48:44.000Z</time>
      </trkpt>
      <trkpt lat="47.47071" lon="6.04783">
        <ele>395.39999389648</ele>
        <time>2014-11-11T09:48:52.000Z</time>
      </trkpt>
      <trkpt lat="47.47072" lon="6.04782">
        <ele>395.20001220703</ele>
        <time>2014-11-11T09:48:53.000Z</time>
      </trkpt>
      <trkpt lat="47.47079" lon="6.04778">
        <ele>394</ele>
        <time>2014-11-11T09:49:19.000Z</time>
      </trkpt>
      <trkpt lat="47.47083" lon="6.04781">
        <ele>393.60000610352</ele>
        <time>2014-11-11T09:49:24.000Z</time>
      </trkpt>
      <trkpt lat="47.47087" lon="6.04787">
        <ele>393.60000610352</ele>
        <time>2014-11-11T09:49:31.000Z</time>
      </trkpt>
      <trkpt lat="47.47089" lon="6.04794">
        <ele>393.60000610352</ele>
        <time>2014-11-11T09:49:37.000Z</time>
      </trkpt>
      <trkpt lat="47.47089" lon="6.04795">
        <ele>393.60000610352</ele>
        <time>2014-11-11T09:49:38.000Z</time>
      </trkpt>
      <trkpt lat="47.47089" lon="6.04797">
        <ele>393.79998779297</ele>
        <time>2014-11-11T09:49:40.000Z</time>
      </trkpt>
      <trkpt lat="47.47092" lon="6.04796">
        <ele>393.39999389648</ele>
        <time>2014-11-11T09:49:47.000Z</time>
      </trkpt>
      <trkpt lat="47.47095" lon="6.04794">
        <ele>392.79998779297</ele>
        <time>2014-11-11T09:49:53.000Z</time>
      </trkpt>
      <trkpt lat="47.47103" lon="6.04801">
        <ele>392.20001220703</ele>
        <time>2014-11-11T09:50:05.000Z</time>
      </trkpt>
      <trkpt lat="47.47107" lon="6.04806">
        <ele>392</ele>
        <time>2014-11-11T09:50:11.000Z</time>
      </trkpt>
      <trkpt lat="47.4711" lon="6.04811">
        <ele>391.79998779297</ele>
        <time>2014-11-11T09:50:16.000Z</time>
      </trkpt>
      <trkpt lat="47.47113" lon="6.04815">
        <ele>391.79998779297</ele>
        <time>2014-11-11T09:50:21.000Z</time>
      </trkpt>
      <trkpt lat="47.47116" lon="6.04818">
        <ele>391.60000610352</ele>
        <time>2014-11-11T09:50:25.000Z</time>
      </trkpt>
      <trkpt lat="47.47118" lon="6.04823">
        <ele>392</ele>
        <time>2014-11-11T09:50:31.000Z</time>
      </trkpt>
      <trkpt lat="47.47121" lon="6.04827">
        <ele>392</ele>
        <time>2014-11-11T09:50:36.000Z</time>
      </trkpt>
      <trkpt lat="47.47122" lon="6.04831">
        <ele>392.20001220703</ele>
        <time>2014-11-11T09:50:40.000Z</time>
      </trkpt>
      <trkpt lat="47.47126" lon="6.04836">
        <ele>392</ele>
        <time>2014-11-11T09:50:44.000Z</time>
      </trkpt>
      <trkpt lat="47.47129" lon="6.04837">
        <ele>391.79998779297</ele>
        <time>2014-11-11T09:50:46.000Z</time>
      </trkpt>
      <trkpt lat="47.47134" lon="6.0484">
        <ele>391.39999389648</ele>
        <time>2014-11-11T09:50:50.000Z</time>
      </trkpt>
      <trkpt lat="47.47136" lon="6.04847">
        <ele>391.79998779297</ele>
        <time>2014-11-11T09:50:55.000Z</time>
      </trkpt>
      <trkpt lat="47.47138" lon="6.04849">
        <ele>391.79998779297</ele>
        <time>2014-11-11T09:50:57.000Z</time>
      </trkpt>
      <trkpt lat="47.47147" lon="6.04858">
        <ele>391.39999389648</ele>
        <time>2014-11-11T09:51:09.000Z</time>
      </trkpt>
      <trkpt lat="47.47151" lon="6.04862">
        <ele>391.39999389648</ele>
        <time>2014-11-11T09:51:12.000Z</time>
      </trkpt>
      <trkpt lat="47.47155" lon="6.04867">
        <ele>391.20001220703</ele>
        <time>2014-11-11T09:51:17.000Z</time>
      </trkpt>
      <trkpt lat="47.47156" lon="6.04869">
        <ele>391.20001220703</ele>
        <time>2014-11-11T09:51:19.000Z</time>
      </trkpt>
      <trkpt lat="47.47163" lon="6.04876">
        <ele>391</ele>
        <time>2014-11-11T09:51:25.000Z</time>
      </trkpt>
      <trkpt lat="47.47166" lon="6.04881">
        <ele>391</ele>
        <time>2014-11-11T09:51:29.000Z</time>
      </trkpt>
      <trkpt lat="47.47171" lon="6.0489">
        <ele>391.79998779297</ele>
        <time>2014-11-11T09:51:37.000Z</time>
      </trkpt>
      <trkpt lat="47.47171" lon="6.04891">
        <ele>391.79998779297</ele>
        <time>2014-11-11T09:51:38.000Z</time>
      </trkpt>
      <trkpt lat="47.47173" lon="6.04897">
        <ele>392</ele>
        <time>2014-11-11T09:51:42.000Z</time>
      </trkpt>
      <trkpt lat="47.47177" lon="6.04905">
        <ele>392.20001220703</ele>
        <time>2014-11-11T09:51:47.000Z</time>
      </trkpt>
      <trkpt lat="47.47178" lon="6.04909">
        <ele>392.39999389648</ele>
        <time>2014-11-11T09:51:51.000Z</time>
      </trkpt>
      <trkpt lat="47.47179" lon="6.04914">
        <ele>392.60000610352</ele>
        <time>2014-11-11T09:51:55.000Z</time>
      </trkpt>
      <trkpt lat="47.47181" lon="6.04918">
        <ele>392.79998779297</ele>
        <time>2014-11-11T09:51:58.000Z</time>
      </trkpt>
      <trkpt lat="47.47182" lon="6.04926">
        <ele>393</ele>
        <time>2014-11-11T09:52:03.000Z</time>
      </trkpt>
      <trkpt lat="47.47184" lon="6.04933">
        <ele>393.20001220703</ele>
        <time>2014-11-11T09:52:08.000Z</time>
      </trkpt>
      <trkpt lat="47.47184" lon="6.04933">
        <ele>393.39999389648</ele>
        <time>2014-11-11T09:52:09.000Z</time>
      </trkpt>
      <trkpt lat="47.47185" lon="6.0494">
        <ele>393.60000610352</ele>
        <time>2014-11-11T09:52:12.000Z</time>
      </trkpt>
      <trkpt lat="47.47185" lon="6.04947">
        <ele>394</ele>
        <time>2014-11-11T09:52:17.000Z</time>
      </trkpt>
      <trkpt lat="47.47185" lon="6.04949">
        <ele>394</ele>
        <time>2014-11-11T09:52:19.000Z</time>
      </trkpt>
      <trkpt lat="47.47186" lon="6.0496">
        <ele>394.60000610352</ele>
        <time>2014-11-11T09:52:26.000Z</time>
      </trkpt>
      <trkpt lat="47.47186" lon="6.04962">
        <ele>394.60000610352</ele>
        <time>2014-11-11T09:52:27.000Z</time>
      </trkpt>
      <trkpt lat="47.47185" lon="6.0497">
        <ele>395</ele>
        <time>2014-11-11T09:52:31.000Z</time>
      </trkpt>
      <trkpt lat="47.47189" lon="6.04981">
        <ele>395.39999389648</ele>
        <time>2014-11-11T09:52:37.000Z</time>
      </trkpt>
      <trkpt lat="47.47189" lon="6.04985">
        <ele>395.60000610352</ele>
        <time>2014-11-11T09:52:40.000Z</time>
      </trkpt>
      <trkpt lat="47.47189" lon="6.04994">
        <ele>396</ele>
        <time>2014-11-11T09:52:46.000Z</time>
      </trkpt>
      <trkpt lat="47.47189" lon="6.04998">
        <ele>396.20001220703</ele>
        <time>2014-11-11T09:52:49.000Z</time>
      </trkpt>
      <trkpt lat="47.47189" lon="6.05001">
        <ele>396.39999389648</ele>
        <time>2014-11-11T09:52:51.000Z</time>
      </trkpt>
      <trkpt lat="47.47187" lon="6.0501">
        <ele>396.60000610352</ele>
        <time>2014-11-11T09:52:57.000Z</time>
      </trkpt>
      <trkpt lat="47.47186" lon="6.05014">
        <ele>396.60000610352</ele>
        <time>2014-11-11T09:53:00.000Z</time>
      </trkpt>
      <trkpt lat="47.47185" lon="6.05021">
        <ele>396.79998779297</ele>
        <time>2014-11-11T09:53:04.000Z</time>
      </trkpt>
      <trkpt lat="47.47184" lon="6.05034">
        <ele>397.20001220703</ele>
        <time>2014-11-11T09:53:11.000Z</time>
      </trkpt>
      <trkpt lat="47.47184" lon="6.05045">
        <ele>397.39999389648</ele>
        <time>2014-11-11T09:53:17.000Z</time>
      </trkpt>
      <trkpt lat="47.47186" lon="6.05058">
        <ele>397.79998779297</ele>
        <time>2014-11-11T09:53:24.000Z</time>
      </trkpt>
      <trkpt lat="47.47186" lon="6.05061">
        <ele>397.79998779297</ele>
        <time>2014-11-11T09:53:26.000Z</time>
      </trkpt>
      <trkpt lat="47.47189" lon="6.05073">
        <ele>398</ele>
        <time>2014-11-11T09:53:33.000Z</time>
      </trkpt>
      <trkpt lat="47.4719" lon="6.0508">
        <ele>398.20001220703</ele>
        <time>2014-11-11T09:53:37.000Z</time>
      </trkpt>
      <trkpt lat="47.4719" lon="6.05082">
        <ele>398.20001220703</ele>
        <time>2014-11-11T09:53:39.000Z</time>
      </trkpt>
      <trkpt lat="47.47188" lon="6.05091">
        <ele>398.60000610352</ele>
        <time>2014-11-11T09:53:45.000Z</time>
      </trkpt>
      <trkpt lat="47.47189" lon="6.05099">
        <ele>398.60000610352</ele>
        <time>2014-11-11T09:53:50.000Z</time>
      </trkpt>
      <trkpt lat="47.47192" lon="6.0511">
        <ele>399</ele>
        <time>2014-11-11T09:53:56.000Z</time>
      </trkpt>
      <trkpt lat="47.47192" lon="6.05112">
        <ele>399</ele>
        <time>2014-11-11T09:53:57.000Z</time>
      </trkpt>
      <trkpt lat="47.47193" lon="6.05115">
        <ele>399</ele>
        <time>2014-11-11T09:53:59.000Z</time>
      </trkpt>
      <trkpt lat="47.47195" lon="6.05124">
        <ele>399.20001220703</ele>
        <time>2014-11-11T09:54:06.000Z</time>
      </trkpt>
      <trkpt lat="47.47197" lon="6.05128">
        <ele>399.20001220703</ele>
        <time>2014-11-11T09:54:08.000Z</time>
      </trkpt>
      <trkpt lat="47.47198" lon="6.05133">
        <ele>399.39999389648</ele>
        <time>2014-11-11T09:54:12.000Z</time>
      </trkpt>
      <trkpt lat="47.47201" lon="6.05142">
        <ele>399.60000610352</ele>
        <time>2014-11-11T09:54:17.000Z</time>
      </trkpt>
      <trkpt lat="47.47202" lon="6.05144">
        <ele>399.60000610352</ele>
        <time>2014-11-11T09:54:19.000Z</time>
      </trkpt>
      <trkpt lat="47.47204" lon="6.05149">
        <ele>399.79998779297</ele>
        <time>2014-11-11T09:54:23.000Z</time>
      </trkpt>
      <trkpt lat="47.47205" lon="6.05156">
        <ele>399.79998779297</ele>
        <time>2014-11-11T09:54:27.000Z</time>
      </trkpt>
      <trkpt lat="47.47207" lon="6.05165">
        <ele>400</ele>
        <time>2014-11-11T09:54:32.000Z</time>
      </trkpt>
      <trkpt lat="47.47208" lon="6.05168">
        <ele>400.20001220703</ele>
        <time>2014-11-11T09:54:34.000Z</time>
      </trkpt>
      <trkpt lat="47.47209" lon="6.05175">
        <ele>400.20001220703</ele>
        <time>2014-11-11T09:54:38.000Z</time>
      </trkpt>
      <trkpt lat="47.4721" lon="6.05181">
        <ele>400.39999389648</ele>
        <time>2014-11-11T09:54:42.000Z</time>
      </trkpt>
      <trkpt lat="47.47213" lon="6.0519">
        <ele>400.60000610352</ele>
        <time>2014-11-11T09:54:48.000Z</time>
      </trkpt>
      <trkpt lat="47.47213" lon="6.05194">
        <ele>400.60000610352</ele>
        <time>2014-11-11T09:54:50.000Z</time>
      </trkpt>
      <trkpt lat="47.47214" lon="6.05201">
        <ele>400.79998779297</ele>
        <time>2014-11-11T09:54:55.000Z</time>
      </trkpt>
      <trkpt lat="47.47216" lon="6.05204">
        <ele>400.79998779297</ele>
        <time>2014-11-11T09:54:57.000Z</time>
      </trkpt>
      <trkpt lat="47.4722" lon="6.05212">
        <ele>400.79998779297</ele>
        <time>2014-11-11T09:55:02.000Z</time>
      </trkpt>
      <trkpt lat="47.47223" lon="6.05219">
        <ele>401</ele>
        <time>2014-11-11T09:55:05.000Z</time>
      </trkpt>
      <trkpt lat="47.47225" lon="6.05226">
        <ele>401</ele>
        <time>2014-11-11T09:55:10.000Z</time>
      </trkpt>
      <trkpt lat="47.47226" lon="6.05229">
        <ele>401</ele>
        <time>2014-11-11T09:55:12.000Z</time>
      </trkpt>
      <trkpt lat="47.47228" lon="6.05239">
        <ele>401.20001220703</ele>
        <time>2014-11-11T09:55:17.000Z</time>
      </trkpt>
      <trkpt lat="47.4723" lon="6.05246">
        <ele>401.20001220703</ele>
        <time>2014-11-11T09:55:22.000Z</time>
      </trkpt>
      <trkpt lat="47.47232" lon="6.05255">
        <ele>401.39999389648</ele>
        <time>2014-11-11T09:55:27.000Z</time>
      </trkpt>
      <trkpt lat="47.47233" lon="6.05257">
        <ele>401.39999389648</ele>
        <time>2014-11-11T09:55:28.000Z</time>
      </trkpt>
      <trkpt lat="47.47234" lon="6.05261">
        <ele>401.39999389648</ele>
        <time>2014-11-11T09:55:31.000Z</time>
      </trkpt>
      <trkpt lat="47.47236" lon="6.05274">
        <ele>401.60000610352</ele>
        <time>2014-11-11T09:55:37.000Z</time>
      </trkpt>
      <trkpt lat="47.47236" lon="6.05274">
        <ele>401.60000610352</ele>
        <time>2014-11-11T09:55:38.000Z</time>
      </trkpt>
      <trkpt lat="47.47238" lon="6.05279">
        <ele>401.60000610352</ele>
        <time>2014-11-11T09:55:41.000Z</time>
      </trkpt>
      <trkpt lat="47.47239" lon="6.05287">
        <ele>401.79998779297</ele>
        <time>2014-11-11T09:55:45.000Z</time>
      </trkpt>
      <trkpt lat="47.47241" lon="6.05295">
        <ele>401.79998779297</ele>
        <time>2014-11-11T09:55:49.000Z</time>
      </trkpt>
      <trkpt lat="47.47241" lon="6.05297">
        <ele>401.79998779297</ele>
        <time>2014-11-11T09:55:51.000Z</time>
      </trkpt>
      <trkpt lat="47.47245" lon="6.05307">
        <ele>402</ele>
        <time>2014-11-11T09:55:56.000Z</time>
      </trkpt>
      <trkpt lat="47.47249" lon="6.05314">
        <ele>402</ele>
        <time>2014-11-11T09:56:00.000Z</time>
      </trkpt>
      <trkpt lat="47.4725" lon="6.05317">
        <ele>402</ele>
        <time>2014-11-11T09:56:03.000Z</time>
      </trkpt>
      <trkpt lat="47.47253" lon="6.05324">
        <ele>402.20001220703</ele>
        <time>2014-11-11T09:56:07.000Z</time>
      </trkpt>
      <trkpt lat="47.47253" lon="6.05326">
        <ele>402.20001220703</ele>
        <time>2014-11-11T09:56:09.000Z</time>
      </trkpt>
      <trkpt lat="47.47253" lon="6.05333">
        <ele>402</ele>
        <time>2014-11-11T09:56:14.000Z</time>
      </trkpt>
      <trkpt lat="47.47255" lon="6.05341">
        <ele>402</ele>
        <time>2014-11-11T09:56:19.000Z</time>
      </trkpt>
      <trkpt lat="47.47256" lon="6.05348">
        <ele>402.20001220703</ele>
        <time>2014-11-11T09:56:23.000Z</time>
      </trkpt>
      <trkpt lat="47.47258" lon="6.05357">
        <ele>402.20001220703</ele>
        <time>2014-11-11T09:56:28.000Z</time>
      </trkpt>
      <trkpt lat="47.4726" lon="6.05361">
        <ele>402.20001220703</ele>
        <time>2014-11-11T09:56:30.000Z</time>
      </trkpt>
      <trkpt lat="47.47262" lon="6.05364">
        <ele>402.39999389648</ele>
        <time>2014-11-11T09:56:33.000Z</time>
      </trkpt>
      <trkpt lat="47.47264" lon="6.05371">
        <ele>402.60000610352</ele>
        <time>2014-11-11T09:56:37.000Z</time>
      </trkpt>
      <trkpt lat="47.47265" lon="6.05376">
        <ele>402.60000610352</ele>
        <time>2014-11-11T09:56:40.000Z</time>
      </trkpt>
      <trkpt lat="47.47268" lon="6.05383">
        <ele>402.60000610352</ele>
        <time>2014-11-11T09:56:44.000Z</time>
      </trkpt>
      <trkpt lat="47.47269" lon="6.0539">
        <ele>402.60000610352</ele>
        <time>2014-11-11T09:56:48.000Z</time>
      </trkpt>
      <trkpt lat="47.4727" lon="6.05403">
        <ele>402.39999389648</ele>
        <time>2014-11-11T09:56:55.000Z</time>
      </trkpt>
      <trkpt lat="47.47269" lon="6.05408">
        <ele>402</ele>
        <time>2014-11-11T09:56:58.000Z</time>
      </trkpt>
      <trkpt lat="47.47268" lon="6.05419">
        <ele>401.79998779297</ele>
        <time>2014-11-11T09:57:03.000Z</time>
      </trkpt>
      <trkpt lat="47.47267" lon="6.0543">
        <ele>401.39999389648</ele>
        <time>2014-11-11T09:57:09.000Z</time>
      </trkpt>
      <trkpt lat="47.47266" lon="6.05439">
        <ele>401</ele>
        <time>2014-11-11T09:57:16.000Z</time>
      </trkpt>
      <trkpt lat="47.47266" lon="6.05449">
        <ele>400.79998779297</ele>
        <time>2014-11-11T09:57:24.000Z</time>
      </trkpt>
      <trkpt lat="47.47266" lon="6.05453">
        <ele>400.79998779297</ele>
        <time>2014-11-11T09:57:27.000Z</time>
      </trkpt>
      <trkpt lat="47.47267" lon="6.05466">
        <ele>400.39999389648</ele>
        <time>2014-11-11T09:57:35.000Z</time>
      </trkpt>
      <trkpt lat="47.47267" lon="6.05471">
        <ele>400.39999389648</ele>
        <time>2014-11-11T09:57:37.000Z</time>
      </trkpt>
      <trkpt lat="47.47268" lon="6.05474">
        <ele>400.39999389648</ele>
        <time>2014-11-11T09:57:39.000Z</time>
      </trkpt>
      <trkpt lat="47.47269" lon="6.05486">
        <ele>400</ele>
        <time>2014-11-11T09:57:46.000Z</time>
      </trkpt>
      <trkpt lat="47.47269" lon="6.05495">
        <ele>399.79998779297</ele>
        <time>2014-11-11T09:57:51.000Z</time>
      </trkpt>
      <trkpt lat="47.47271" lon="6.05511">
        <ele>399.39999389648</ele>
        <time>2014-11-11T09:57:59.000Z</time>
      </trkpt>
      <trkpt lat="47.47271" lon="6.05523">
        <ele>399.20001220703</ele>
        <time>2014-11-11T09:58:05.000Z</time>
      </trkpt>
      <trkpt lat="47.47271" lon="6.05526">
        <ele>399</ele>
        <time>2014-11-11T09:58:08.000Z</time>
      </trkpt>
      <trkpt lat="47.47269" lon="6.05536">
        <ele>398.79998779297</ele>
        <time>2014-11-11T09:58:13.000Z</time>
      </trkpt>
      <trkpt lat="47.47268" lon="6.05539">
        <ele>398.60000610352</ele>
        <time>2014-11-11T09:58:15.000Z</time>
      </trkpt>
      <trkpt lat="47.47267" lon="6.05545">
        <ele>398.39999389648</ele>
        <time>2014-11-11T09:58:19.000Z</time>
      </trkpt>
      <trkpt lat="47.47266" lon="6.05554">
        <ele>398.20001220703</ele>
        <time>2014-11-11T09:58:25.000Z</time>
      </trkpt>
      <trkpt lat="47.47266" lon="6.05564">
        <ele>397.79998779297</ele>
        <time>2014-11-11T09:58:30.000Z</time>
      </trkpt>
      <trkpt lat="47.47265" lon="6.05573">
        <ele>397.39999389648</ele>
        <time>2014-11-11T09:58:35.000Z</time>
      </trkpt>
      <trkpt lat="47.47265" lon="6.05585">
        <ele>396.60000610352</ele>
        <time>2014-11-11T09:58:42.000Z</time>
      </trkpt>
      <trkpt lat="47.47262" lon="6.05599">
        <ele>395.39999389648</ele>
        <time>2014-11-11T09:58:49.000Z</time>
      </trkpt>
      <trkpt lat="47.47261" lon="6.05604">
        <ele>394.79998779297</ele>
        <time>2014-11-11T09:58:52.000Z</time>
      </trkpt>
      <trkpt lat="47.4726" lon="6.05614">
        <ele>394</ele>
        <time>2014-11-11T09:58:59.000Z</time>
      </trkpt>
      <trkpt lat="47.47259" lon="6.05619">
        <ele>393.60000610352</ele>
        <time>2014-11-11T09:59:03.000Z</time>
      </trkpt>
      <trkpt lat="47.47258" lon="6.05634">
        <ele>392.39999389648</ele>
        <time>2014-11-11T09:59:12.000Z</time>
      </trkpt>
      <trkpt lat="47.47259" lon="6.05643">
        <ele>391.79998779297</ele>
        <time>2014-11-11T09:59:18.000Z</time>
      </trkpt>
      <trkpt lat="47.47259" lon="6.05654">
        <ele>391.39999389648</ele>
        <time>2014-11-11T09:59:24.000Z</time>
      </trkpt>
      <trkpt lat="47.47257" lon="6.0567">
        <ele>390.20001220703</ele>
        <time>2014-11-11T09:59:32.000Z</time>
      </trkpt>
      <trkpt lat="47.47257" lon="6.05676">
        <ele>389.79998779297</ele>
        <time>2014-11-11T09:59:36.000Z</time>
      </trkpt>
      <trkpt lat="47.47257" lon="6.05678">
        <ele>389.79998779297</ele>
        <time>2014-11-11T09:59:37.000Z</time>
      </trkpt>
      <trkpt lat="47.47254" lon="6.05689">
        <ele>388.79998779297</ele>
        <time>2014-11-11T09:59:43.000Z</time>
      </trkpt>
      <trkpt lat="47.47251" lon="6.057">
        <ele>387.79998779297</ele>
        <time>2014-11-11T09:59:49.000Z</time>
      </trkpt>
      <trkpt lat="47.47249" lon="6.05705">
        <ele>387.20001220703</ele>
        <time>2014-11-11T09:59:52.000Z</time>
      </trkpt>
      <trkpt lat="47.47247" lon="6.0571">
        <ele>386.79998779297</ele>
        <time>2014-11-11T09:59:55.000Z</time>
      </trkpt>
      <trkpt lat="47.47244" lon="6.05724">
        <ele>385.60000610352</ele>
        <time>2014-11-11T10:00:03.000Z</time>
      </trkpt>
      <trkpt lat="47.4724" lon="6.05738">
        <ele>384.39999389648</ele>
        <time>2014-11-11T10:00:11.000Z</time>
      </trkpt>
      <trkpt lat="47.47239" lon="6.0574">
        <ele>384.39999389648</ele>
        <time>2014-11-11T10:00:12.000Z</time>
      </trkpt>
      <trkpt lat="47.47236" lon="6.0575">
        <ele>383.60000610352</ele>
        <time>2014-11-11T10:00:19.000Z</time>
      </trkpt>
      <trkpt lat="47.47235" lon="6.05753">
        <ele>383.39999389648</ele>
        <time>2014-11-11T10:00:21.000Z</time>
      </trkpt>
      <trkpt lat="47.47233" lon="6.05761">
        <ele>383</ele>
        <time>2014-11-11T10:00:25.000Z</time>
      </trkpt>
      <trkpt lat="47.47232" lon="6.05766">
        <ele>382.60000610352</ele>
        <time>2014-11-11T10:00:28.000Z</time>
      </trkpt>
      <trkpt lat="47.47232" lon="6.0577">
        <ele>382.60000610352</ele>
        <time>2014-11-11T10:00:31.000Z</time>
      </trkpt>
      <trkpt lat="47.47232" lon="6.05778">
        <ele>382.20001220703</ele>
        <time>2014-11-11T10:00:35.000Z</time>
      </trkpt>
      <trkpt lat="47.4723" lon="6.05787">
        <ele>381.79998779297</ele>
        <time>2014-11-11T10:00:40.000Z</time>
      </trkpt>
      <trkpt lat="47.4723" lon="6.05794">
        <ele>381</ele>
        <time>2014-11-11T10:00:44.000Z</time>
      </trkpt>
      <trkpt lat="47.47228" lon="6.05808">
        <ele>379.20001220703</ele>
        <time>2014-11-11T10:00:51.000Z</time>
      </trkpt>
      <trkpt lat="47.47228" lon="6.05809">
        <ele>379</ele>
        <time>2014-11-11T10:00:52.000Z</time>
      </trkpt>
      <trkpt lat="47.47226" lon="6.05816">
        <ele>378.60000610352</ele>
        <time>2014-11-11T10:00:55.000Z</time>
      </trkpt>
      <trkpt lat="47.47225" lon="6.05822">
        <ele>378.20001220703</ele>
        <time>2014-11-11T10:00:59.000Z</time>
      </trkpt>
      <trkpt lat="47.4722" lon="6.05834">
        <ele>376.79998779297</ele>
        <time>2014-11-11T10:01:07.000Z</time>
      </trkpt>
      <trkpt lat="47.47217" lon="6.05845">
        <ele>375.79998779297</ele>
        <time>2014-11-11T10:01:13.000Z</time>
      </trkpt>
      <trkpt lat="47.47215" lon="6.05851">
        <ele>375.20001220703</ele>
        <time>2014-11-11T10:01:17.000Z</time>
      </trkpt>
      <trkpt lat="47.47214" lon="6.05852">
        <ele>375.20001220703</ele>
        <time>2014-11-11T10:01:18.000Z</time>
      </trkpt>
      <trkpt lat="47.47213" lon="6.05856">
        <ele>374.79998779297</ele>
        <time>2014-11-11T10:01:21.000Z</time>
      </trkpt>
      <trkpt lat="47.47212" lon="6.05863">
        <ele>374.39999389648</ele>
        <time>2014-11-11T10:01:26.000Z</time>
      </trkpt>
      <trkpt lat="47.47211" lon="6.05866">
        <ele>374</ele>
        <time>2014-11-11T10:01:28.000Z</time>
      </trkpt>
      <trkpt lat="47.47209" lon="6.05872">
        <ele>373.39999389648</ele>
        <time>2014-11-11T10:01:32.000Z</time>
      </trkpt>
      <trkpt lat="47.47209" lon="6.05875">
        <ele>373.20001220703</ele>
        <time>2014-11-11T10:01:34.000Z</time>
      </trkpt>
      <trkpt lat="47.47207" lon="6.05881">
        <ele>372.79998779297</ele>
        <time>2014-11-11T10:01:38.000Z</time>
      </trkpt>
      <trkpt lat="47.47205" lon="6.05894">
        <ele>372</ele>
        <time>2014-11-11T10:01:45.000Z</time>
      </trkpt>
      <trkpt lat="47.47205" lon="6.05897">
        <ele>371.79998779297</ele>
        <time>2014-11-11T10:01:47.000Z</time>
      </trkpt>
      <trkpt lat="47.47201" lon="6.05909">
        <ele>370.39999389648</ele>
        <time>2014-11-11T10:01:54.000Z</time>
      </trkpt>
      <trkpt lat="47.47198" lon="6.05917">
        <ele>369.60000610352</ele>
        <time>2014-11-11T10:02:00.000Z</time>
      </trkpt>
      <trkpt lat="47.47194" lon="6.05926">
        <ele>368.79998779297</ele>
        <time>2014-11-11T10:02:07.000Z</time>
      </trkpt>
      <trkpt lat="47.47193" lon="6.05931">
        <ele>368.79998779297</ele>
        <time>2014-11-11T10:02:11.000Z</time>
      </trkpt>
      <trkpt lat="47.47193" lon="6.05932">
        <ele>368.60000610352</ele>
        <time>2014-11-11T10:02:13.000Z</time>
      </trkpt>
      <trkpt lat="47.47193" lon="6.05935">
        <ele>368.60000610352</ele>
        <time>2014-11-11T10:02:16.000Z</time>
      </trkpt>
      <trkpt lat="47.47192" lon="6.05937">
        <ele>368.60000610352</ele>
        <time>2014-11-11T10:02:17.000Z</time>
      </trkpt>
      <trkpt lat="47.47191" lon="6.05941">
        <ele>368.60000610352</ele>
        <time>2014-11-11T10:02:20.000Z</time>
      </trkpt>
      <trkpt lat="47.47184" lon="6.05955">
        <ele>367.79998779297</ele>
        <time>2014-11-11T10:02:28.000Z</time>
      </trkpt>
      <trkpt lat="47.47183" lon="6.05957">
        <ele>367.79998779297</ele>
        <time>2014-11-11T10:02:29.000Z</time>
      </trkpt>
      <trkpt lat="47.47179" lon="6.05964">
        <ele>367.39999389648</ele>
        <time>2014-11-11T10:02:34.000Z</time>
      </trkpt>
      <trkpt lat="47.47177" lon="6.05969">
        <ele>367.20001220703</ele>
        <time>2014-11-11T10:02:38.000Z</time>
      </trkpt>
      <trkpt lat="47.47176" lon="6.05973">
        <ele>367.20001220703</ele>
        <time>2014-11-11T10:02:40.000Z</time>
      </trkpt>
      <trkpt lat="47.47171" lon="6.0598">
        <ele>366.39999389648</ele>
        <time>2014-11-11T10:02:45.000Z</time>
      </trkpt>
      <trkpt lat="47.47168" lon="6.05987">
        <ele>366</ele>
        <time>2014-11-11T10:02:50.000Z</time>
      </trkpt>
      <trkpt lat="47.47162" lon="6.05997">
        <ele>365.20001220703</ele>
        <time>2014-11-11T10:02:57.000Z</time>
      </trkpt>
      <trkpt lat="47.47161" lon="6.05998">
        <ele>365</ele>
        <time>2014-11-11T10:02:58.000Z</time>
      </trkpt>
      <trkpt lat="47.47161" lon="6.05999">
        <ele>365</ele>
        <time>2014-11-11T10:02:59.000Z</time>
      </trkpt>
      <trkpt lat="47.47159" lon="6.06002">
        <ele>364.60000610352</ele>
        <time>2014-11-11T10:03:02.000Z</time>
      </trkpt>
      <trkpt lat="47.47155" lon="6.06012">
        <ele>364</ele>
        <time>2014-11-11T10:03:08.000Z</time>
      </trkpt>
      <trkpt lat="47.47151" lon="6.06024">
        <ele>363.39999389648</ele>
        <time>2014-11-11T10:03:15.000Z</time>
      </trkpt>
      <trkpt lat="47.47148" lon="6.06032">
        <ele>363</ele>
        <time>2014-11-11T10:03:20.000Z</time>
      </trkpt>
      <trkpt lat="47.47145" lon="6.06044">
        <ele>362.39999389648</ele>
        <time>2014-11-11T10:03:27.000Z</time>
      </trkpt>
      <trkpt lat="47.47144" lon="6.06047">
        <ele>362.39999389648</ele>
        <time>2014-11-11T10:03:29.000Z</time>
      </trkpt>
      <trkpt lat="47.47145" lon="6.06058">
        <ele>362.39999389648</ele>
        <time>2014-11-11T10:03:35.000Z</time>
      </trkpt>
      <trkpt lat="47.47145" lon="6.06064">
        <ele>362.20001220703</ele>
        <time>2014-11-11T10:03:39.000Z</time>
      </trkpt>
      <trkpt lat="47.47145" lon="6.06072">
        <ele>361.79998779297</ele>
        <time>2014-11-11T10:03:44.000Z</time>
      </trkpt>
      <trkpt lat="47.47143" lon="6.06082">
        <ele>360.79998779297</ele>
        <time>2014-11-11T10:03:49.000Z</time>
      </trkpt>
      <trkpt lat="47.47142" lon="6.06092">
        <ele>360</ele>
        <time>2014-11-11T10:03:55.000Z</time>
      </trkpt>
      <trkpt lat="47.47142" lon="6.06097">
        <ele>359.79998779297</ele>
        <time>2014-11-11T10:03:58.000Z</time>
      </trkpt>
      <trkpt lat="47.47142" lon="6.06098">
        <ele>359.79998779297</ele>
        <time>2014-11-11T10:03:59.000Z</time>
      </trkpt>
      <trkpt lat="47.47142" lon="6.06107">
        <ele>359.20001220703</ele>
        <time>2014-11-11T10:04:04.000Z</time>
      </trkpt>
      <trkpt lat="47.4714" lon="6.0612">
        <ele>358.39999389648</ele>
        <time>2014-11-11T10:04:11.000Z</time>
      </trkpt>
      <trkpt lat="47.4714" lon="6.06121">
        <ele>358.39999389648</ele>
        <time>2014-11-11T10:04:12.000Z</time>
      </trkpt>
      <trkpt lat="47.47139" lon="6.06124">
        <ele>358.20001220703</ele>
        <time>2014-11-11T10:04:14.000Z</time>
      </trkpt>
      <trkpt lat="47.47139" lon="6.06128">
        <ele>358.20001220703</ele>
        <time>2014-11-11T10:04:17.000Z</time>
      </trkpt>
      <trkpt lat="47.47136" lon="6.0614">
        <ele>357.79998779297</ele>
        <time>2014-11-11T10:04:23.000Z</time>
      </trkpt>
      <trkpt lat="47.47136" lon="6.06141">
        <ele>357.79998779297</ele>
        <time>2014-11-11T10:04:24.000Z</time>
      </trkpt>
      <trkpt lat="47.47136" lon="6.06143">
        <ele>357.79998779297</ele>
        <time>2014-11-11T10:04:25.000Z</time>
      </trkpt>
      <trkpt lat="47.47135" lon="6.06154">
        <ele>356.79998779297</ele>
        <time>2014-11-11T10:04:32.000Z</time>
      </trkpt>
      <trkpt lat="47.47135" lon="6.06159">
        <ele>356.39999389648</ele>
        <time>2014-11-11T10:04:35.000Z</time>
      </trkpt>
      <trkpt lat="47.47136" lon="6.06167">
        <ele>355.79998779297</ele>
        <time>2014-11-11T10:04:39.000Z</time>
      </trkpt>
      <trkpt lat="47.47136" lon="6.06176">
        <ele>355</ele>
        <time>2014-11-11T10:04:45.000Z</time>
      </trkpt>
      <trkpt lat="47.47136" lon="6.06177">
        <ele>355</ele>
        <time>2014-11-11T10:04:46.000Z</time>
      </trkpt>
      <trkpt lat="47.47136" lon="6.06181">
        <ele>354.60000610352</ele>
        <time>2014-11-11T10:04:48.000Z</time>
      </trkpt>
      <trkpt lat="47.47137" lon="6.06185">
        <ele>354.39999389648</ele>
        <time>2014-11-11T10:04:51.000Z</time>
      </trkpt>
      <trkpt lat="47.47139" lon="6.0619">
        <ele>354</ele>
        <time>2014-11-11T10:04:55.000Z</time>
      </trkpt>
      <trkpt lat="47.4714" lon="6.06198">
        <ele>353.39999389648</ele>
        <time>2014-11-11T10:05:01.000Z</time>
      </trkpt>
      <trkpt lat="47.47141" lon="6.06201">
        <ele>353.20001220703</ele>
        <time>2014-11-11T10:05:03.000Z</time>
      </trkpt>
      <trkpt lat="47.47141" lon="6.06203">
        <ele>353.20001220703</ele>
        <time>2014-11-11T10:05:04.000Z</time>
      </trkpt>
      <trkpt lat="47.47139" lon="6.06213">
        <ele>352.79998779297</ele>
        <time>2014-11-11T10:05:10.000Z</time>
      </trkpt>
      <trkpt lat="47.47138" lon="6.06217">
        <ele>352.60000610352</ele>
        <time>2014-11-11T10:05:12.000Z</time>
      </trkpt>
      <trkpt lat="47.47137" lon="6.0622">
        <ele>352.60000610352</ele>
        <time>2014-11-11T10:05:14.000Z</time>
      </trkpt>
      <trkpt lat="47.47136" lon="6.06231">
        <ele>352</ele>
        <time>2014-11-11T10:05:20.000Z</time>
      </trkpt>
      <trkpt lat="47.47136" lon="6.06232">
        <ele>352</ele>
        <time>2014-11-11T10:05:21.000Z</time>
      </trkpt>
      <trkpt lat="47.47136" lon="6.06234">
        <ele>351.79998779297</ele>
        <time>2014-11-11T10:05:22.000Z</time>
      </trkpt>
      <trkpt lat="47.47135" lon="6.06243">
        <ele>351.20001220703</ele>
        <time>2014-11-11T10:05:27.000Z</time>
      </trkpt>
      <trkpt lat="47.47131" lon="6.06253">
        <ele>350.60000610352</ele>
        <time>2014-11-11T10:05:32.000Z</time>
      </trkpt>
      <trkpt lat="47.47128" lon="6.06263">
        <ele>349.79998779297</ele>
        <time>2014-11-11T10:05:37.000Z</time>
      </trkpt>
      <trkpt lat="47.47128" lon="6.06266">
        <ele>349.60000610352</ele>
        <time>2014-11-11T10:05:39.000Z</time>
      </trkpt>
      <trkpt lat="47.47129" lon="6.0627">
        <ele>349.39999389648</ele>
        <time>2014-11-11T10:05:48.000Z</time>
      </trkpt>
      <trkpt lat="47.4713" lon="6.06279">
        <ele>348.79998779297</ele>
        <time>2014-11-11T10:06:02.000Z</time>
      </trkpt>
      <trkpt lat="47.47131" lon="6.06287">
        <ele>348</ele>
        <time>2014-11-11T10:06:14.000Z</time>
      </trkpt>
      <trkpt lat="47.47135" lon="6.06294">
        <ele>347.60000610352</ele>
        <time>2014-11-11T10:06:22.000Z</time>
      </trkpt>
      <trkpt lat="47.47136" lon="6.06298">
        <ele>347.20001220703</ele>
        <time>2014-11-11T10:06:25.000Z</time>
      </trkpt>
      <trkpt lat="47.47138" lon="6.06301">
        <ele>347</ele>
        <time>2014-11-11T10:06:28.000Z</time>
      </trkpt>
      <trkpt lat="47.47141" lon="6.06308">
        <ele>346.60000610352</ele>
        <time>2014-11-11T10:06:34.000Z</time>
      </trkpt>
      <trkpt lat="47.47142" lon="6.06309">
        <ele>346.60000610352</ele>
        <time>2014-11-11T10:06:35.000Z</time>
      </trkpt>
      <trkpt lat="47.47143" lon="6.0631">
        <ele>346.60000610352</ele>
        <time>2014-11-11T10:06:36.000Z</time>
      </trkpt>
      <trkpt lat="47.47144" lon="6.06317">
        <ele>346.20001220703</ele>
        <time>2014-11-11T10:06:40.000Z</time>
      </trkpt>
      <trkpt lat="47.47148" lon="6.06325">
        <ele>346</ele>
        <time>2014-11-11T10:06:46.000Z</time>
      </trkpt>
      <trkpt lat="47.47152" lon="6.0633">
        <ele>346</ele>
        <time>2014-11-11T10:06:50.000Z</time>
      </trkpt>
      <trkpt lat="47.47155" lon="6.06336">
        <ele>345.79998779297</ele>
        <time>2014-11-11T10:06:54.000Z</time>
      </trkpt>
      <trkpt lat="47.47162" lon="6.06347">
        <ele>345.39999389648</ele>
        <time>2014-11-11T10:07:02.000Z</time>
      </trkpt>
      <trkpt lat="47.47167" lon="6.06358">
        <ele>345.20001220703</ele>
        <time>2014-11-11T10:07:10.000Z</time>
      </trkpt>
      <trkpt lat="47.47168" lon="6.06359">
        <ele>345.20001220703</ele>
        <time>2014-11-11T10:07:11.000Z</time>
      </trkpt>
      <trkpt lat="47.47174" lon="6.06368">
        <ele>345.60000610352</ele>
        <time>2014-11-11T10:07:18.000Z</time>
      </trkpt>
      <trkpt lat="47.47174" lon="6.06369">
        <ele>345.60000610352</ele>
        <time>2014-11-11T10:07:19.000Z</time>
      </trkpt>
      <trkpt lat="47.47176" lon="6.06371">
        <ele>345.60000610352</ele>
        <time>2014-11-11T10:07:21.000Z</time>
      </trkpt>
      <trkpt lat="47.4718" lon="6.06381">
        <ele>345.79998779297</ele>
        <time>2014-11-11T10:07:28.000Z</time>
      </trkpt>
      <trkpt lat="47.47182" lon="6.06385">
        <ele>345.60000610352</ele>
        <time>2014-11-11T10:07:31.000Z</time>
      </trkpt>
      <trkpt lat="47.47182" lon="6.06389">
        <ele>345.60000610352</ele>
        <time>2014-11-11T10:07:33.000Z</time>
      </trkpt>
      <trkpt lat="47.47185" lon="6.06392">
        <ele>345.79998779297</ele>
        <time>2014-11-11T10:07:36.000Z</time>
      </trkpt>
      <trkpt lat="47.4719" lon="6.064">
        <ele>346.39999389648</ele>
        <time>2014-11-11T10:07:41.000Z</time>
      </trkpt>
      <trkpt lat="47.47194" lon="6.06407">
        <ele>346.79998779297</ele>
        <time>2014-11-11T10:07:46.000Z</time>
      </trkpt>
      <trkpt lat="47.47197" lon="6.06414">
        <ele>347.20001220703</ele>
        <time>2014-11-11T10:07:51.000Z</time>
      </trkpt>
      <trkpt lat="47.47197" lon="6.06418">
        <ele>347.20001220703</ele>
        <time>2014-11-11T10:07:53.000Z</time>
      </trkpt>
      <trkpt lat="47.47202" lon="6.06432">
        <ele>347.60000610352</ele>
        <time>2014-11-11T10:08:02.000Z</time>
      </trkpt>
      <trkpt lat="47.47206" lon="6.06445">
        <ele>347.60000610352</ele>
        <time>2014-11-11T10:08:10.000Z</time>
      </trkpt>
      <trkpt lat="47.47206" lon="6.06446">
        <ele>347.60000610352</ele>
        <time>2014-11-11T10:08:11.000Z</time>
      </trkpt>
      <trkpt lat="47.47207" lon="6.06452">
        <ele>347.20001220703</ele>
        <time>2014-11-11T10:08:15.000Z</time>
      </trkpt>
      <trkpt lat="47.47207" lon="6.06453">
        <ele>347.20001220703</ele>
        <time>2014-11-11T10:08:16.000Z</time>
      </trkpt>
      <trkpt lat="47.47209" lon="6.06456">
        <ele>347.39999389648</ele>
        <time>2014-11-11T10:08:18.000Z</time>
      </trkpt>
      <trkpt lat="47.47212" lon="6.06463">
        <ele>347.60000610352</ele>
        <time>2014-11-11T10:08:22.000Z</time>
      </trkpt>
      <trkpt lat="47.47216" lon="6.0647">
        <ele>348</ele>
        <time>2014-11-11T10:08:27.000Z</time>
      </trkpt>
      <trkpt lat="47.47221" lon="6.06479">
        <ele>348.39999389648</ele>
        <time>2014-11-11T10:08:33.000Z</time>
      </trkpt>
      <trkpt lat="47.47221" lon="6.06481">
        <ele>348.39999389648</ele>
        <time>2014-11-11T10:08:34.000Z</time>
      </trkpt>
      <trkpt lat="47.47223" lon="6.06486">
        <ele>348.39999389648</ele>
        <time>2014-11-11T10:08:38.000Z</time>
      </trkpt>
      <trkpt lat="47.47226" lon="6.06494">
        <ele>348.79998779297</ele>
        <time>2014-11-11T10:08:42.000Z</time>
      </trkpt>
      <trkpt lat="47.47228" lon="6.06496">
        <ele>348.79998779297</ele>
        <time>2014-11-11T10:08:44.000Z</time>
      </trkpt>
      <trkpt lat="47.47228" lon="6.065">
        <ele>348.79998779297</ele>
        <time>2014-11-11T10:08:46.000Z</time>
      </trkpt>
      <trkpt lat="47.47233" lon="6.06513">
        <ele>349</ele>
        <time>2014-11-11T10:08:54.000Z</time>
      </trkpt>
      <trkpt lat="47.47233" lon="6.06514">
        <ele>349</ele>
        <time>2014-11-11T10:08:55.000Z</time>
      </trkpt>
      <trkpt lat="47.47234" lon="6.06517">
        <ele>349</ele>
        <time>2014-11-11T10:08:57.000Z</time>
      </trkpt>
      <trkpt lat="47.47234" lon="6.06524">
        <ele>348.60000610352</ele>
        <time>2014-11-11T10:09:05.000Z</time>
      </trkpt>
      <trkpt lat="47.47234" lon="6.06525">
        <ele>348.79998779297</ele>
        <time>2014-11-11T10:09:06.000Z</time>
      </trkpt>
      <trkpt lat="47.47235" lon="6.06531">
        <ele>348.60000610352</ele>
        <time>2014-11-11T10:09:09.000Z</time>
      </trkpt>
      <trkpt lat="47.47231" lon="6.06545">
        <ele>347.20001220703</ele>
        <time>2014-11-11T10:09:17.000Z</time>
      </trkpt>
      <trkpt lat="47.47226" lon="6.06556">
        <ele>345.60000610352</ele>
        <time>2014-11-11T10:09:23.000Z</time>
      </trkpt>
      <trkpt lat="47.47225" lon="6.06558">
        <ele>345.39999389648</ele>
        <time>2014-11-11T10:09:24.000Z</time>
      </trkpt>
      <trkpt lat="47.47222" lon="6.06564">
        <ele>344.60000610352</ele>
        <time>2014-11-11T10:09:28.000Z</time>
      </trkpt>
      <trkpt lat="47.47221" lon="6.06568">
        <ele>344.20001220703</ele>
        <time>2014-11-11T10:09:31.000Z</time>
      </trkpt>
      <trkpt lat="47.47219" lon="6.06571">
        <ele>344</ele>
        <time>2014-11-11T10:09:33.000Z</time>
      </trkpt>
      <trkpt lat="47.47217" lon="6.06575">
        <ele>343.39999389648</ele>
        <time>2014-11-11T10:09:38.000Z</time>
      </trkpt>
      <trkpt lat="47.47211" lon="6.06587">
        <ele>342</ele>
        <time>2014-11-11T10:09:46.000Z</time>
      </trkpt>
      <trkpt lat="47.47211" lon="6.06588">
        <ele>341.79998779297</ele>
        <time>2014-11-11T10:09:47.000Z</time>
      </trkpt>
      <trkpt lat="47.47206" lon="6.06596">
        <ele>340.60000610352</ele>
        <time>2014-11-11T10:09:53.000Z</time>
      </trkpt>
      <trkpt lat="47.472" lon="6.06604">
        <ele>339.60000610352</ele>
        <time>2014-11-11T10:09:59.000Z</time>
      </trkpt>
      <trkpt lat="47.47191" lon="6.06618">
        <ele>337.79998779297</ele>
        <time>2014-11-11T10:10:07.000Z</time>
      </trkpt>
      <trkpt lat="47.47184" lon="6.06629">
        <ele>336.39999389648</ele>
        <time>2014-11-11T10:10:14.000Z</time>
      </trkpt>
      <trkpt lat="47.47178" lon="6.06639">
        <ele>335.20001220703</ele>
        <time>2014-11-11T10:10:21.000Z</time>
      </trkpt>
      <trkpt lat="47.47174" lon="6.06644">
        <ele>334.39999389648</ele>
        <time>2014-11-11T10:10:26.000Z</time>
      </trkpt>
      <trkpt lat="47.4717" lon="6.06652">
        <ele>333.79998779297</ele>
        <time>2014-11-11T10:10:33.000Z</time>
      </trkpt>
      <trkpt lat="47.47166" lon="6.0666">
        <ele>333.60000610352</ele>
        <time>2014-11-11T10:10:39.000Z</time>
      </trkpt>
      <trkpt lat="47.47162" lon="6.06671">
        <ele>333.60000610352</ele>
        <time>2014-11-11T10:10:46.000Z</time>
      </trkpt>
      <trkpt lat="47.47159" lon="6.06681">
        <ele>333.39999389648</ele>
        <time>2014-11-11T10:10:52.000Z</time>
      </trkpt>
      <trkpt lat="47.47158" lon="6.06685">
        <ele>333.39999389648</ele>
        <time>2014-11-11T10:10:55.000Z</time>
      </trkpt>
      <trkpt lat="47.47157" lon="6.06699">
        <ele>334</ele>
        <time>2014-11-11T10:11:04.000Z</time>
      </trkpt>
      <trkpt lat="47.47157" lon="6.067">
        <ele>334</ele>
        <time>2014-11-11T10:11:05.000Z</time>
      </trkpt>
      <trkpt lat="47.47157" lon="6.06713">
        <ele>334.39999389648</ele>
        <time>2014-11-11T10:11:13.000Z</time>
      </trkpt>
      <trkpt lat="47.47156" lon="6.06718">
        <ele>334.60000610352</ele>
        <time>2014-11-11T10:11:16.000Z</time>
      </trkpt>
      <trkpt lat="47.47156" lon="6.06728">
        <ele>334.79998779297</ele>
        <time>2014-11-11T10:11:23.000Z</time>
      </trkpt>
      <trkpt lat="47.47157" lon="6.06735">
        <ele>334.79998779297</ele>
        <time>2014-11-11T10:11:28.000Z</time>
      </trkpt>
      <trkpt lat="47.47156" lon="6.06747">
        <ele>334.79998779297</ele>
        <time>2014-11-11T10:11:34.000Z</time>
      </trkpt>
      <trkpt lat="47.47157" lon="6.06757">
        <ele>334.79998779297</ele>
        <time>2014-11-11T10:11:39.000Z</time>
      </trkpt>
      <trkpt lat="47.47159" lon="6.06769">
        <ele>335</ele>
        <time>2014-11-11T10:11:45.000Z</time>
      </trkpt>
      <trkpt lat="47.47159" lon="6.06777">
        <ele>335.20001220703</ele>
        <time>2014-11-11T10:11:50.000Z</time>
      </trkpt>
      <trkpt lat="47.47159" lon="6.06781">
        <ele>335.20001220703</ele>
        <time>2014-11-11T10:11:52.000Z</time>
      </trkpt>
      <trkpt lat="47.47159" lon="6.06783">
        <ele>335</ele>
        <time>2014-11-11T10:11:53.000Z</time>
      </trkpt>
      <trkpt lat="47.47159" lon="6.06794">
        <ele>335.20001220703</ele>
        <time>2014-11-11T10:11:59.000Z</time>
      </trkpt>
      <trkpt lat="47.47159" lon="6.06795">
        <ele>335.20001220703</ele>
        <time>2014-11-11T10:12:00.000Z</time>
      </trkpt>
      <trkpt lat="47.47159" lon="6.0681">
        <ele>334.79998779297</ele>
        <time>2014-11-11T10:12:07.000Z</time>
      </trkpt>
      <trkpt lat="47.4716" lon="6.06819">
        <ele>333.79998779297</ele>
        <time>2014-11-11T10:12:11.000Z</time>
      </trkpt>
      <trkpt lat="47.4716" lon="6.0683">
        <ele>332.39999389648</ele>
        <time>2014-11-11T10:12:16.000Z</time>
      </trkpt>
      <trkpt lat="47.47161" lon="6.06832">
        <ele>332.20001220703</ele>
        <time>2014-11-11T10:12:17.000Z</time>
      </trkpt>
      <trkpt lat="47.4716" lon="6.06841">
        <ele>331</ele>
        <time>2014-11-11T10:12:21.000Z</time>
      </trkpt>
      <trkpt lat="47.47158" lon="6.06851">
        <ele>329.20001220703</ele>
        <time>2014-11-11T10:12:26.000Z</time>
      </trkpt>
      <trkpt lat="47.47156" lon="6.06858">
        <ele>328</ele>
        <time>2014-11-11T10:12:31.000Z</time>
      </trkpt>
      <trkpt lat="47.47154" lon="6.06867">
        <ele>326.39999389648</ele>
        <time>2014-11-11T10:12:36.000Z</time>
      </trkpt>
      <trkpt lat="47.47149" lon="6.06878">
        <ele>324.39999389648</ele>
        <time>2014-11-11T10:12:41.000Z</time>
      </trkpt>
      <trkpt lat="47.47146" lon="6.06887">
        <ele>323.39999389648</ele>
        <time>2014-11-11T10:12:45.000Z</time>
      </trkpt>
      <trkpt lat="47.47144" lon="6.06891">
        <ele>323</ele>
        <time>2014-11-11T10:12:47.000Z</time>
      </trkpt>
      <trkpt lat="47.47138" lon="6.06907">
        <ele>321.39999389648</ele>
        <time>2014-11-11T10:12:54.000Z</time>
      </trkpt>
      <trkpt lat="47.47134" lon="6.06917">
        <ele>320.39999389648</ele>
        <time>2014-11-11T10:13:00.000Z</time>
      </trkpt>
      <trkpt lat="47.47132" lon="6.06922">
        <ele>320</ele>
        <time>2014-11-11T10:13:03.000Z</time>
      </trkpt>
      <trkpt lat="47.47128" lon="6.06935">
        <ele>318.79998779297</ele>
        <time>2014-11-11T10:13:12.000Z</time>
      </trkpt>
      <trkpt lat="47.47127" lon="6.06936">
        <ele>318.60000610352</ele>
        <time>2014-11-11T10:13:13.000Z</time>
      </trkpt>
      <trkpt lat="47.47123" lon="6.06947">
        <ele>317.39999389648</ele>
        <time>2014-11-11T10:13:20.000Z</time>
      </trkpt>
      <trkpt lat="47.47118" lon="6.06959">
        <ele>316</ele>
        <time>2014-11-11T10:13:29.000Z</time>
      </trkpt>
      <trkpt lat="47.47113" lon="6.06969">
        <ele>314.79998779297</ele>
        <time>2014-11-11T10:13:36.000Z</time>
      </trkpt>
      <trkpt lat="47.47108" lon="6.0698">
        <ele>313.60000610352</ele>
        <time>2014-11-11T10:13:43.000Z</time>
      </trkpt>
      <trkpt lat="47.47103" lon="6.06987">
        <ele>313</ele>
        <time>2014-11-11T10:13:49.000Z</time>
      </trkpt>
      <trkpt lat="47.47101" lon="6.06994">
        <ele>312.79998779297</ele>
        <time>2014-11-11T10:13:53.000Z</time>
      </trkpt>
      <trkpt lat="47.47097" lon="6.07003">
        <ele>311.60000610352</ele>
        <time>2014-11-11T10:14:00.000Z</time>
      </trkpt>
      <trkpt lat="47.47091" lon="6.07015">
        <ele>310</ele>
        <time>2014-11-11T10:14:07.000Z</time>
      </trkpt>
      <trkpt lat="47.47085" lon="6.07027">
        <ele>308.39999389648</ele>
        <time>2014-11-11T10:14:14.000Z</time>
      </trkpt>
      <trkpt lat="47.47081" lon="6.07036">
        <ele>307.39999389648</ele>
        <time>2014-11-11T10:14:20.000Z</time>
      </trkpt>
      <trkpt lat="47.47076" lon="6.07048">
        <ele>306.39999389648</ele>
        <time>2014-11-11T10:14:27.000Z</time>
      </trkpt>
      <trkpt lat="47.47071" lon="6.07061">
        <ele>305.79998779297</ele>
        <time>2014-11-11T10:14:35.000Z</time>
      </trkpt>
      <trkpt lat="47.47067" lon="6.07076">
        <ele>305.60000610352</ele>
        <time>2014-11-11T10:14:44.000Z</time>
      </trkpt>
      <trkpt lat="47.47064" lon="6.07092">
        <ele>305.39999389648</ele>
        <time>2014-11-11T10:14:53.000Z</time>
      </trkpt>
      <trkpt lat="47.47062" lon="6.07105">
        <ele>305.20001220703</ele>
        <time>2014-11-11T10:15:01.000Z</time>
      </trkpt>
      <trkpt lat="47.4706" lon="6.07119">
        <ele>305</ele>
        <time>2014-11-11T10:15:09.000Z</time>
      </trkpt>
      <trkpt lat="47.47058" lon="6.07134">
        <ele>306.39999389648</ele>
        <time>2014-11-11T10:15:18.000Z</time>
      </trkpt>
      <trkpt lat="47.47058" lon="6.07148">
        <ele>307.39999389648</ele>
        <time>2014-11-11T10:15:26.000Z</time>
      </trkpt>
      <trkpt lat="47.47056" lon="6.07159">
        <ele>307.79998779297</ele>
        <time>2014-11-11T10:15:32.000Z</time>
      </trkpt>
      <trkpt lat="47.47054" lon="6.07174">
        <ele>308.60000610352</ele>
        <time>2014-11-11T10:15:41.000Z</time>
      </trkpt>
      <trkpt lat="47.47052" lon="6.07187">
        <ele>309.20001220703</ele>
        <time>2014-11-11T10:15:49.000Z</time>
      </trkpt>
      <trkpt lat="47.47051" lon="6.07194">
        <ele>309.60000610352</ele>
        <time>2014-11-11T10:15:53.000Z</time>
      </trkpt>
      <trkpt lat="47.47051" lon="6.07202">
        <ele>310.60000610352</ele>
        <time>2014-11-11T10:15:57.000Z</time>
      </trkpt>
      <trkpt lat="47.47051" lon="6.07213">
        <ele>312</ele>
        <time>2014-11-11T10:16:03.000Z</time>
      </trkpt>
      <trkpt lat="47.47053" lon="6.07226">
        <ele>313.39999389648</ele>
        <time>2014-11-11T10:16:11.000Z</time>
      </trkpt>
      <trkpt lat="47.47056" lon="6.07236">
        <ele>313.39999389648</ele>
        <time>2014-11-11T10:16:18.000Z</time>
      </trkpt>
      <trkpt lat="47.47062" lon="6.07246">
        <ele>313</ele>
        <time>2014-11-11T10:16:26.000Z</time>
      </trkpt>
      <trkpt lat="47.47065" lon="6.07251">
        <ele>312.79998779297</ele>
        <time>2014-11-11T10:16:30.000Z</time>
      </trkpt>
      <trkpt lat="47.47072" lon="6.07264">
        <ele>312.39999389648</ele>
        <time>2014-11-11T10:16:39.000Z</time>
      </trkpt>
      <trkpt lat="47.47073" lon="6.07265">
        <ele>312.20001220703</ele>
        <time>2014-11-11T10:16:40.000Z</time>
      </trkpt>
      <trkpt lat="47.47075" lon="6.07271">
        <ele>312</ele>
        <time>2014-11-11T10:16:44.000Z</time>
      </trkpt>
      <trkpt lat="47.47081" lon="6.07281">
        <ele>311.60000610352</ele>
        <time>2014-11-11T10:16:51.000Z</time>
      </trkpt>
      <trkpt lat="47.47083" lon="6.07284">
        <ele>311.39999389648</ele>
        <time>2014-11-11T10:16:53.000Z</time>
      </trkpt>
      <trkpt lat="47.47086" lon="6.0729">
        <ele>311.79998779297</ele>
        <time>2014-11-11T10:16:57.000Z</time>
      </trkpt>
      <trkpt lat="47.47088" lon="6.07298">
        <ele>312.20001220703</ele>
        <time>2014-11-11T10:17:02.000Z</time>
      </trkpt>
      <trkpt lat="47.47094" lon="6.0731">
        <ele>312.79998779297</ele>
        <time>2014-11-11T10:17:10.000Z</time>
      </trkpt>
      <trkpt lat="47.47101" lon="6.07322">
        <ele>313.20001220703</ele>
        <time>2014-11-11T10:17:19.000Z</time>
      </trkpt>
      <trkpt lat="47.47102" lon="6.07325">
        <ele>313.39999389648</ele>
        <time>2014-11-11T10:17:21.000Z</time>
      </trkpt>
      <trkpt lat="47.47107" lon="6.07335">
        <ele>313.60000610352</ele>
        <time>2014-11-11T10:17:29.000Z</time>
      </trkpt>
      <trkpt lat="47.47108" lon="6.07341">
        <ele>313.39999389648</ele>
        <time>2014-11-11T10:17:33.000Z</time>
      </trkpt>
      <trkpt lat="47.47109" lon="6.07345">
        <ele>313.39999389648</ele>
        <time>2014-11-11T10:17:35.000Z</time>
      </trkpt>
      <trkpt lat="47.47112" lon="6.0735">
        <ele>313.39999389648</ele>
        <time>2014-11-11T10:17:39.000Z</time>
      </trkpt>
      <trkpt lat="47.47117" lon="6.07361">
        <ele>313.39999389648</ele>
        <time>2014-11-11T10:17:46.000Z</time>
      </trkpt>
      <trkpt lat="47.47121" lon="6.07368">
        <ele>313.39999389648</ele>
        <time>2014-11-11T10:17:53.000Z</time>
      </trkpt>
      <trkpt lat="47.47122" lon="6.0737">
        <ele>313.39999389648</ele>
        <time>2014-11-11T10:17:54.000Z</time>
      </trkpt>
      <trkpt lat="47.47126" lon="6.07379">
        <ele>313.39999389648</ele>
        <time>2014-11-11T10:18:01.000Z</time>
      </trkpt>
      <trkpt lat="47.47127" lon="6.07382">
        <ele>313.39999389648</ele>
        <time>2014-11-11T10:18:03.000Z</time>
      </trkpt>
      <trkpt lat="47.47136" lon="6.07396">
        <ele>313.60000610352</ele>
        <time>2014-11-11T10:18:13.000Z</time>
      </trkpt>
      <trkpt lat="47.47146" lon="6.07408">
        <ele>314</ele>
        <time>2014-11-11T10:18:23.000Z</time>
      </trkpt>
      <trkpt lat="47.47151" lon="6.07415">
        <ele>314.20001220703</ele>
        <time>2014-11-11T10:18:28.000Z</time>
      </trkpt>
      <trkpt lat="47.47155" lon="6.07419">
        <ele>314.39999389648</ele>
        <time>2014-11-11T10:18:32.000Z</time>
      </trkpt>
      <trkpt lat="47.4716" lon="6.07423">
        <ele>314.60000610352</ele>
        <time>2014-11-11T10:18:37.000Z</time>
      </trkpt>
      <trkpt lat="47.47161" lon="6.07423">
        <ele>314.79998779297</ele>
        <time>2014-11-11T10:18:38.000Z</time>
      </trkpt>
      <trkpt lat="47.47166" lon="6.07427">
        <ele>315</ele>
        <time>2014-11-11T10:18:43.000Z</time>
      </trkpt>
      <trkpt lat="47.47173" lon="6.07431">
        <ele>315.39999389648</ele>
        <time>2014-11-11T10:18:49.000Z</time>
      </trkpt>
      <trkpt lat="47.47175" lon="6.07431">
        <ele>315.39999389648</ele>
        <time>2014-11-11T10:18:50.000Z</time>
      </trkpt>
      <trkpt lat="47.47182" lon="6.07434">
        <ele>315.79998779297</ele>
        <time>2014-11-11T10:18:55.000Z</time>
      </trkpt>
      <trkpt lat="47.4721" lon="6.07446">
        <ele>317</ele>
        <time>2014-11-11T10:19:15.000Z</time>
      </trkpt>
      <trkpt lat="47.47219" lon="6.07453">
        <ele>317.60000610352</ele>
        <time>2014-11-11T10:19:23.000Z</time>
      </trkpt>
      <trkpt lat="47.47232" lon="6.07462">
        <ele>318.20001220703</ele>
        <time>2014-11-11T10:19:34.000Z</time>
      </trkpt>
      <trkpt lat="47.47243" lon="6.07472">
        <ele>318.60000610352</ele>
        <time>2014-11-11T10:19:44.000Z</time>
      </trkpt>
      <trkpt lat="47.47247" lon="6.07475">
        <ele>318.79998779297</ele>
        <time>2014-11-11T10:19:47.000Z</time>
      </trkpt>
      <trkpt lat="47.47252" lon="6.07481">
        <ele>319.20001220703</ele>
        <time>2014-11-11T10:19:52.000Z</time>
      </trkpt>
      <trkpt lat="47.47263" lon="6.07494">
        <ele>320</ele>
        <time>2014-11-11T10:20:03.000Z</time>
      </trkpt>
      <trkpt lat="47.47272" lon="6.07506">
        <ele>320.79998779297</ele>
        <time>2014-11-11T10:20:13.000Z</time>
      </trkpt>
      <trkpt lat="47.47278" lon="6.07516">
        <ele>321.39999389648</ele>
        <time>2014-11-11T10:20:22.000Z</time>
      </trkpt>
      <trkpt lat="47.4728" lon="6.07518">
        <ele>321.60000610352</ele>
        <time>2014-11-11T10:20:24.000Z</time>
      </trkpt>
      <trkpt lat="47.47285" lon="6.07525">
        <ele>322</ele>
        <time>2014-11-11T10:20:31.000Z</time>
      </trkpt>
      <trkpt lat="47.47292" lon="6.07533">
        <ele>322.60000610352</ele>
        <time>2014-11-11T10:20:39.000Z</time>
      </trkpt>
      <trkpt lat="47.47293" lon="6.07534">
        <ele>322.60000610352</ele>
        <time>2014-11-11T10:20:40.000Z</time>
      </trkpt>
      <trkpt lat="47.47301" lon="6.07544">
        <ele>323.39999389648</ele>
        <time>2014-11-11T10:20:50.000Z</time>
      </trkpt>
      <trkpt lat="47.4731" lon="6.07555">
        <ele>324.20001220703</ele>
        <time>2014-11-11T10:21:00.000Z</time>
      </trkpt>
      <trkpt lat="47.4732" lon="6.07569">
        <ele>324.79998779297</ele>
        <time>2014-11-11T10:21:11.000Z</time>
      </trkpt>
      <trkpt lat="47.47327" lon="6.07583">
        <ele>325.20001220703</ele>
        <time>2014-11-11T10:21:21.000Z</time>
      </trkpt>
      <trkpt lat="47.47333" lon="6.07598">
        <ele>325.60000610352</ele>
        <time>2014-11-11T10:21:31.000Z</time>
      </trkpt>
      <trkpt lat="47.47338" lon="6.07609">
        <ele>326</ele>
        <time>2014-11-11T10:21:39.000Z</time>
      </trkpt>
      <trkpt lat="47.47343" lon="6.07621">
        <ele>326.39999389648</ele>
        <time>2014-11-11T10:21:47.000Z</time>
      </trkpt>
      <trkpt lat="47.47349" lon="6.07635">
        <ele>326.79998779297</ele>
        <time>2014-11-11T10:21:57.000Z</time>
      </trkpt>
      <trkpt lat="47.47354" lon="6.07649">
        <ele>327.39999389648</ele>
        <time>2014-11-11T10:22:06.000Z</time>
      </trkpt>
      <trkpt lat="47.47358" lon="6.07659">
        <ele>328</ele>
        <time>2014-11-11T10:22:13.000Z</time>
      </trkpt>
      <trkpt lat="47.47362" lon="6.0767">
        <ele>328.39999389648</ele>
        <time>2014-11-11T10:22:20.000Z</time>
      </trkpt>
      <trkpt lat="47.47368" lon="6.07687">
        <ele>328.79998779297</ele>
        <time>2014-11-11T10:22:31.000Z</time>
      </trkpt>
      <trkpt lat="47.47373" lon="6.07706">
        <ele>329</ele>
        <time>2014-11-11T10:22:42.000Z</time>
      </trkpt>
      <trkpt lat="47.47375" lon="6.07722">
        <ele>328.60000610352</ele>
        <time>2014-11-11T10:22:51.000Z</time>
      </trkpt>
      <trkpt lat="47.47379" lon="6.07742">
        <ele>328.20001220703</ele>
        <time>2014-11-11T10:23:02.000Z</time>
      </trkpt>
      <trkpt lat="47.47384" lon="6.07757">
        <ele>328</ele>
        <time>2014-11-11T10:23:12.000Z</time>
      </trkpt>
      <trkpt lat="47.4739" lon="6.07771">
        <ele>328.20001220703</ele>
        <time>2014-11-11T10:23:22.000Z</time>
      </trkpt>
      <trkpt lat="47.47394" lon="6.07779">
        <ele>328.20001220703</ele>
        <time>2014-11-11T10:23:28.000Z</time>
      </trkpt>
      <trkpt lat="47.47397" lon="6.07787">
        <ele>328.39999389648</ele>
        <time>2014-11-11T10:23:34.000Z</time>
      </trkpt>
      <trkpt lat="47.47401" lon="6.07795">
        <ele>328.60000610352</ele>
        <time>2014-11-11T10:23:40.000Z</time>
      </trkpt>
      <trkpt lat="47.47405" lon="6.07803">
        <ele>328.79998779297</ele>
        <time>2014-11-11T10:23:46.000Z</time>
      </trkpt>
      <trkpt lat="47.4741" lon="6.07811">
        <ele>329.20001220703</ele>
        <time>2014-11-11T10:23:53.000Z</time>
      </trkpt>
      <trkpt lat="47.47416" lon="6.07824">
        <ele>329</ele>
        <time>2014-11-11T10:24:02.000Z</time>
      </trkpt>
      <trkpt lat="47.47422" lon="6.07837">
        <ele>328.79998779297</ele>
        <time>2014-11-11T10:24:10.000Z</time>
      </trkpt>
      <trkpt lat="47.4743" lon="6.07849">
        <ele>328.79998779297</ele>
        <time>2014-11-11T10:24:18.000Z</time>
      </trkpt>
      <trkpt lat="47.47437" lon="6.07857">
        <ele>329</ele>
        <time>2014-11-11T10:24:26.000Z</time>
      </trkpt>
      <trkpt lat="47.47445" lon="6.0787">
        <ele>329.20001220703</ele>
        <time>2014-11-11T10:24:36.000Z</time>
      </trkpt>
      <trkpt lat="47.47448" lon="6.07876">
        <ele>329</ele>
        <time>2014-11-11T10:24:40.000Z</time>
      </trkpt>
      <trkpt lat="47.47449" lon="6.07882">
        <ele>328.79998779297</ele>
        <time>2014-11-11T10:24:49.000Z</time>
      </trkpt>
      <trkpt lat="47.47452" lon="6.07886">
        <ele>328.79998779297</ele>
        <time>2014-11-11T10:24:54.000Z</time>
      </trkpt>
      <trkpt lat="47.47459" lon="6.07899">
        <ele>328.39999389648</ele>
        <time>2014-11-11T10:25:03.000Z</time>
      </trkpt>
      <trkpt lat="47.47466" lon="6.07915">
        <ele>327.60000610352</ele>
        <time>2014-11-11T10:25:12.000Z</time>
      </trkpt>
      <trkpt lat="47.47471" lon="6.0793">
        <ele>326.60000610352</ele>
        <time>2014-11-11T10:25:20.000Z</time>
      </trkpt>
      <trkpt lat="47.47477" lon="6.07945">
        <ele>325.60000610352</ele>
        <time>2014-11-11T10:25:29.000Z</time>
      </trkpt>
      <trkpt lat="47.47481" lon="6.07957">
        <ele>325</ele>
        <time>2014-11-11T10:25:36.000Z</time>
      </trkpt>
      <trkpt lat="47.47487" lon="6.07968">
        <ele>325</ele>
        <time>2014-11-11T10:25:44.000Z</time>
      </trkpt>
      <trkpt lat="47.47487" lon="6.0797">
        <ele>325</ele>
        <time>2014-11-11T10:25:45.000Z</time>
      </trkpt>
      <trkpt lat="47.47489" lon="6.07974">
        <ele>325</ele>
        <time>2014-11-11T10:25:54.000Z</time>
      </trkpt>
      <trkpt lat="47.47499" lon="6.08005">
        <ele>325.60000610352</ele>
        <time>2014-11-11T10:26:13.000Z</time>
      </trkpt>
      <trkpt lat="47.47505" lon="6.08022">
        <ele>325.79998779297</ele>
        <time>2014-11-11T10:26:23.000Z</time>
      </trkpt>
      <trkpt lat="47.47509" lon="6.08035">
        <ele>326</ele>
        <time>2014-11-11T10:26:30.000Z</time>
      </trkpt>
      <trkpt lat="47.47515" lon="6.08048">
        <ele>326</ele>
        <time>2014-11-11T10:26:38.000Z</time>
      </trkpt>
      <trkpt lat="47.47521" lon="6.08062">
        <ele>326</ele>
        <time>2014-11-11T10:26:47.000Z</time>
      </trkpt>
      <trkpt lat="47.47527" lon="6.08074">
        <ele>325.60000610352</ele>
        <time>2014-11-11T10:26:55.000Z</time>
      </trkpt>
      <trkpt lat="47.47534" lon="6.08088">
        <ele>325</ele>
        <time>2014-11-11T10:27:04.000Z</time>
      </trkpt>
      <trkpt lat="47.47544" lon="6.08102">
        <ele>324.39999389648</ele>
        <time>2014-11-11T10:27:14.000Z</time>
      </trkpt>
      <trkpt lat="47.47552" lon="6.08113">
        <ele>323.79998779297</ele>
        <time>2014-11-11T10:27:22.000Z</time>
      </trkpt>
      <trkpt lat="47.47561" lon="6.0812">
        <ele>323.39999389648</ele>
        <time>2014-11-11T10:27:29.000Z</time>
      </trkpt>
      <trkpt lat="47.47572" lon="6.08128">
        <ele>322.79998779297</ele>
        <time>2014-11-11T10:27:38.000Z</time>
      </trkpt>
      <trkpt lat="47.4758" lon="6.08135">
        <ele>322.20001220703</ele>
        <time>2014-11-11T10:27:46.000Z</time>
      </trkpt>
      <trkpt lat="47.47588" lon="6.08143">
        <ele>321.79998779297</ele>
        <time>2014-11-11T10:27:54.000Z</time>
      </trkpt>
      <trkpt lat="47.47597" lon="6.08155">
        <ele>321.39999389648</ele>
        <time>2014-11-11T10:28:03.000Z</time>
      </trkpt>
      <trkpt lat="47.47602" lon="6.08165">
        <ele>321.39999389648</ele>
        <time>2014-11-11T10:28:10.000Z</time>
      </trkpt>
      <trkpt lat="47.47608" lon="6.08182">
        <ele>321</ele>
        <time>2014-11-11T10:28:20.000Z</time>
      </trkpt>
      <trkpt lat="47.4761" lon="6.08186">
        <ele>321</ele>
        <time>2014-11-11T10:28:23.000Z</time>
      </trkpt>
      <trkpt lat="47.47615" lon="6.08196">
        <ele>320.79998779297</ele>
        <time>2014-11-11T10:28:29.000Z</time>
      </trkpt>
      <trkpt lat="47.47621" lon="6.08209">
        <ele>320.60000610352</ele>
        <time>2014-11-11T10:28:38.000Z</time>
      </trkpt>
      <trkpt lat="47.47627" lon="6.08224">
        <ele>320.39999389648</ele>
        <time>2014-11-11T10:28:47.000Z</time>
      </trkpt>
      <trkpt lat="47.47635" lon="6.08242">
        <ele>320</ele>
        <time>2014-11-11T10:28:58.000Z</time>
      </trkpt>
      <trkpt lat="47.47641" lon="6.08257">
        <ele>319.60000610352</ele>
        <time>2014-11-11T10:29:07.000Z</time>
      </trkpt>
      <trkpt lat="47.47647" lon="6.08271">
        <ele>319.20001220703</ele>
        <time>2014-11-11T10:29:16.000Z</time>
      </trkpt>
      <trkpt lat="47.47649" lon="6.08275">
        <ele>319</ele>
        <time>2014-11-11T10:29:19.000Z</time>
      </trkpt>
      <trkpt lat="47.47653" lon="6.0828">
        <ele>318.79998779297</ele>
        <time>2014-11-11T10:29:23.000Z</time>
      </trkpt>
      <trkpt lat="47.47654" lon="6.08285">
        <ele>318.79998779297</ele>
        <time>2014-11-11T10:29:26.000Z</time>
      </trkpt>
      <trkpt lat="47.47654" lon="6.08291">
        <ele>318.60000610352</ele>
        <time>2014-11-11T10:29:33.000Z</time>
      </trkpt>
      <trkpt lat="47.47654" lon="6.08304">
        <ele>318.60000610352</ele>
        <time>2014-11-11T10:29:41.000Z</time>
      </trkpt>
      <trkpt lat="47.47655" lon="6.08313">
        <ele>318.60000610352</ele>
        <time>2014-11-11T10:29:46.000Z</time>
      </trkpt>
      <trkpt lat="47.47656" lon="6.0832">
        <ele>318.20001220703</ele>
        <time>2014-11-11T10:29:50.000Z</time>
      </trkpt>
      <trkpt lat="47.47656" lon="6.08338">
        <ele>317.20001220703</ele>
        <time>2014-11-11T10:30:00.000Z</time>
      </trkpt>
      <trkpt lat="47.47654" lon="6.08351">
        <ele>316.79998779297</ele>
        <time>2014-11-11T10:30:08.000Z</time>
      </trkpt>
      <trkpt lat="47.47652" lon="6.08371">
        <ele>316</ele>
        <time>2014-11-11T10:30:18.000Z</time>
      </trkpt>
      <trkpt lat="47.47649" lon="6.08388">
        <ele>315.39999389648</ele>
        <time>2014-11-11T10:30:27.000Z</time>
      </trkpt>
      <trkpt lat="47.47645" lon="6.08411">
        <ele>314.79998779297</ele>
        <time>2014-11-11T10:30:39.000Z</time>
      </trkpt>
      <trkpt lat="47.47642" lon="6.08425">
        <ele>314.60000610352</ele>
        <time>2014-11-11T10:30:46.000Z</time>
      </trkpt>
      <trkpt lat="47.47639" lon="6.08438">
        <ele>314.39999389648</ele>
        <time>2014-11-11T10:30:53.000Z</time>
      </trkpt>
      <trkpt lat="47.47637" lon="6.08449">
        <ele>314.20001220703</ele>
        <time>2014-11-11T10:30:59.000Z</time>
      </trkpt>
      <trkpt lat="47.47632" lon="6.08466">
        <ele>314</ele>
        <time>2014-11-11T10:31:07.000Z</time>
      </trkpt>
      <trkpt lat="47.47629" lon="6.08481">
        <ele>314.20001220703</ele>
        <time>2014-11-11T10:31:14.000Z</time>
      </trkpt>
      <trkpt lat="47.47626" lon="6.08498">
        <ele>315</ele>
        <time>2014-11-11T10:31:23.000Z</time>
      </trkpt>
      <trkpt lat="47.47625" lon="6.08512">
        <ele>315.39999389648</ele>
        <time>2014-11-11T10:31:31.000Z</time>
      </trkpt>
      <trkpt lat="47.47626" lon="6.08525">
        <ele>315.39999389648</ele>
        <time>2014-11-11T10:31:38.000Z</time>
      </trkpt>
      <trkpt lat="47.47629" lon="6.08538">
        <ele>315.20001220703</ele>
        <time>2014-11-11T10:31:45.000Z</time>
      </trkpt>
      <trkpt lat="47.4763" lon="6.0854">
        <ele>315.20001220703</ele>
        <time>2014-11-11T10:31:46.000Z</time>
      </trkpt>
      <trkpt lat="47.47636" lon="6.08555">
        <ele>314.79998779297</ele>
        <time>2014-11-11T10:31:55.000Z</time>
      </trkpt>
      <trkpt lat="47.47643" lon="6.08568">
        <ele>314.79998779297</ele>
        <time>2014-11-11T10:32:04.000Z</time>
      </trkpt>
      <trkpt lat="47.47652" lon="6.08583">
        <ele>315</ele>
        <time>2014-11-11T10:32:14.000Z</time>
      </trkpt>
      <trkpt lat="47.47658" lon="6.086">
        <ele>315.39999389648</ele>
        <time>2014-11-11T10:32:24.000Z</time>
      </trkpt>
      <trkpt lat="47.47661" lon="6.08612">
        <ele>315.79998779297</ele>
        <time>2014-11-11T10:32:31.000Z</time>
      </trkpt>
      <trkpt lat="47.47663" lon="6.08625">
        <ele>316.39999389648</ele>
        <time>2014-11-11T10:32:37.000Z</time>
      </trkpt>
      <trkpt lat="47.47663" lon="6.08637">
        <ele>317</ele>
        <time>2014-11-11T10:32:44.000Z</time>
      </trkpt>
      <trkpt lat="47.47665" lon="6.08654">
        <ele>317.39999389648</ele>
        <time>2014-11-11T10:32:53.000Z</time>
      </trkpt>
      <trkpt lat="47.47665" lon="6.08673">
        <ele>317.79998779297</ele>
        <time>2014-11-11T10:33:03.000Z</time>
      </trkpt>
      <trkpt lat="47.47667" lon="6.08689">
        <ele>318.20001220703</ele>
        <time>2014-11-11T10:33:12.000Z</time>
      </trkpt>
      <trkpt lat="47.47668" lon="6.08696">
        <ele>318.20001220703</ele>
        <time>2014-11-11T10:33:17.000Z</time>
      </trkpt>
      <trkpt lat="47.4767" lon="6.08703">
        <ele>318.39999389648</ele>
        <time>2014-11-11T10:33:22.000Z</time>
      </trkpt>
      <trkpt lat="47.47671" lon="6.08708">
        <ele>318.60000610352</ele>
        <time>2014-11-11T10:33:26.000Z</time>
      </trkpt>
      <trkpt lat="47.47673" lon="6.08715">
        <ele>318.79998779297</ele>
        <time>2014-11-11T10:33:31.000Z</time>
      </trkpt>
      <trkpt lat="47.47673" lon="6.08725">
        <ele>319</ele>
        <time>2014-11-11T10:33:37.000Z</time>
      </trkpt>
      <trkpt lat="47.4768" lon="6.08733">
        <ele>319.20001220703</ele>
        <time>2014-11-11T10:33:44.000Z</time>
      </trkpt>
      <trkpt lat="47.47686" lon="6.08742">
        <ele>319.60000610352</ele>
        <time>2014-11-11T10:33:51.000Z</time>
      </trkpt>
      <trkpt lat="47.47687" lon="6.08754">
        <ele>319.60000610352</ele>
        <time>2014-11-11T10:33:58.000Z</time>
      </trkpt>
      <trkpt lat="47.47684" lon="6.08769">
        <ele>319.39999389648</ele>
        <time>2014-11-11T10:34:07.000Z</time>
      </trkpt>
      <trkpt lat="47.47682" lon="6.08775">
        <ele>319.20001220703</ele>
        <time>2014-11-11T10:34:10.000Z</time>
      </trkpt>
      <trkpt lat="47.47681" lon="6.08791">
        <ele>319</ele>
        <time>2014-11-11T10:34:18.000Z</time>
      </trkpt>
      <trkpt lat="47.47679" lon="6.08809">
        <ele>318.60000610352</ele>
        <time>2014-11-11T10:34:27.000Z</time>
      </trkpt>
      <trkpt lat="47.47676" lon="6.08821">
        <ele>318.79998779297</ele>
        <time>2014-11-11T10:34:34.000Z</time>
      </trkpt>
      <trkpt lat="47.47675" lon="6.08832">
        <ele>318.20001220703</ele>
        <time>2014-11-11T10:34:40.000Z</time>
      </trkpt>
      <trkpt lat="47.47672" lon="6.08842">
        <ele>317.60000610352</ele>
        <time>2014-11-11T10:34:46.000Z</time>
      </trkpt>
      <trkpt lat="47.47669" lon="6.08855">
        <ele>316.79998779297</ele>
        <time>2014-11-11T10:34:53.000Z</time>
      </trkpt>
      <trkpt lat="47.47667" lon="6.08867">
        <ele>316</ele>
        <time>2014-11-11T10:34:59.000Z</time>
      </trkpt>
      <trkpt lat="47.47665" lon="6.08872">
        <ele>315.79998779297</ele>
        <time>2014-11-11T10:35:03.000Z</time>
      </trkpt>
      <trkpt lat="47.4766" lon="6.08888">
        <ele>315.39999389648</ele>
        <time>2014-11-11T10:35:12.000Z</time>
      </trkpt>
      <trkpt lat="47.47658" lon="6.08894">
        <ele>314.79998779297</ele>
        <time>2014-11-11T10:35:15.000Z</time>
      </trkpt>
      <trkpt lat="47.47655" lon="6.08902">
        <ele>314.79998779297</ele>
        <time>2014-11-11T10:35:22.000Z</time>
      </trkpt>
      <trkpt lat="47.4765" lon="6.08912">
        <ele>314.79998779297</ele>
        <time>2014-11-11T10:35:28.000Z</time>
      </trkpt>
      <trkpt lat="47.47649" lon="6.08914">
        <ele>314.79998779297</ele>
        <time>2014-11-11T10:35:29.000Z</time>
      </trkpt>
      <trkpt lat="47.47644" lon="6.08924">
        <ele>315</ele>
        <time>2014-11-11T10:35:35.000Z</time>
      </trkpt>
      <trkpt lat="47.47641" lon="6.08929">
        <ele>315</ele>
        <time>2014-11-11T10:35:38.000Z</time>
      </trkpt>
      <trkpt lat="47.47636" lon="6.0894">
        <ele>315</ele>
        <time>2014-11-11T10:35:45.000Z</time>
      </trkpt>
      <trkpt lat="47.47632" lon="6.08948">
        <ele>314.39999389648</ele>
        <time>2014-11-11T10:35:50.000Z</time>
      </trkpt>
      <trkpt lat="47.47626" lon="6.08961">
        <ele>312.39999389648</ele>
        <time>2014-11-11T10:35:57.000Z</time>
      </trkpt>
      <trkpt lat="47.47623" lon="6.08968">
        <ele>311.60000610352</ele>
        <time>2014-11-11T10:36:01.000Z</time>
      </trkpt>
      <trkpt lat="47.47622" lon="6.08969">
        <ele>311.20001220703</ele>
        <time>2014-11-11T10:36:03.000Z</time>
      </trkpt>
      <trkpt lat="47.47623" lon="6.08978">
        <ele>310.79998779297</ele>
        <time>2014-11-11T10:36:10.000Z</time>
      </trkpt>
      <trkpt lat="47.47624" lon="6.08981">
        <ele>311</ele>
        <time>2014-11-11T10:36:16.000Z</time>
      </trkpt>
      <trkpt lat="47.4763" lon="6.08984">
        <ele>311.79998779297</ele>
        <time>2014-11-11T10:37:37.000Z</time>
      </trkpt>
      <trkpt lat="47.47625" lon="6.08992">
        <ele>311.20001220703</ele>
        <time>2014-11-11T10:37:45.000Z</time>
      </trkpt>
      <trkpt lat="47.47623" lon="6.08995">
        <ele>311</ele>
        <time>2014-11-11T10:37:50.000Z</time>
      </trkpt>
      <trkpt lat="47.47617" lon="6.09008">
        <ele>310.20001220703</ele>
        <time>2014-11-11T10:38:00.000Z</time>
      </trkpt>
      <trkpt lat="47.47613" lon="6.0902">
        <ele>309</ele>
        <time>2014-11-11T10:38:08.000Z</time>
      </trkpt>
      <trkpt lat="47.47608" lon="6.09032">
        <ele>307.39999389648</ele>
        <time>2014-11-11T10:38:17.000Z</time>
      </trkpt>
      <trkpt lat="47.47602" lon="6.09045">
        <ele>305.60000610352</ele>
        <time>2014-11-11T10:38:26.000Z</time>
      </trkpt>
      <trkpt lat="47.47597" lon="6.09056">
        <ele>304</ele>
        <time>2014-11-11T10:38:33.000Z</time>
      </trkpt>
      <trkpt lat="47.47592" lon="6.09067">
        <ele>302.79998779297</ele>
        <time>2014-11-11T10:38:40.000Z</time>
      </trkpt>
      <trkpt lat="47.47592" lon="6.09069">
        <ele>302.60000610352</ele>
        <time>2014-11-11T10:38:41.000Z</time>
      </trkpt>
      <trkpt lat="47.47589" lon="6.09076">
        <ele>301.60000610352</ele>
        <time>2014-11-11T10:38:45.000Z</time>
      </trkpt>
      <trkpt lat="47.47585" lon="6.09085">
        <ele>300.60000610352</ele>
        <time>2014-11-11T10:38:52.000Z</time>
      </trkpt>
      <trkpt lat="47.47584" lon="6.09088">
        <ele>300.20001220703</ele>
        <time>2014-11-11T10:38:54.000Z</time>
      </trkpt>
      <trkpt lat="47.47581" lon="6.09096">
        <ele>299.79998779297</ele>
        <time>2014-11-11T10:39:00.000Z</time>
      </trkpt>
      <trkpt lat="47.47574" lon="6.09109">
        <ele>299.60000610352</ele>
        <time>2014-11-11T10:39:10.000Z</time>
      </trkpt>
      <trkpt lat="47.47568" lon="6.09121">
        <ele>299.60000610352</ele>
        <time>2014-11-11T10:39:20.000Z</time>
      </trkpt>
      <trkpt lat="47.47568" lon="6.09119">
        <ele>299.60000610352</ele>
        <time>2014-11-11T10:39:30.000Z</time>
      </trkpt>
      <trkpt lat="47.47567" lon="6.0912">
        <ele>299.60000610352</ele>
        <time>2014-11-11T10:39:32.000Z</time>
      </trkpt>
      <trkpt lat="47.47564" lon="6.09127">
        <ele>299.20001220703</ele>
        <time>2014-11-11T10:39:37.000Z</time>
      </trkpt>
      <trkpt lat="47.4756" lon="6.09137">
        <ele>298.20001220703</ele>
        <time>2014-11-11T10:39:45.000Z</time>
      </trkpt>
      <trkpt lat="47.47557" lon="6.09143">
        <ele>297.39999389648</ele>
        <time>2014-11-11T10:39:51.000Z</time>
      </trkpt>
      <trkpt lat="47.47553" lon="6.09156">
        <ele>296.79998779297</ele>
        <time>2014-11-11T10:40:01.000Z</time>
      </trkpt>
      <trkpt lat="47.47553" lon="6.09158">
        <ele>296.79998779297</ele>
        <time>2014-11-11T10:40:03.000Z</time>
      </trkpt>
      <trkpt lat="47.47552" lon="6.0916">
        <ele>296.60000610352</ele>
        <time>2014-11-11T10:40:05.000Z</time>
      </trkpt>
      <trkpt lat="47.4755" lon="6.09167">
        <ele>296.39999389648</ele>
        <time>2014-11-11T10:40:12.000Z</time>
      </trkpt>
      <trkpt lat="47.47547" lon="6.09176">
        <ele>296</ele>
        <time>2014-11-11T10:40:19.000Z</time>
      </trkpt>
      <trkpt lat="47.4754" lon="6.09187">
        <ele>295.20001220703</ele>
        <time>2014-11-11T10:40:28.000Z</time>
      </trkpt>
      <trkpt lat="47.47533" lon="6.09194">
        <ele>294</ele>
        <time>2014-11-11T10:40:35.000Z</time>
      </trkpt>
      <trkpt lat="47.47527" lon="6.09206">
        <ele>292.20001220703</ele>
        <time>2014-11-11T10:40:44.000Z</time>
      </trkpt>
      <trkpt lat="47.47521" lon="6.09218">
        <ele>290.60000610352</ele>
        <time>2014-11-11T10:40:52.000Z</time>
      </trkpt>
      <trkpt lat="47.4751" lon="6.0923">
        <ele>288.79998779297</ele>
        <time>2014-11-11T10:41:03.000Z</time>
      </trkpt>
      <trkpt lat="47.47508" lon="6.09232">
        <ele>288.60000610352</ele>
        <time>2014-11-11T10:41:05.000Z</time>
      </trkpt>
      <trkpt lat="47.475" lon="6.09235">
        <ele>287.79998779297</ele>
        <time>2014-11-11T10:41:13.000Z</time>
      </trkpt>
      <trkpt lat="47.47496" lon="6.09243">
        <ele>287.79998779297</ele>
        <time>2014-11-11T10:41:24.000Z</time>
      </trkpt>
      <trkpt lat="47.47489" lon="6.09255">
        <ele>287.79998779297</ele>
        <time>2014-11-11T10:41:33.000Z</time>
      </trkpt>
      <trkpt lat="47.47486" lon="6.09262">
        <ele>287.79998779297</ele>
        <time>2014-11-11T10:41:39.000Z</time>
      </trkpt>
      <trkpt lat="47.4748" lon="6.09276">
        <ele>287.60000610352</ele>
        <time>2014-11-11T10:41:48.000Z</time>
      </trkpt>
      <trkpt lat="47.47472" lon="6.09288">
        <ele>287.20001220703</ele>
        <time>2014-11-11T10:41:58.000Z</time>
      </trkpt>
      <trkpt lat="47.47462" lon="6.09298">
        <ele>285.79998779297</ele>
        <time>2014-11-11T10:42:08.000Z</time>
      </trkpt>
      <trkpt lat="47.4745" lon="6.09303">
        <ele>284.60000610352</ele>
        <time>2014-11-11T10:42:19.000Z</time>
      </trkpt>
      <trkpt lat="47.47443" lon="6.09304">
        <ele>284</ele>
        <time>2014-11-11T10:42:27.000Z</time>
      </trkpt>
      <trkpt lat="47.47442" lon="6.09304">
        <ele>284</ele>
        <time>2014-11-11T10:42:28.000Z</time>
      </trkpt>
      <trkpt lat="47.47438" lon="6.09306">
        <ele>283.60000610352</ele>
        <time>2014-11-11T10:42:34.000Z</time>
      </trkpt>
      <trkpt lat="47.47437" lon="6.09306">
        <ele>283.60000610352</ele>
        <time>2014-11-11T10:42:36.000Z</time>
      </trkpt>
      <trkpt lat="47.47435" lon="6.09306">
        <ele>283.39999389648</ele>
        <time>2014-11-11T10:42:55.000Z</time>
      </trkpt>
      <trkpt lat="47.47435" lon="6.09306">
        <ele>283.39999389648</ele>
        <time>2014-11-11T10:43:00.000Z</time>
      </trkpt>
    </trkseg>
  </trk>
</gpx>